<?xml version="1.0" encoding="UTF-8" standalone="no" ?>
<gpx xmlns="http://www.topografix.com/GPX/1/1" xmlns:xsi="http://www.w3.org/2001/XMLSchema-instance" xsi:schemaLocation="http://www.topografix.com/GPX/1/1 http://www.topografix.com/GPX/1/1/gpx.xsd" version="1.1" creator="VisuGPX - https://www.visugpx.com">
  <metadata>
    <name>Col de La Ruchère (Chartreuse)</name>
    <desc><![CDATA[Par la pointe du Frou, les rochers du Frou, du Quartier et de Pertuis. Retour direct.]]></desc>
  </metadata>
  <trk>
    <name><![CDATA[19-JUIL-26 14:44:19]]></name>
    <trkseg>
      <trkpt lat="45.41632" lon="5.80827">
        <ele>929.25</ele>
        <time>2026-07-19T06:54:08Z</time>
      </trkpt>
      <trkpt lat="45.41632" lon="5.80827">
        <ele>932.14</ele>
        <time>2026-07-19T06:54:10Z</time>
      </trkpt>
      <trkpt lat="45.41632" lon="5.80827">
        <ele>928.77</ele>
        <time>2026-07-19T06:54:11Z</time>
      </trkpt>
      <trkpt lat="45.41632" lon="5.80827">
        <ele>932.14</ele>
        <time>2026-07-19T06:54:12Z</time>
      </trkpt>
      <trkpt lat="45.41632" lon="5.80827">
        <ele>928.29</ele>
        <time>2026-07-19T06:54:16Z</time>
      </trkpt>
      <trkpt lat="45.41632" lon="5.80827">
        <ele>934.54</ele>
        <time>2026-07-19T06:54:17Z</time>
      </trkpt>
      <trkpt lat="45.41632" lon="5.80827">
        <ele>926.37</ele>
        <time>2026-07-19T06:54:18Z</time>
      </trkpt>
      <trkpt lat="45.41632" lon="5.80827">
        <ele>931.17</ele>
        <time>2026-07-19T06:54:19Z</time>
      </trkpt>
      <trkpt lat="45.41632" lon="5.80827">
        <ele>930.69</ele>
        <time>2026-07-19T06:54:37Z</time>
      </trkpt>
      <trkpt lat="45.41633" lon="5.80826">
        <ele>930.69</ele>
        <time>2026-07-19T06:55:09Z</time>
      </trkpt>
      <trkpt lat="45.41634" lon="5.80826">
        <ele>930.69</ele>
        <time>2026-07-19T06:55:15Z</time>
      </trkpt>
      <trkpt lat="45.41636" lon="5.80826">
        <ele>930.69</ele>
        <time>2026-07-19T06:55:17Z</time>
      </trkpt>
      <trkpt lat="45.41637" lon="5.80825">
        <ele>930.69</ele>
        <time>2026-07-19T06:55:30Z</time>
      </trkpt>
      <trkpt lat="45.41641" lon="5.80821">
        <ele>931.65</ele>
        <time>2026-07-19T06:55:42Z</time>
      </trkpt>
      <trkpt lat="45.41637" lon="5.8081">
        <ele>933.1</ele>
        <time>2026-07-19T06:55:55Z</time>
      </trkpt>
      <trkpt lat="45.4163" lon="5.8081">
        <ele>929.73</ele>
        <time>2026-07-19T06:56:00Z</time>
      </trkpt>
      <trkpt lat="45.41629" lon="5.8081">
        <ele>935.98</ele>
        <time>2026-07-19T06:56:01Z</time>
      </trkpt>
      <trkpt lat="45.4162" lon="5.80802">
        <ele>934.06</ele>
        <time>2026-07-19T06:56:10Z</time>
      </trkpt>
      <trkpt lat="45.41625" lon="5.80804">
        <ele>935.02</ele>
        <time>2026-07-19T06:56:21Z</time>
      </trkpt>
      <trkpt lat="45.41632" lon="5.80813">
        <ele>935.5</ele>
        <time>2026-07-19T06:56:30Z</time>
      </trkpt>
      <trkpt lat="45.41634" lon="5.80812">
        <ele>936.46</ele>
        <time>2026-07-19T06:56:44Z</time>
      </trkpt>
      <trkpt lat="45.41634" lon="5.80803">
        <ele>936.94</ele>
        <time>2026-07-19T06:57:04Z</time>
      </trkpt>
      <trkpt lat="45.41634" lon="5.80794">
        <ele>938.38</ele>
        <time>2026-07-19T06:57:32Z</time>
      </trkpt>
      <trkpt lat="45.41637" lon="5.80778">
        <ele>941.27</ele>
        <time>2026-07-19T06:57:47Z</time>
      </trkpt>
      <trkpt lat="45.41633" lon="5.80762">
        <ele>944.63</ele>
        <time>2026-07-19T06:58:03Z</time>
      </trkpt>
      <trkpt lat="45.41629" lon="5.80752">
        <ele>946.56</ele>
        <time>2026-07-19T06:58:16Z</time>
      </trkpt>
      <trkpt lat="45.41623" lon="5.80733">
        <ele>949.44</ele>
        <time>2026-07-19T06:58:34Z</time>
      </trkpt>
      <trkpt lat="45.41621" lon="5.80721">
        <ele>951.36</ele>
        <time>2026-07-19T06:58:48Z</time>
      </trkpt>
      <trkpt lat="45.41613" lon="5.80712">
        <ele>953.77</ele>
        <time>2026-07-19T06:59:05Z</time>
      </trkpt>
      <trkpt lat="45.41606" lon="5.80696">
        <ele>955.69</ele>
        <time>2026-07-19T06:59:22Z</time>
      </trkpt>
      <trkpt lat="45.41596" lon="5.80685">
        <ele>957.13</ele>
        <time>2026-07-19T06:59:37Z</time>
      </trkpt>
      <trkpt lat="45.41589" lon="5.80673">
        <ele>958.57</ele>
        <time>2026-07-19T06:59:52Z</time>
      </trkpt>
      <trkpt lat="45.41584" lon="5.80666">
        <ele>960.98</ele>
        <time>2026-07-19T07:00:07Z</time>
      </trkpt>
      <trkpt lat="45.41578" lon="5.80657">
        <ele>962.9</ele>
        <time>2026-07-19T07:00:22Z</time>
      </trkpt>
      <trkpt lat="45.41573" lon="5.80646">
        <ele>965.3</ele>
        <time>2026-07-19T07:00:38Z</time>
      </trkpt>
      <trkpt lat="45.41566" lon="5.80625">
        <ele>967.7</ele>
        <time>2026-07-19T07:00:55Z</time>
      </trkpt>
      <trkpt lat="45.4156" lon="5.80616">
        <ele>970.11</ele>
        <time>2026-07-19T07:01:13Z</time>
      </trkpt>
      <trkpt lat="45.4155" lon="5.80609">
        <ele>972.99</ele>
        <time>2026-07-19T07:01:31Z</time>
      </trkpt>
      <trkpt lat="45.4154" lon="5.80604">
        <ele>974.91</ele>
        <time>2026-07-19T07:01:48Z</time>
      </trkpt>
      <trkpt lat="45.41525" lon="5.80602">
        <ele>977.32</ele>
        <time>2026-07-19T07:02:07Z</time>
      </trkpt>
      <trkpt lat="45.41512" lon="5.80604">
        <ele>979.24</ele>
        <time>2026-07-19T07:02:24Z</time>
      </trkpt>
      <trkpt lat="45.41499" lon="5.80601">
        <ele>980.68</ele>
        <time>2026-07-19T07:02:38Z</time>
      </trkpt>
      <trkpt lat="45.41492" lon="5.80595">
        <ele>982.6</ele>
        <time>2026-07-19T07:02:52Z</time>
      </trkpt>
      <trkpt lat="45.4148" lon="5.80589">
        <ele>983.57</ele>
        <time>2026-07-19T07:03:08Z</time>
      </trkpt>
      <trkpt lat="45.41471" lon="5.8058">
        <ele>985.01</ele>
        <time>2026-07-19T07:03:24Z</time>
      </trkpt>
      <trkpt lat="45.41464" lon="5.80565">
        <ele>987.41</ele>
        <time>2026-07-19T07:03:41Z</time>
      </trkpt>
      <trkpt lat="45.41456" lon="5.80554">
        <ele>989.81</ele>
        <time>2026-07-19T07:03:58Z</time>
      </trkpt>
      <trkpt lat="45.41449" lon="5.80543">
        <ele>992.22</ele>
        <time>2026-07-19T07:04:12Z</time>
      </trkpt>
      <trkpt lat="45.41443" lon="5.80533">
        <ele>994.62</ele>
        <time>2026-07-19T07:04:27Z</time>
      </trkpt>
      <trkpt lat="45.41432" lon="5.80519">
        <ele>997.02</ele>
        <time>2026-07-19T07:04:45Z</time>
      </trkpt>
      <trkpt lat="45.41426" lon="5.80506">
        <ele>999.43</ele>
        <time>2026-07-19T07:05:02Z</time>
      </trkpt>
      <trkpt lat="45.41417" lon="5.80499">
        <ele>1001.35</ele>
        <time>2026-07-19T07:05:15Z</time>
      </trkpt>
      <trkpt lat="45.41412" lon="5.80495">
        <ele>1003.27</ele>
        <time>2026-07-19T07:05:27Z</time>
      </trkpt>
      <trkpt lat="45.41399" lon="5.80484">
        <ele>1004.23</ele>
        <time>2026-07-19T07:05:40Z</time>
      </trkpt>
      <trkpt lat="45.4139" lon="5.80473">
        <ele>1005.68</ele>
        <time>2026-07-19T07:05:55Z</time>
      </trkpt>
      <trkpt lat="45.4137" lon="5.80467">
        <ele>1007.12</ele>
        <time>2026-07-19T07:06:11Z</time>
      </trkpt>
      <trkpt lat="45.41355" lon="5.80457">
        <ele>1008.56</ele>
        <time>2026-07-19T07:06:28Z</time>
      </trkpt>
      <trkpt lat="45.41354" lon="5.80458">
        <ele>1008.56</ele>
        <time>2026-07-19T07:06:29Z</time>
      </trkpt>
      <trkpt lat="45.41339" lon="5.80449">
        <ele>1010</ele>
        <time>2026-07-19T07:06:44Z</time>
      </trkpt>
      <trkpt lat="45.41327" lon="5.8044">
        <ele>1011.44</ele>
        <time>2026-07-19T07:07:00Z</time>
      </trkpt>
      <trkpt lat="45.41318" lon="5.8043">
        <ele>1012.89</ele>
        <time>2026-07-19T07:07:16Z</time>
      </trkpt>
      <trkpt lat="45.41316" lon="5.80426">
        <ele>1013.37</ele>
        <time>2026-07-19T07:07:19Z</time>
      </trkpt>
      <trkpt lat="45.41308" lon="5.80415">
        <ele>1014.33</ele>
        <time>2026-07-19T07:07:36Z</time>
      </trkpt>
      <trkpt lat="45.41305" lon="5.80415">
        <ele>1014.33</ele>
        <time>2026-07-19T07:07:47Z</time>
      </trkpt>
      <trkpt lat="45.41308" lon="5.80414">
        <ele>1014.81</ele>
        <time>2026-07-19T07:07:52Z</time>
      </trkpt>
      <trkpt lat="45.41315" lon="5.80415">
        <ele>1017.69</ele>
        <time>2026-07-19T07:08:05Z</time>
      </trkpt>
      <trkpt lat="45.41325" lon="5.80419">
        <ele>1019.62</ele>
        <time>2026-07-19T07:08:21Z</time>
      </trkpt>
      <trkpt lat="45.41332" lon="5.80423">
        <ele>1021.54</ele>
        <time>2026-07-19T07:08:35Z</time>
      </trkpt>
      <trkpt lat="45.41333" lon="5.80423">
        <ele>1021.54</ele>
        <time>2026-07-19T07:08:36Z</time>
      </trkpt>
      <trkpt lat="45.41334" lon="5.80425">
        <ele>1022.02</ele>
        <time>2026-07-19T07:08:38Z</time>
      </trkpt>
      <trkpt lat="45.41341" lon="5.80426">
        <ele>1023.94</ele>
        <time>2026-07-19T07:08:53Z</time>
      </trkpt>
      <trkpt lat="45.41342" lon="5.80416">
        <ele>1027.31</ele>
        <time>2026-07-19T07:09:12Z</time>
      </trkpt>
      <trkpt lat="45.41343" lon="5.80396">
        <ele>1030.19</ele>
        <time>2026-07-19T07:09:30Z</time>
      </trkpt>
      <trkpt lat="45.41349" lon="5.80388">
        <ele>1032.59</ele>
        <time>2026-07-19T07:09:46Z</time>
      </trkpt>
      <trkpt lat="45.41351" lon="5.80385">
        <ele>1035</ele>
        <time>2026-07-19T07:10:01Z</time>
      </trkpt>
      <trkpt lat="45.41358" lon="5.80376">
        <ele>1036.92</ele>
        <time>2026-07-19T07:10:16Z</time>
      </trkpt>
      <trkpt lat="45.41363" lon="5.80368">
        <ele>1039.32</ele>
        <time>2026-07-19T07:10:32Z</time>
      </trkpt>
      <trkpt lat="45.41369" lon="5.80367">
        <ele>1041.25</ele>
        <time>2026-07-19T07:10:45Z</time>
      </trkpt>
      <trkpt lat="45.41375" lon="5.80367">
        <ele>1043.65</ele>
        <time>2026-07-19T07:10:59Z</time>
      </trkpt>
      <trkpt lat="45.41385" lon="5.80363">
        <ele>1045.57</ele>
        <time>2026-07-19T07:11:15Z</time>
      </trkpt>
      <trkpt lat="45.41394" lon="5.80355">
        <ele>1047.97</ele>
        <time>2026-07-19T07:11:30Z</time>
      </trkpt>
      <trkpt lat="45.41405" lon="5.8036">
        <ele>1049.9</ele>
        <time>2026-07-19T07:11:45Z</time>
      </trkpt>
      <trkpt lat="45.41415" lon="5.80359">
        <ele>1050.86</ele>
        <time>2026-07-19T07:12:01Z</time>
      </trkpt>
      <trkpt lat="45.41417" lon="5.80355">
        <ele>1053.26</ele>
        <time>2026-07-19T07:12:17Z</time>
      </trkpt>
      <trkpt lat="45.4142" lon="5.8035">
        <ele>1055.18</ele>
        <time>2026-07-19T07:12:33Z</time>
      </trkpt>
      <trkpt lat="45.41422" lon="5.80346">
        <ele>1058.07</ele>
        <time>2026-07-19T07:12:49Z</time>
      </trkpt>
      <trkpt lat="45.41431" lon="5.80338">
        <ele>1060.47</ele>
        <time>2026-07-19T07:13:07Z</time>
      </trkpt>
      <trkpt lat="45.4144" lon="5.8032">
        <ele>1063.36</ele>
        <time>2026-07-19T07:13:22Z</time>
      </trkpt>
      <trkpt lat="45.41445" lon="5.8031">
        <ele>1065.28</ele>
        <time>2026-07-19T07:13:35Z</time>
      </trkpt>
      <trkpt lat="45.4145" lon="5.80301">
        <ele>1067.2</ele>
        <time>2026-07-19T07:13:48Z</time>
      </trkpt>
      <trkpt lat="45.41455" lon="5.80296">
        <ele>1069.6</ele>
        <time>2026-07-19T07:14:04Z</time>
      </trkpt>
      <trkpt lat="45.41459" lon="5.80293">
        <ele>1072.97</ele>
        <time>2026-07-19T07:14:22Z</time>
      </trkpt>
      <trkpt lat="45.41464" lon="5.80289">
        <ele>1074.89</ele>
        <time>2026-07-19T07:14:35Z</time>
      </trkpt>
      <trkpt lat="45.41466" lon="5.80276">
        <ele>1076.81</ele>
        <time>2026-07-19T07:14:52Z</time>
      </trkpt>
      <trkpt lat="45.41468" lon="5.80267">
        <ele>1079.22</ele>
        <time>2026-07-19T07:15:11Z</time>
      </trkpt>
      <trkpt lat="45.41469" lon="5.80246">
        <ele>1081.62</ele>
        <time>2026-07-19T07:15:26Z</time>
      </trkpt>
      <trkpt lat="45.41477" lon="5.80236">
        <ele>1084.99</ele>
        <time>2026-07-19T07:15:43Z</time>
      </trkpt>
      <trkpt lat="45.41475" lon="5.80227">
        <ele>1085.47</ele>
        <time>2026-07-19T07:15:53Z</time>
      </trkpt>
      <trkpt lat="45.41472" lon="5.80228">
        <ele>1085.95</ele>
        <time>2026-07-19T07:16:05Z</time>
      </trkpt>
      <trkpt lat="45.41482" lon="5.80234">
        <ele>1085.95</ele>
        <time>2026-07-19T07:16:16Z</time>
      </trkpt>
      <trkpt lat="45.41485" lon="5.80238">
        <ele>1086.43</ele>
        <time>2026-07-19T07:16:20Z</time>
      </trkpt>
      <trkpt lat="45.41496" lon="5.80243">
        <ele>1086.91</ele>
        <time>2026-07-19T07:16:34Z</time>
      </trkpt>
      <trkpt lat="45.4151" lon="5.80251">
        <ele>1088.35</ele>
        <time>2026-07-19T07:16:49Z</time>
      </trkpt>
      <trkpt lat="45.41515" lon="5.80252">
        <ele>1088.83</ele>
        <time>2026-07-19T07:16:53Z</time>
      </trkpt>
      <trkpt lat="45.41528" lon="5.80255">
        <ele>1089.79</ele>
        <time>2026-07-19T07:17:07Z</time>
      </trkpt>
      <trkpt lat="45.41539" lon="5.80254">
        <ele>1090.75</ele>
        <time>2026-07-19T07:17:21Z</time>
      </trkpt>
      <trkpt lat="45.41546" lon="5.80239">
        <ele>1093.16</ele>
        <time>2026-07-19T07:17:35Z</time>
      </trkpt>
      <trkpt lat="45.4155" lon="5.80233">
        <ele>1095.56</ele>
        <time>2026-07-19T07:17:49Z</time>
      </trkpt>
      <trkpt lat="45.41556" lon="5.80218">
        <ele>1097.96</ele>
        <time>2026-07-19T07:18:04Z</time>
      </trkpt>
      <trkpt lat="45.4156" lon="5.80218">
        <ele>1100.37</ele>
        <time>2026-07-19T07:18:19Z</time>
      </trkpt>
      <trkpt lat="45.41562" lon="5.80206">
        <ele>1102.77</ele>
        <time>2026-07-19T07:18:35Z</time>
      </trkpt>
      <trkpt lat="45.41561" lon="5.80184">
        <ele>1105.65</ele>
        <time>2026-07-19T07:18:55Z</time>
      </trkpt>
      <trkpt lat="45.4156" lon="5.80175">
        <ele>1108.54</ele>
        <time>2026-07-19T07:19:12Z</time>
      </trkpt>
      <trkpt lat="45.4156" lon="5.80163">
        <ele>1110.94</ele>
        <time>2026-07-19T07:19:28Z</time>
      </trkpt>
      <trkpt lat="45.41558" lon="5.80151">
        <ele>1113.82</ele>
        <time>2026-07-19T07:19:45Z</time>
      </trkpt>
      <trkpt lat="45.41557" lon="5.80138">
        <ele>1115.75</ele>
        <time>2026-07-19T07:20:02Z</time>
      </trkpt>
      <trkpt lat="45.4156" lon="5.80116">
        <ele>1118.15</ele>
        <time>2026-07-19T07:20:19Z</time>
      </trkpt>
      <trkpt lat="45.41562" lon="5.80101">
        <ele>1119.59</ele>
        <time>2026-07-19T07:20:35Z</time>
      </trkpt>
      <trkpt lat="45.4157" lon="5.80084">
        <ele>1118.63</ele>
        <time>2026-07-19T07:20:50Z</time>
      </trkpt>
      <trkpt lat="45.41574" lon="5.80068">
        <ele>1119.11</ele>
        <time>2026-07-19T07:21:06Z</time>
      </trkpt>
      <trkpt lat="45.41578" lon="5.80074">
        <ele>1118.63</ele>
        <time>2026-07-19T07:21:17Z</time>
      </trkpt>
      <trkpt lat="45.41587" lon="5.80085">
        <ele>1120.07</ele>
        <time>2026-07-19T07:21:35Z</time>
      </trkpt>
      <trkpt lat="45.41595" lon="5.80087">
        <ele>1120.55</ele>
        <time>2026-07-19T07:21:53Z</time>
      </trkpt>
      <trkpt lat="45.41599" lon="5.80088">
        <ele>1121.52</ele>
        <time>2026-07-19T07:21:59Z</time>
      </trkpt>
      <trkpt lat="45.41612" lon="5.80088">
        <ele>1122.96</ele>
        <time>2026-07-19T07:22:14Z</time>
      </trkpt>
      <trkpt lat="45.41626" lon="5.80092">
        <ele>1123.92</ele>
        <time>2026-07-19T07:22:27Z</time>
      </trkpt>
      <trkpt lat="45.41644" lon="5.80092">
        <ele>1125.84</ele>
        <time>2026-07-19T07:22:43Z</time>
      </trkpt>
      <trkpt lat="45.41659" lon="5.80091">
        <ele>1128.24</ele>
        <time>2026-07-19T07:23:01Z</time>
      </trkpt>
      <trkpt lat="45.41674" lon="5.80094">
        <ele>1129.69</ele>
        <time>2026-07-19T07:23:18Z</time>
      </trkpt>
      <trkpt lat="45.4169" lon="5.80085">
        <ele>1130.17</ele>
        <time>2026-07-19T07:23:34Z</time>
      </trkpt>
      <trkpt lat="45.41701" lon="5.80078">
        <ele>1129.69</ele>
        <time>2026-07-19T07:23:47Z</time>
      </trkpt>
      <trkpt lat="45.41713" lon="5.80074">
        <ele>1129.21</ele>
        <time>2026-07-19T07:24:00Z</time>
      </trkpt>
      <trkpt lat="45.41725" lon="5.80086">
        <ele>1128.73</ele>
        <time>2026-07-19T07:24:13Z</time>
      </trkpt>
      <trkpt lat="45.41729" lon="5.80088">
        <ele>1129.21</ele>
        <time>2026-07-19T07:24:18Z</time>
      </trkpt>
      <trkpt lat="45.41739" lon="5.80095">
        <ele>1130.17</ele>
        <time>2026-07-19T07:24:31Z</time>
      </trkpt>
      <trkpt lat="45.41749" lon="5.80092">
        <ele>1131.13</ele>
        <time>2026-07-19T07:24:45Z</time>
      </trkpt>
      <trkpt lat="45.41766" lon="5.80092">
        <ele>1131.13</ele>
        <time>2026-07-19T07:25:01Z</time>
      </trkpt>
      <trkpt lat="45.41777" lon="5.80095">
        <ele>1132.09</ele>
        <time>2026-07-19T07:25:16Z</time>
      </trkpt>
      <trkpt lat="45.41792" lon="5.80093">
        <ele>1132.57</ele>
        <time>2026-07-19T07:25:33Z</time>
      </trkpt>
      <trkpt lat="45.41805" lon="5.80091">
        <ele>1133.53</ele>
        <time>2026-07-19T07:25:48Z</time>
      </trkpt>
      <trkpt lat="45.41815" lon="5.80088">
        <ele>1134.01</ele>
        <time>2026-07-19T07:25:55Z</time>
      </trkpt>
      <trkpt lat="45.41829" lon="5.80067">
        <ele>1135.45</ele>
        <time>2026-07-19T07:26:09Z</time>
      </trkpt>
      <trkpt lat="45.41848" lon="5.80075">
        <ele>1135.94</ele>
        <time>2026-07-19T07:26:28Z</time>
      </trkpt>
      <trkpt lat="45.41863" lon="5.80085">
        <ele>1136.42</ele>
        <time>2026-07-19T07:26:47Z</time>
      </trkpt>
      <trkpt lat="45.41879" lon="5.80083">
        <ele>1136.42</ele>
        <time>2026-07-19T07:27:04Z</time>
      </trkpt>
      <trkpt lat="45.41882" lon="5.80084">
        <ele>1136.42</ele>
        <time>2026-07-19T07:27:06Z</time>
      </trkpt>
      <trkpt lat="45.41896" lon="5.80083">
        <ele>1136.9</ele>
        <time>2026-07-19T07:27:20Z</time>
      </trkpt>
      <trkpt lat="45.41909" lon="5.80088">
        <ele>1136.9</ele>
        <time>2026-07-19T07:27:38Z</time>
      </trkpt>
      <trkpt lat="45.41928" lon="5.80098">
        <ele>1137.86</ele>
        <time>2026-07-19T07:27:54Z</time>
      </trkpt>
      <trkpt lat="45.41932" lon="5.80104">
        <ele>1137.86</ele>
        <time>2026-07-19T07:27:57Z</time>
      </trkpt>
      <trkpt lat="45.4195" lon="5.80105">
        <ele>1139.78</ele>
        <time>2026-07-19T07:28:14Z</time>
      </trkpt>
      <trkpt lat="45.41953" lon="5.80107">
        <ele>1140.74</ele>
        <time>2026-07-19T07:28:19Z</time>
      </trkpt>
      <trkpt lat="45.41954" lon="5.80108">
        <ele>1141.22</ele>
        <time>2026-07-19T07:28:21Z</time>
      </trkpt>
      <trkpt lat="45.41961" lon="5.80107">
        <ele>1142.66</ele>
        <time>2026-07-19T07:28:34Z</time>
      </trkpt>
      <trkpt lat="45.41972" lon="5.801">
        <ele>1142.66</ele>
        <time>2026-07-19T07:28:50Z</time>
      </trkpt>
      <trkpt lat="45.41984" lon="5.80085">
        <ele>1139.3</ele>
        <time>2026-07-19T07:29:09Z</time>
      </trkpt>
      <trkpt lat="45.41986" lon="5.80073">
        <ele>1136.42</ele>
        <time>2026-07-19T07:29:27Z</time>
      </trkpt>
      <trkpt lat="45.41992" lon="5.80049">
        <ele>1134.97</ele>
        <time>2026-07-19T07:29:46Z</time>
      </trkpt>
      <trkpt lat="45.41991" lon="5.80049">
        <ele>1129.69</ele>
        <time>2026-07-19T07:29:56Z</time>
      </trkpt>
      <trkpt lat="45.41991" lon="5.80048">
        <ele>1138.34</ele>
        <time>2026-07-19T07:29:57Z</time>
      </trkpt>
      <trkpt lat="45.41991" lon="5.80048">
        <ele>1134.97</ele>
        <time>2026-07-19T07:29:58Z</time>
      </trkpt>
      <trkpt lat="45.41992" lon="5.80047">
        <ele>1134.49</ele>
        <time>2026-07-19T07:30:15Z</time>
      </trkpt>
      <trkpt lat="45.42002" lon="5.80039">
        <ele>1132.57</ele>
        <time>2026-07-19T07:30:28Z</time>
      </trkpt>
      <trkpt lat="45.42003" lon="5.80036">
        <ele>1132.57</ele>
        <time>2026-07-19T07:30:29Z</time>
      </trkpt>
      <trkpt lat="45.42009" lon="5.80022">
        <ele>1131.61</ele>
        <time>2026-07-19T07:30:40Z</time>
      </trkpt>
      <trkpt lat="45.4201" lon="5.80021">
        <ele>1131.61</ele>
        <time>2026-07-19T07:30:41Z</time>
      </trkpt>
      <trkpt lat="45.42017" lon="5.8001">
        <ele>1130.65</ele>
        <time>2026-07-19T07:30:56Z</time>
      </trkpt>
      <trkpt lat="45.42029" lon="5.79994">
        <ele>1130.65</ele>
        <time>2026-07-19T07:31:12Z</time>
      </trkpt>
      <trkpt lat="45.42041" lon="5.79974">
        <ele>1130.65</ele>
        <time>2026-07-19T07:31:28Z</time>
      </trkpt>
      <trkpt lat="45.42052" lon="5.79952">
        <ele>1131.61</ele>
        <time>2026-07-19T07:31:45Z</time>
      </trkpt>
      <trkpt lat="45.42056" lon="5.79945">
        <ele>1133.53</ele>
        <time>2026-07-19T07:32:02Z</time>
      </trkpt>
      <trkpt lat="45.42068" lon="5.79936">
        <ele>1136.9</ele>
        <time>2026-07-19T07:32:20Z</time>
      </trkpt>
      <trkpt lat="45.42079" lon="5.79929">
        <ele>1139.78</ele>
        <time>2026-07-19T07:32:37Z</time>
      </trkpt>
      <trkpt lat="45.42086" lon="5.79911">
        <ele>1141.22</ele>
        <time>2026-07-19T07:32:52Z</time>
      </trkpt>
      <trkpt lat="45.42095" lon="5.79913">
        <ele>1143.14</ele>
        <time>2026-07-19T07:33:08Z</time>
      </trkpt>
      <trkpt lat="45.42107" lon="5.79903">
        <ele>1143.63</ele>
        <time>2026-07-19T07:33:23Z</time>
      </trkpt>
      <trkpt lat="45.42113" lon="5.7989">
        <ele>1146.03</ele>
        <time>2026-07-19T07:33:43Z</time>
      </trkpt>
      <trkpt lat="45.4212" lon="5.79867">
        <ele>1147.95</ele>
        <time>2026-07-19T07:34:01Z</time>
      </trkpt>
      <trkpt lat="45.42123" lon="5.79853">
        <ele>1148.91</ele>
        <time>2026-07-19T07:34:15Z</time>
      </trkpt>
      <trkpt lat="45.4213" lon="5.79846">
        <ele>1150.35</ele>
        <time>2026-07-19T07:34:32Z</time>
      </trkpt>
      <trkpt lat="45.42141" lon="5.79839">
        <ele>1151.8</ele>
        <time>2026-07-19T07:34:47Z</time>
      </trkpt>
      <trkpt lat="45.42154" lon="5.79826">
        <ele>1153.72</ele>
        <time>2026-07-19T07:35:04Z</time>
      </trkpt>
      <trkpt lat="45.42163" lon="5.79821">
        <ele>1155.16</ele>
        <time>2026-07-19T07:35:18Z</time>
      </trkpt>
      <trkpt lat="45.42174" lon="5.79816">
        <ele>1156.6</ele>
        <time>2026-07-19T07:35:33Z</time>
      </trkpt>
      <trkpt lat="45.42189" lon="5.79813">
        <ele>1158.53</ele>
        <time>2026-07-19T07:35:50Z</time>
      </trkpt>
      <trkpt lat="45.42198" lon="5.798">
        <ele>1159.49</ele>
        <time>2026-07-19T07:36:04Z</time>
      </trkpt>
      <trkpt lat="45.42204" lon="5.79796">
        <ele>1159.01</ele>
        <time>2026-07-19T07:36:17Z</time>
      </trkpt>
      <trkpt lat="45.42209" lon="5.79793">
        <ele>1160.45</ele>
        <time>2026-07-19T07:36:32Z</time>
      </trkpt>
      <trkpt lat="45.42214" lon="5.79786">
        <ele>1159.97</ele>
        <time>2026-07-19T07:36:47Z</time>
      </trkpt>
      <trkpt lat="45.42223" lon="5.79775">
        <ele>1159.49</ele>
        <time>2026-07-19T07:36:59Z</time>
      </trkpt>
      <trkpt lat="45.42225" lon="5.79762">
        <ele>1160.93</ele>
        <time>2026-07-19T07:37:15Z</time>
      </trkpt>
      <trkpt lat="45.42229" lon="5.79756">
        <ele>1163.33</ele>
        <time>2026-07-19T07:37:31Z</time>
      </trkpt>
      <trkpt lat="45.42232" lon="5.79756">
        <ele>1164.77</ele>
        <time>2026-07-19T07:37:45Z</time>
      </trkpt>
      <trkpt lat="45.42236" lon="5.7975">
        <ele>1166.22</ele>
        <time>2026-07-19T07:37:58Z</time>
      </trkpt>
      <trkpt lat="45.42247" lon="5.79746">
        <ele>1167.18</ele>
        <time>2026-07-19T07:38:14Z</time>
      </trkpt>
      <trkpt lat="45.42261" lon="5.79742">
        <ele>1168.14</ele>
        <time>2026-07-19T07:38:31Z</time>
      </trkpt>
      <trkpt lat="45.42267" lon="5.79742">
        <ele>1168.62</ele>
        <time>2026-07-19T07:38:47Z</time>
      </trkpt>
      <trkpt lat="45.42274" lon="5.79737">
        <ele>1169.1</ele>
        <time>2026-07-19T07:39:02Z</time>
      </trkpt>
      <trkpt lat="45.42278" lon="5.79734">
        <ele>1170.06</ele>
        <time>2026-07-19T07:39:19Z</time>
      </trkpt>
      <trkpt lat="45.4228" lon="5.79733">
        <ele>1169.58</ele>
        <time>2026-07-19T07:39:45Z</time>
      </trkpt>
      <trkpt lat="45.42279" lon="5.79733">
        <ele>1169.58</ele>
        <time>2026-07-19T07:40:03Z</time>
      </trkpt>
      <trkpt lat="45.42274" lon="5.79733">
        <ele>1168.62</ele>
        <time>2026-07-19T07:40:17Z</time>
      </trkpt>
      <trkpt lat="45.42271" lon="5.7973">
        <ele>1168.14</ele>
        <time>2026-07-19T07:40:34Z</time>
      </trkpt>
      <trkpt lat="45.42267" lon="5.79729">
        <ele>1168.62</ele>
        <time>2026-07-19T07:40:48Z</time>
      </trkpt>
      <trkpt lat="45.42256" lon="5.79725">
        <ele>1168.14</ele>
        <time>2026-07-19T07:41:04Z</time>
      </trkpt>
      <trkpt lat="45.4225" lon="5.79721">
        <ele>1169.58</ele>
        <time>2026-07-19T07:41:21Z</time>
      </trkpt>
      <trkpt lat="45.42243" lon="5.79711">
        <ele>1171.5</ele>
        <time>2026-07-19T07:41:38Z</time>
      </trkpt>
      <trkpt lat="45.42237" lon="5.79703">
        <ele>1172.95</ele>
        <time>2026-07-19T07:41:53Z</time>
      </trkpt>
      <trkpt lat="45.42235" lon="5.797">
        <ele>1172.95</ele>
        <time>2026-07-19T07:42:17Z</time>
      </trkpt>
      <trkpt lat="45.42221" lon="5.79689">
        <ele>1173.91</ele>
        <time>2026-07-19T07:42:36Z</time>
      </trkpt>
      <trkpt lat="45.42213" lon="5.7969">
        <ele>1174.87</ele>
        <time>2026-07-19T07:42:54Z</time>
      </trkpt>
      <trkpt lat="45.42209" lon="5.7969">
        <ele>1176.31</ele>
        <time>2026-07-19T07:43:14Z</time>
      </trkpt>
      <trkpt lat="45.42206" lon="5.79687">
        <ele>1178.23</ele>
        <time>2026-07-19T07:43:30Z</time>
      </trkpt>
      <trkpt lat="45.42203" lon="5.79684">
        <ele>1180.64</ele>
        <time>2026-07-19T07:43:46Z</time>
      </trkpt>
      <trkpt lat="45.42197" lon="5.7968">
        <ele>1182.08</ele>
        <time>2026-07-19T07:44:08Z</time>
      </trkpt>
      <trkpt lat="45.42195" lon="5.79675">
        <ele>1184.48</ele>
        <time>2026-07-19T07:44:25Z</time>
      </trkpt>
      <trkpt lat="45.4219" lon="5.79669">
        <ele>1185.92</ele>
        <time>2026-07-19T07:44:41Z</time>
      </trkpt>
      <trkpt lat="45.42182" lon="5.79658">
        <ele>1186.88</ele>
        <time>2026-07-19T07:44:55Z</time>
      </trkpt>
      <trkpt lat="45.42176" lon="5.79646">
        <ele>1188.33</ele>
        <time>2026-07-19T07:45:07Z</time>
      </trkpt>
      <trkpt lat="45.42174" lon="5.79638">
        <ele>1190.25</ele>
        <time>2026-07-19T07:45:22Z</time>
      </trkpt>
      <trkpt lat="45.42167" lon="5.79626">
        <ele>1191.69</ele>
        <time>2026-07-19T07:45:38Z</time>
      </trkpt>
      <trkpt lat="45.42167" lon="5.79625">
        <ele>1192.65</ele>
        <time>2026-07-19T07:45:52Z</time>
      </trkpt>
      <trkpt lat="45.42162" lon="5.79623">
        <ele>1191.69</ele>
        <time>2026-07-19T07:46:10Z</time>
      </trkpt>
      <trkpt lat="45.42162" lon="5.79625">
        <ele>1191.21</ele>
        <time>2026-07-19T07:46:31Z</time>
      </trkpt>
      <trkpt lat="45.4216" lon="5.79628">
        <ele>1190.73</ele>
        <time>2026-07-19T07:47:02Z</time>
      </trkpt>
      <trkpt lat="45.42162" lon="5.79629">
        <ele>1191.21</ele>
        <time>2026-07-19T07:47:41Z</time>
      </trkpt>
      <trkpt lat="45.42162" lon="5.79627">
        <ele>1192.17</ele>
        <time>2026-07-19T07:48:10Z</time>
      </trkpt>
      <trkpt lat="45.4216" lon="5.79623">
        <ele>1192.17</ele>
        <time>2026-07-19T07:48:30Z</time>
      </trkpt>
      <trkpt lat="45.42154" lon="5.79617">
        <ele>1192.17</ele>
        <time>2026-07-19T07:48:44Z</time>
      </trkpt>
      <trkpt lat="45.42147" lon="5.79612">
        <ele>1191.69</ele>
        <time>2026-07-19T07:48:58Z</time>
      </trkpt>
      <trkpt lat="45.42131" lon="5.79605">
        <ele>1191.21</ele>
        <time>2026-07-19T07:49:15Z</time>
      </trkpt>
      <trkpt lat="45.42119" lon="5.79603">
        <ele>1190.25</ele>
        <time>2026-07-19T07:49:30Z</time>
      </trkpt>
      <trkpt lat="45.42109" lon="5.796">
        <ele>1190.25</ele>
        <time>2026-07-19T07:49:46Z</time>
      </trkpt>
      <trkpt lat="45.42102" lon="5.79595">
        <ele>1189.29</ele>
        <time>2026-07-19T07:50:02Z</time>
      </trkpt>
      <trkpt lat="45.42091" lon="5.79589">
        <ele>1187.85</ele>
        <time>2026-07-19T07:50:16Z</time>
      </trkpt>
      <trkpt lat="45.42081" lon="5.79593">
        <ele>1187.37</ele>
        <time>2026-07-19T07:50:35Z</time>
      </trkpt>
      <trkpt lat="45.42073" lon="5.7959">
        <ele>1187.85</ele>
        <time>2026-07-19T07:50:50Z</time>
      </trkpt>
      <trkpt lat="45.42067" lon="5.79595">
        <ele>1188.81</ele>
        <time>2026-07-19T07:51:07Z</time>
      </trkpt>
      <trkpt lat="45.42066" lon="5.7959">
        <ele>1191.21</ele>
        <time>2026-07-19T07:51:24Z</time>
      </trkpt>
      <trkpt lat="45.42057" lon="5.79584">
        <ele>1193.13</ele>
        <time>2026-07-19T07:51:41Z</time>
      </trkpt>
      <trkpt lat="45.42049" lon="5.79572">
        <ele>1194.09</ele>
        <time>2026-07-19T07:51:58Z</time>
      </trkpt>
      <trkpt lat="45.42039" lon="5.79562">
        <ele>1193.61</ele>
        <time>2026-07-19T07:52:15Z</time>
      </trkpt>
      <trkpt lat="45.42028" lon="5.79568">
        <ele>1192.65</ele>
        <time>2026-07-19T07:52:31Z</time>
      </trkpt>
      <trkpt lat="45.42012" lon="5.79573">
        <ele>1192.17</ele>
        <time>2026-07-19T07:52:50Z</time>
      </trkpt>
      <trkpt lat="45.42001" lon="5.79568">
        <ele>1191.21</ele>
        <time>2026-07-19T07:53:06Z</time>
      </trkpt>
      <trkpt lat="45.4199" lon="5.79561">
        <ele>1190.25</ele>
        <time>2026-07-19T07:53:24Z</time>
      </trkpt>
      <trkpt lat="45.4199" lon="5.79551">
        <ele>1189.29</ele>
        <time>2026-07-19T07:53:37Z</time>
      </trkpt>
      <trkpt lat="45.41979" lon="5.79541">
        <ele>1187.85</ele>
        <time>2026-07-19T07:53:53Z</time>
      </trkpt>
      <trkpt lat="45.4197" lon="5.79546">
        <ele>1188.33</ele>
        <time>2026-07-19T07:54:09Z</time>
      </trkpt>
      <trkpt lat="45.41966" lon="5.79551">
        <ele>1188.33</ele>
        <time>2026-07-19T07:54:23Z</time>
      </trkpt>
      <trkpt lat="45.4196" lon="5.79554">
        <ele>1187.85</ele>
        <time>2026-07-19T07:54:39Z</time>
      </trkpt>
      <trkpt lat="45.41958" lon="5.79548">
        <ele>1188.81</ele>
        <time>2026-07-19T07:54:54Z</time>
      </trkpt>
      <trkpt lat="45.41945" lon="5.79538">
        <ele>1190.25</ele>
        <time>2026-07-19T07:55:10Z</time>
      </trkpt>
      <trkpt lat="45.41934" lon="5.79524">
        <ele>1191.69</ele>
        <time>2026-07-19T07:55:27Z</time>
      </trkpt>
      <trkpt lat="45.41926" lon="5.79515">
        <ele>1193.61</ele>
        <time>2026-07-19T07:55:42Z</time>
      </trkpt>
      <trkpt lat="45.41919" lon="5.79508">
        <ele>1195.54</ele>
        <time>2026-07-19T07:55:56Z</time>
      </trkpt>
      <trkpt lat="45.41915" lon="5.79499">
        <ele>1196.98</ele>
        <time>2026-07-19T07:56:09Z</time>
      </trkpt>
      <trkpt lat="45.41909" lon="5.79484">
        <ele>1198.42</ele>
        <time>2026-07-19T07:56:25Z</time>
      </trkpt>
      <trkpt lat="45.41903" lon="5.7947">
        <ele>1201.3</ele>
        <time>2026-07-19T07:56:44Z</time>
      </trkpt>
      <trkpt lat="45.41897" lon="5.79459">
        <ele>1202.75</ele>
        <time>2026-07-19T07:57:00Z</time>
      </trkpt>
      <trkpt lat="45.41891" lon="5.79448">
        <ele>1204.67</ele>
        <time>2026-07-19T07:57:17Z</time>
      </trkpt>
      <trkpt lat="45.41885" lon="5.79441">
        <ele>1206.59</ele>
        <time>2026-07-19T07:57:30Z</time>
      </trkpt>
      <trkpt lat="45.41872" lon="5.79438">
        <ele>1207.55</ele>
        <time>2026-07-19T07:57:45Z</time>
      </trkpt>
      <trkpt lat="45.41867" lon="5.79428">
        <ele>1207.07</ele>
        <time>2026-07-19T07:57:57Z</time>
      </trkpt>
      <trkpt lat="45.4185" lon="5.79414">
        <ele>1208.51</ele>
        <time>2026-07-19T07:58:16Z</time>
      </trkpt>
      <trkpt lat="45.41838" lon="5.79416">
        <ele>1209</ele>
        <time>2026-07-19T07:58:31Z</time>
      </trkpt>
      <trkpt lat="45.41821" lon="5.79428">
        <ele>1210.92</ele>
        <time>2026-07-19T07:58:50Z</time>
      </trkpt>
      <trkpt lat="45.41811" lon="5.79427">
        <ele>1211.4</ele>
        <time>2026-07-19T07:59:07Z</time>
      </trkpt>
      <trkpt lat="45.41803" lon="5.7942">
        <ele>1213.32</ele>
        <time>2026-07-19T07:59:24Z</time>
      </trkpt>
      <trkpt lat="45.41786" lon="5.79419">
        <ele>1212.84</ele>
        <time>2026-07-19T07:59:38Z</time>
      </trkpt>
      <trkpt lat="45.41768" lon="5.79428">
        <ele>1212.36</ele>
        <time>2026-07-19T07:59:56Z</time>
      </trkpt>
      <trkpt lat="45.41752" lon="5.79434">
        <ele>1211.4</ele>
        <time>2026-07-19T08:00:14Z</time>
      </trkpt>
      <trkpt lat="45.41751" lon="5.79434">
        <ele>1211.4</ele>
        <time>2026-07-19T08:00:15Z</time>
      </trkpt>
      <trkpt lat="45.41741" lon="5.79428">
        <ele>1210.44</ele>
        <time>2026-07-19T08:00:30Z</time>
      </trkpt>
      <trkpt lat="45.41738" lon="5.79431">
        <ele>1209</ele>
        <time>2026-07-19T08:00:52Z</time>
      </trkpt>
      <trkpt lat="45.41735" lon="5.79423">
        <ele>1206.11</ele>
        <time>2026-07-19T08:01:10Z</time>
      </trkpt>
      <trkpt lat="45.41728" lon="5.79406">
        <ele>1203.71</ele>
        <time>2026-07-19T08:01:28Z</time>
      </trkpt>
      <trkpt lat="45.41723" lon="5.79397">
        <ele>1200.82</ele>
        <time>2026-07-19T08:01:46Z</time>
      </trkpt>
      <trkpt lat="45.41711" lon="5.79383">
        <ele>1197.94</ele>
        <time>2026-07-19T08:02:03Z</time>
      </trkpt>
      <trkpt lat="45.41702" lon="5.79368">
        <ele>1196.02</ele>
        <time>2026-07-19T08:02:18Z</time>
      </trkpt>
      <trkpt lat="45.41691" lon="5.79354">
        <ele>1197.94</ele>
        <time>2026-07-19T08:02:37Z</time>
      </trkpt>
      <trkpt lat="45.41677" lon="5.79337">
        <ele>1195.06</ele>
        <time>2026-07-19T08:02:57Z</time>
      </trkpt>
      <trkpt lat="45.41665" lon="5.79324">
        <ele>1193.13</ele>
        <time>2026-07-19T08:03:13Z</time>
      </trkpt>
      <trkpt lat="45.41651" lon="5.79324">
        <ele>1191.21</ele>
        <time>2026-07-19T08:03:26Z</time>
      </trkpt>
      <trkpt lat="45.41643" lon="5.79329">
        <ele>1190.25</ele>
        <time>2026-07-19T08:03:39Z</time>
      </trkpt>
      <trkpt lat="45.41632" lon="5.7933">
        <ele>1190.25</ele>
        <time>2026-07-19T08:03:54Z</time>
      </trkpt>
      <trkpt lat="45.41616" lon="5.79327">
        <ele>1191.21</ele>
        <time>2026-07-19T08:04:13Z</time>
      </trkpt>
      <trkpt lat="45.41603" lon="5.79321">
        <ele>1188.81</ele>
        <time>2026-07-19T08:04:26Z</time>
      </trkpt>
      <trkpt lat="45.41597" lon="5.79322">
        <ele>1188.33</ele>
        <time>2026-07-19T08:04:33Z</time>
      </trkpt>
      <trkpt lat="45.4158" lon="5.79318">
        <ele>1186.88</ele>
        <time>2026-07-19T08:04:50Z</time>
      </trkpt>
      <trkpt lat="45.41573" lon="5.79316">
        <ele>1184.96</ele>
        <time>2026-07-19T08:05:04Z</time>
      </trkpt>
      <trkpt lat="45.41561" lon="5.79309">
        <ele>1184.48</ele>
        <time>2026-07-19T08:05:20Z</time>
      </trkpt>
      <trkpt lat="45.41547" lon="5.79306">
        <ele>1183.04</ele>
        <time>2026-07-19T08:05:34Z</time>
      </trkpt>
      <trkpt lat="45.41527" lon="5.793">
        <ele>1181.6</ele>
        <time>2026-07-19T08:05:51Z</time>
      </trkpt>
      <trkpt lat="45.41521" lon="5.79298">
        <ele>1181.12</ele>
        <time>2026-07-19T08:05:57Z</time>
      </trkpt>
      <trkpt lat="45.41513" lon="5.79294">
        <ele>1179.67</ele>
        <time>2026-07-19T08:06:05Z</time>
      </trkpt>
      <trkpt lat="45.41502" lon="5.79285">
        <ele>1177.27</ele>
        <time>2026-07-19T08:06:21Z</time>
      </trkpt>
      <trkpt lat="45.41487" lon="5.79277">
        <ele>1176.31</ele>
        <time>2026-07-19T08:06:40Z</time>
      </trkpt>
      <trkpt lat="45.41466" lon="5.79274">
        <ele>1177.27</ele>
        <time>2026-07-19T08:06:57Z</time>
      </trkpt>
      <trkpt lat="45.41454" lon="5.79282">
        <ele>1177.27</ele>
        <time>2026-07-19T08:07:10Z</time>
      </trkpt>
      <trkpt lat="45.4144" lon="5.79297">
        <ele>1177.75</ele>
        <time>2026-07-19T08:07:26Z</time>
      </trkpt>
      <trkpt lat="45.41431" lon="5.79304">
        <ele>1175.83</ele>
        <time>2026-07-19T08:07:39Z</time>
      </trkpt>
      <trkpt lat="45.41418" lon="5.79308">
        <ele>1174.39</ele>
        <time>2026-07-19T08:07:53Z</time>
      </trkpt>
      <trkpt lat="45.41406" lon="5.79324">
        <ele>1174.39</ele>
        <time>2026-07-19T08:08:10Z</time>
      </trkpt>
      <trkpt lat="45.41395" lon="5.79344">
        <ele>1174.39</ele>
        <time>2026-07-19T08:08:27Z</time>
      </trkpt>
      <trkpt lat="45.4138" lon="5.79364">
        <ele>1173.91</ele>
        <time>2026-07-19T08:08:45Z</time>
      </trkpt>
      <trkpt lat="45.41368" lon="5.79373">
        <ele>1173.43</ele>
        <time>2026-07-19T08:08:57Z</time>
      </trkpt>
      <trkpt lat="45.41362" lon="5.79379">
        <ele>1172.47</ele>
        <time>2026-07-19T08:09:04Z</time>
      </trkpt>
      <trkpt lat="45.41349" lon="5.79391">
        <ele>1171.98</ele>
        <time>2026-07-19T08:09:22Z</time>
      </trkpt>
      <trkpt lat="45.41336" lon="5.79401">
        <ele>1171.5</ele>
        <time>2026-07-19T08:09:39Z</time>
      </trkpt>
      <trkpt lat="45.41321" lon="5.79405">
        <ele>1169.58</ele>
        <time>2026-07-19T08:09:55Z</time>
      </trkpt>
      <trkpt lat="45.41305" lon="5.7941">
        <ele>1167.66</ele>
        <time>2026-07-19T08:10:10Z</time>
      </trkpt>
      <trkpt lat="45.41295" lon="5.79412">
        <ele>1165.74</ele>
        <time>2026-07-19T08:10:24Z</time>
      </trkpt>
      <trkpt lat="45.41281" lon="5.79422">
        <ele>1163.81</ele>
        <time>2026-07-19T08:10:41Z</time>
      </trkpt>
      <trkpt lat="45.41269" lon="5.79437">
        <ele>1163.33</ele>
        <time>2026-07-19T08:10:57Z</time>
      </trkpt>
      <trkpt lat="45.41262" lon="5.79448">
        <ele>1161.41</ele>
        <time>2026-07-19T08:11:12Z</time>
      </trkpt>
      <trkpt lat="45.41252" lon="5.79464">
        <ele>1160.45</ele>
        <time>2026-07-19T08:11:29Z</time>
      </trkpt>
      <trkpt lat="45.41237" lon="5.79473">
        <ele>1160.93</ele>
        <time>2026-07-19T08:11:48Z</time>
      </trkpt>
      <trkpt lat="45.41223" lon="5.79481">
        <ele>1163.33</ele>
        <time>2026-07-19T08:12:08Z</time>
      </trkpt>
      <trkpt lat="45.41212" lon="5.79479">
        <ele>1164.77</ele>
        <time>2026-07-19T08:12:24Z</time>
      </trkpt>
      <trkpt lat="45.41206" lon="5.79479">
        <ele>1164.77</ele>
        <time>2026-07-19T08:12:29Z</time>
      </trkpt>
      <trkpt lat="45.41194" lon="5.79474">
        <ele>1164.29</ele>
        <time>2026-07-19T08:12:45Z</time>
      </trkpt>
      <trkpt lat="45.41173" lon="5.79473">
        <ele>1163.81</ele>
        <time>2026-07-19T08:13:00Z</time>
      </trkpt>
      <trkpt lat="45.41161" lon="5.79473">
        <ele>1163.81</ele>
        <time>2026-07-19T08:13:16Z</time>
      </trkpt>
      <trkpt lat="45.41144" lon="5.79471">
        <ele>1164.29</ele>
        <time>2026-07-19T08:13:32Z</time>
      </trkpt>
      <trkpt lat="45.41127" lon="5.79486">
        <ele>1162.85</ele>
        <time>2026-07-19T08:13:48Z</time>
      </trkpt>
      <trkpt lat="45.41112" lon="5.79504">
        <ele>1161.89</ele>
        <time>2026-07-19T08:14:05Z</time>
      </trkpt>
      <trkpt lat="45.41098" lon="5.79522">
        <ele>1159.97</ele>
        <time>2026-07-19T08:14:22Z</time>
      </trkpt>
      <trkpt lat="45.41096" lon="5.79523">
        <ele>1159.49</ele>
        <time>2026-07-19T08:14:45Z</time>
      </trkpt>
      <trkpt lat="45.41085" lon="5.7953">
        <ele>1157.56</ele>
        <time>2026-07-19T08:15:01Z</time>
      </trkpt>
      <trkpt lat="45.41074" lon="5.79539">
        <ele>1156.12</ele>
        <time>2026-07-19T08:15:16Z</time>
      </trkpt>
      <trkpt lat="45.41062" lon="5.79553">
        <ele>1155.64</ele>
        <time>2026-07-19T08:15:31Z</time>
      </trkpt>
      <trkpt lat="45.4105" lon="5.7956">
        <ele>1154.68</ele>
        <time>2026-07-19T08:15:44Z</time>
      </trkpt>
      <trkpt lat="45.41035" lon="5.79562">
        <ele>1153.24</ele>
        <time>2026-07-19T08:16:02Z</time>
      </trkpt>
      <trkpt lat="45.41036" lon="5.79561">
        <ele>1152.28</ele>
        <time>2026-07-19T08:16:17Z</time>
      </trkpt>
      <trkpt lat="45.4103" lon="5.7954">
        <ele>1151.32</ele>
        <time>2026-07-19T08:16:36Z</time>
      </trkpt>
      <trkpt lat="45.41025" lon="5.79515">
        <ele>1150.84</ele>
        <time>2026-07-19T08:16:53Z</time>
      </trkpt>
      <trkpt lat="45.41016" lon="5.79494">
        <ele>1150.84</ele>
        <time>2026-07-19T08:17:08Z</time>
      </trkpt>
      <trkpt lat="45.41003" lon="5.7948">
        <ele>1150.84</ele>
        <time>2026-07-19T08:17:21Z</time>
      </trkpt>
      <trkpt lat="45.41" lon="5.79464">
        <ele>1151.32</ele>
        <time>2026-07-19T08:17:32Z</time>
      </trkpt>
      <trkpt lat="45.40991" lon="5.79457">
        <ele>1150.84</ele>
        <time>2026-07-19T08:17:47Z</time>
      </trkpt>
      <trkpt lat="45.40984" lon="5.79437">
        <ele>1150.84</ele>
        <time>2026-07-19T08:18:01Z</time>
      </trkpt>
      <trkpt lat="45.40975" lon="5.79429">
        <ele>1150.84</ele>
        <time>2026-07-19T08:18:19Z</time>
      </trkpt>
      <trkpt lat="45.40964" lon="5.79413">
        <ele>1151.8</ele>
        <time>2026-07-19T08:18:35Z</time>
      </trkpt>
      <trkpt lat="45.4095" lon="5.79398">
        <ele>1151.8</ele>
        <time>2026-07-19T08:18:52Z</time>
      </trkpt>
      <trkpt lat="45.40925" lon="5.79382">
        <ele>1152.28</ele>
        <time>2026-07-19T08:19:11Z</time>
      </trkpt>
      <trkpt lat="45.40907" lon="5.79373">
        <ele>1153.24</ele>
        <time>2026-07-19T08:19:29Z</time>
      </trkpt>
      <trkpt lat="45.40894" lon="5.79361">
        <ele>1154.2</ele>
        <time>2026-07-19T08:19:49Z</time>
      </trkpt>
      <trkpt lat="45.40886" lon="5.79355">
        <ele>1153.72</ele>
        <time>2026-07-19T08:20:07Z</time>
      </trkpt>
      <trkpt lat="45.40883" lon="5.79341">
        <ele>1155.16</ele>
        <time>2026-07-19T08:20:26Z</time>
      </trkpt>
      <trkpt lat="45.40876" lon="5.79327">
        <ele>1157.56</ele>
        <time>2026-07-19T08:20:41Z</time>
      </trkpt>
      <trkpt lat="45.40864" lon="5.79312">
        <ele>1159.97</ele>
        <time>2026-07-19T08:21:01Z</time>
      </trkpt>
      <trkpt lat="45.40865" lon="5.79303">
        <ele>1162.85</ele>
        <time>2026-07-19T08:21:19Z</time>
      </trkpt>
      <trkpt lat="45.40865" lon="5.79288">
        <ele>1165.26</ele>
        <time>2026-07-19T08:21:37Z</time>
      </trkpt>
      <trkpt lat="45.40865" lon="5.7928">
        <ele>1168.62</ele>
        <time>2026-07-19T08:21:57Z</time>
      </trkpt>
      <trkpt lat="45.40866" lon="5.79268">
        <ele>1169.58</ele>
        <time>2026-07-19T08:22:14Z</time>
      </trkpt>
      <trkpt lat="45.40868" lon="5.79252">
        <ele>1171.02</ele>
        <time>2026-07-19T08:22:30Z</time>
      </trkpt>
      <trkpt lat="45.4087" lon="5.79239">
        <ele>1171.98</ele>
        <time>2026-07-19T08:22:44Z</time>
      </trkpt>
      <trkpt lat="45.40869" lon="5.79227">
        <ele>1173.91</ele>
        <time>2026-07-19T08:22:59Z</time>
      </trkpt>
      <trkpt lat="45.40868" lon="5.79214">
        <ele>1176.79</ele>
        <time>2026-07-19T08:23:17Z</time>
      </trkpt>
      <trkpt lat="45.40872" lon="5.79193">
        <ele>1179.67</ele>
        <time>2026-07-19T08:23:37Z</time>
      </trkpt>
      <trkpt lat="45.40868" lon="5.7917">
        <ele>1181.12</ele>
        <time>2026-07-19T08:23:56Z</time>
      </trkpt>
      <trkpt lat="45.40854" lon="5.79157">
        <ele>1182.08</ele>
        <time>2026-07-19T08:24:13Z</time>
      </trkpt>
      <trkpt lat="45.40852" lon="5.79151">
        <ele>1182.08</ele>
        <time>2026-07-19T08:24:19Z</time>
      </trkpt>
      <trkpt lat="45.40841" lon="5.79136">
        <ele>1181.6</ele>
        <time>2026-07-19T08:24:33Z</time>
      </trkpt>
      <trkpt lat="45.4083" lon="5.79121">
        <ele>1182.08</ele>
        <time>2026-07-19T08:24:49Z</time>
      </trkpt>
      <trkpt lat="45.40826" lon="5.79103">
        <ele>1182.08</ele>
        <time>2026-07-19T08:25:07Z</time>
      </trkpt>
      <trkpt lat="45.40815" lon="5.79088">
        <ele>1183.04</ele>
        <time>2026-07-19T08:25:25Z</time>
      </trkpt>
      <trkpt lat="45.40807" lon="5.79071">
        <ele>1183.52</ele>
        <time>2026-07-19T08:25:44Z</time>
      </trkpt>
      <trkpt lat="45.40806" lon="5.79044">
        <ele>1181.6</ele>
        <time>2026-07-19T08:26:03Z</time>
      </trkpt>
      <trkpt lat="45.40798" lon="5.79021">
        <ele>1180.64</ele>
        <time>2026-07-19T08:26:20Z</time>
      </trkpt>
      <trkpt lat="45.40785" lon="5.78998">
        <ele>1179.67</ele>
        <time>2026-07-19T08:26:38Z</time>
      </trkpt>
      <trkpt lat="45.40782" lon="5.78987">
        <ele>1178.71</ele>
        <time>2026-07-19T08:26:49Z</time>
      </trkpt>
      <trkpt lat="45.40776" lon="5.78978">
        <ele>1178.23</ele>
        <time>2026-07-19T08:26:55Z</time>
      </trkpt>
      <trkpt lat="45.4076" lon="5.78964">
        <ele>1176.79</ele>
        <time>2026-07-19T08:27:13Z</time>
      </trkpt>
      <trkpt lat="45.40748" lon="5.78952">
        <ele>1175.35</ele>
        <time>2026-07-19T08:27:29Z</time>
      </trkpt>
      <trkpt lat="45.40729" lon="5.78946">
        <ele>1174.39</ele>
        <time>2026-07-19T08:27:45Z</time>
      </trkpt>
      <trkpt lat="45.4071" lon="5.78945">
        <ele>1171.98</ele>
        <time>2026-07-19T08:28:04Z</time>
      </trkpt>
      <trkpt lat="45.40688" lon="5.78942">
        <ele>1170.54</ele>
        <time>2026-07-19T08:28:20Z</time>
      </trkpt>
      <trkpt lat="45.4068" lon="5.78939">
        <ele>1168.62</ele>
        <time>2026-07-19T08:28:34Z</time>
      </trkpt>
      <trkpt lat="45.40675" lon="5.78932">
        <ele>1167.66</ele>
        <time>2026-07-19T08:28:50Z</time>
      </trkpt>
      <trkpt lat="45.40661" lon="5.78917">
        <ele>1166.7</ele>
        <time>2026-07-19T08:29:09Z</time>
      </trkpt>
      <trkpt lat="45.40656" lon="5.78908">
        <ele>1166.22</ele>
        <time>2026-07-19T08:29:26Z</time>
      </trkpt>
      <trkpt lat="45.40649" lon="5.78888">
        <ele>1166.7</ele>
        <time>2026-07-19T08:29:45Z</time>
      </trkpt>
      <trkpt lat="45.40639" lon="5.7887">
        <ele>1166.7</ele>
        <time>2026-07-19T08:30:01Z</time>
      </trkpt>
      <trkpt lat="45.40625" lon="5.78851">
        <ele>1167.18</ele>
        <time>2026-07-19T08:30:16Z</time>
      </trkpt>
      <trkpt lat="45.4062" lon="5.78826">
        <ele>1166.7</ele>
        <time>2026-07-19T08:30:31Z</time>
      </trkpt>
      <trkpt lat="45.4061" lon="5.78813">
        <ele>1167.18</ele>
        <time>2026-07-19T08:30:44Z</time>
      </trkpt>
      <trkpt lat="45.40604" lon="5.78808">
        <ele>1167.18</ele>
        <time>2026-07-19T08:30:50Z</time>
      </trkpt>
      <trkpt lat="45.40592" lon="5.78794">
        <ele>1166.22</ele>
        <time>2026-07-19T08:31:07Z</time>
      </trkpt>
      <trkpt lat="45.4059" lon="5.78775">
        <ele>1166.7</ele>
        <time>2026-07-19T08:31:25Z</time>
      </trkpt>
      <trkpt lat="45.40591" lon="5.78761">
        <ele>1167.18</ele>
        <time>2026-07-19T08:31:40Z</time>
      </trkpt>
      <trkpt lat="45.40589" lon="5.78739">
        <ele>1167.66</ele>
        <time>2026-07-19T08:31:56Z</time>
      </trkpt>
      <trkpt lat="45.40591" lon="5.78721">
        <ele>1168.14</ele>
        <time>2026-07-19T08:32:12Z</time>
      </trkpt>
      <trkpt lat="45.40589" lon="5.78708">
        <ele>1168.62</ele>
        <time>2026-07-19T08:32:24Z</time>
      </trkpt>
      <trkpt lat="45.40572" lon="5.78683">
        <ele>1169.58</ele>
        <time>2026-07-19T08:32:41Z</time>
      </trkpt>
      <trkpt lat="45.40571" lon="5.78682">
        <ele>1169.58</ele>
        <time>2026-07-19T08:32:42Z</time>
      </trkpt>
      <trkpt lat="45.40551" lon="5.78661">
        <ele>1169.58</ele>
        <time>2026-07-19T08:32:58Z</time>
      </trkpt>
      <trkpt lat="45.40544" lon="5.78644">
        <ele>1170.54</ele>
        <time>2026-07-19T08:33:13Z</time>
      </trkpt>
      <trkpt lat="45.40542" lon="5.7863">
        <ele>1171.98</ele>
        <time>2026-07-19T08:33:26Z</time>
      </trkpt>
      <trkpt lat="45.40537" lon="5.78615">
        <ele>1173.91</ele>
        <time>2026-07-19T08:33:41Z</time>
      </trkpt>
      <trkpt lat="45.40536" lon="5.78603">
        <ele>1175.35</ele>
        <time>2026-07-19T08:33:54Z</time>
      </trkpt>
      <trkpt lat="45.4053" lon="5.78589">
        <ele>1176.79</ele>
        <time>2026-07-19T08:34:10Z</time>
      </trkpt>
      <trkpt lat="45.40522" lon="5.78574">
        <ele>1178.71</ele>
        <time>2026-07-19T08:34:28Z</time>
      </trkpt>
      <trkpt lat="45.40517" lon="5.78558">
        <ele>1180.64</ele>
        <time>2026-07-19T08:34:47Z</time>
      </trkpt>
      <trkpt lat="45.40513" lon="5.78541">
        <ele>1182.56</ele>
        <time>2026-07-19T08:35:06Z</time>
      </trkpt>
      <trkpt lat="45.4051" lon="5.78514">
        <ele>1184</ele>
        <time>2026-07-19T08:35:26Z</time>
      </trkpt>
      <trkpt lat="45.40508" lon="5.78503">
        <ele>1184.96</ele>
        <time>2026-07-19T08:35:42Z</time>
      </trkpt>
      <trkpt lat="45.40502" lon="5.7849">
        <ele>1186.4</ele>
        <time>2026-07-19T08:36:00Z</time>
      </trkpt>
      <trkpt lat="45.40499" lon="5.78477">
        <ele>1187.37</ele>
        <time>2026-07-19T08:36:14Z</time>
      </trkpt>
      <trkpt lat="45.40489" lon="5.78458">
        <ele>1188.33</ele>
        <time>2026-07-19T08:36:28Z</time>
      </trkpt>
      <trkpt lat="45.40479" lon="5.78437">
        <ele>1190.73</ele>
        <time>2026-07-19T08:36:47Z</time>
      </trkpt>
      <trkpt lat="45.40471" lon="5.78423">
        <ele>1192.65</ele>
        <time>2026-07-19T08:37:03Z</time>
      </trkpt>
      <trkpt lat="45.40463" lon="5.78403">
        <ele>1195.06</ele>
        <time>2026-07-19T08:37:22Z</time>
      </trkpt>
      <trkpt lat="45.40457" lon="5.78392">
        <ele>1197.46</ele>
        <time>2026-07-19T08:37:41Z</time>
      </trkpt>
      <trkpt lat="45.40452" lon="5.78376">
        <ele>1199.86</ele>
        <time>2026-07-19T08:37:58Z</time>
      </trkpt>
      <trkpt lat="45.40448" lon="5.78364">
        <ele>1202.27</ele>
        <time>2026-07-19T08:38:18Z</time>
      </trkpt>
      <trkpt lat="45.40441" lon="5.78355">
        <ele>1204.19</ele>
        <time>2026-07-19T08:38:36Z</time>
      </trkpt>
      <trkpt lat="45.40414" lon="5.78335">
        <ele>1205.15</ele>
        <time>2026-07-19T08:38:56Z</time>
      </trkpt>
      <trkpt lat="45.40406" lon="5.78329">
        <ele>1205.63</ele>
        <time>2026-07-19T08:39:08Z</time>
      </trkpt>
      <trkpt lat="45.4039" lon="5.78316">
        <ele>1206.11</ele>
        <time>2026-07-19T08:39:25Z</time>
      </trkpt>
      <trkpt lat="45.40376" lon="5.7831">
        <ele>1207.07</ele>
        <time>2026-07-19T08:39:41Z</time>
      </trkpt>
      <trkpt lat="45.40358" lon="5.78306">
        <ele>1207.07</ele>
        <time>2026-07-19T08:39:56Z</time>
      </trkpt>
      <trkpt lat="45.4034" lon="5.78309">
        <ele>1208.03</ele>
        <time>2026-07-19T08:40:14Z</time>
      </trkpt>
      <trkpt lat="45.40329" lon="5.78306">
        <ele>1207.07</ele>
        <time>2026-07-19T08:40:29Z</time>
      </trkpt>
      <trkpt lat="45.40315" lon="5.783">
        <ele>1206.59</ele>
        <time>2026-07-19T08:40:46Z</time>
      </trkpt>
      <trkpt lat="45.40297" lon="5.78301">
        <ele>1206.59</ele>
        <time>2026-07-19T08:41:01Z</time>
      </trkpt>
      <trkpt lat="45.4028" lon="5.78304">
        <ele>1206.11</ele>
        <time>2026-07-19T08:41:19Z</time>
      </trkpt>
      <trkpt lat="45.40279" lon="5.78304">
        <ele>1206.11</ele>
        <time>2026-07-19T08:41:21Z</time>
      </trkpt>
      <trkpt lat="45.40263" lon="5.78301">
        <ele>1206.11</ele>
        <time>2026-07-19T08:41:37Z</time>
      </trkpt>
      <trkpt lat="45.40246" lon="5.78309">
        <ele>1206.11</ele>
        <time>2026-07-19T08:41:52Z</time>
      </trkpt>
      <trkpt lat="45.40237" lon="5.78316">
        <ele>1205.63</ele>
        <time>2026-07-19T08:42:08Z</time>
      </trkpt>
      <trkpt lat="45.40227" lon="5.78321">
        <ele>1205.15</ele>
        <time>2026-07-19T08:42:24Z</time>
      </trkpt>
      <trkpt lat="45.40214" lon="5.78322">
        <ele>1204.19</ele>
        <time>2026-07-19T08:42:40Z</time>
      </trkpt>
      <trkpt lat="45.40203" lon="5.7833">
        <ele>1203.71</ele>
        <time>2026-07-19T08:42:54Z</time>
      </trkpt>
      <trkpt lat="45.40187" lon="5.78344">
        <ele>1203.23</ele>
        <time>2026-07-19T08:43:11Z</time>
      </trkpt>
      <trkpt lat="45.40183" lon="5.7835">
        <ele>1202.27</ele>
        <time>2026-07-19T08:43:27Z</time>
      </trkpt>
      <trkpt lat="45.40179" lon="5.78361">
        <ele>1202.75</ele>
        <time>2026-07-19T08:43:43Z</time>
      </trkpt>
      <trkpt lat="45.40179" lon="5.78361">
        <ele>1201.3</ele>
        <time>2026-07-19T08:44:00Z</time>
      </trkpt>
      <trkpt lat="45.40179" lon="5.78361">
        <ele>1200.34</ele>
        <time>2026-07-19T08:44:27Z</time>
      </trkpt>
      <trkpt lat="45.40166" lon="5.78344">
        <ele>1197.94</ele>
        <time>2026-07-19T08:44:46Z</time>
      </trkpt>
      <trkpt lat="45.40166" lon="5.78326">
        <ele>1197.94</ele>
        <time>2026-07-19T08:45:04Z</time>
      </trkpt>
      <trkpt lat="45.40174" lon="5.78314">
        <ele>1196.98</ele>
        <time>2026-07-19T08:45:20Z</time>
      </trkpt>
      <trkpt lat="45.40183" lon="5.78306">
        <ele>1195.54</ele>
        <time>2026-07-19T08:45:38Z</time>
      </trkpt>
      <trkpt lat="45.40186" lon="5.78298">
        <ele>1193.61</ele>
        <time>2026-07-19T08:45:54Z</time>
      </trkpt>
      <trkpt lat="45.40194" lon="5.7828">
        <ele>1191.69</ele>
        <time>2026-07-19T08:46:12Z</time>
      </trkpt>
      <trkpt lat="45.402" lon="5.78267">
        <ele>1190.25</ele>
        <time>2026-07-19T08:46:30Z</time>
      </trkpt>
      <trkpt lat="45.4021" lon="5.78256">
        <ele>1188.33</ele>
        <time>2026-07-19T08:46:50Z</time>
      </trkpt>
      <trkpt lat="45.40223" lon="5.78245">
        <ele>1186.88</ele>
        <time>2026-07-19T08:47:11Z</time>
      </trkpt>
      <trkpt lat="45.40237" lon="5.78225">
        <ele>1184.96</ele>
        <time>2026-07-19T08:47:29Z</time>
      </trkpt>
      <trkpt lat="45.40243" lon="5.78205">
        <ele>1184.48</ele>
        <time>2026-07-19T08:47:45Z</time>
      </trkpt>
      <trkpt lat="45.40245" lon="5.78194">
        <ele>1184</ele>
        <time>2026-07-19T08:47:54Z</time>
      </trkpt>
      <trkpt lat="45.40253" lon="5.78181">
        <ele>1182.08</ele>
        <time>2026-07-19T08:48:10Z</time>
      </trkpt>
      <trkpt lat="45.40256" lon="5.78169">
        <ele>1180.64</ele>
        <time>2026-07-19T08:48:24Z</time>
      </trkpt>
      <trkpt lat="45.40249" lon="5.78152">
        <ele>1180.16</ele>
        <time>2026-07-19T08:48:38Z</time>
      </trkpt>
      <trkpt lat="45.40263" lon="5.78136">
        <ele>1178.23</ele>
        <time>2026-07-19T08:48:56Z</time>
      </trkpt>
      <trkpt lat="45.40266" lon="5.78121">
        <ele>1175.83</ele>
        <time>2026-07-19T08:49:13Z</time>
      </trkpt>
      <trkpt lat="45.40268" lon="5.78099">
        <ele>1173.91</ele>
        <time>2026-07-19T08:49:36Z</time>
      </trkpt>
      <trkpt lat="45.40264" lon="5.78075">
        <ele>1171.5</ele>
        <time>2026-07-19T08:49:53Z</time>
      </trkpt>
      <trkpt lat="45.40266" lon="5.7806">
        <ele>1170.06</ele>
        <time>2026-07-19T08:50:10Z</time>
      </trkpt>
      <trkpt lat="45.40263" lon="5.78051">
        <ele>1169.1</ele>
        <time>2026-07-19T08:50:26Z</time>
      </trkpt>
      <trkpt lat="45.4027" lon="5.78027">
        <ele>1169.58</ele>
        <time>2026-07-19T08:50:42Z</time>
      </trkpt>
      <trkpt lat="45.40278" lon="5.78004">
        <ele>1167.66</ele>
        <time>2026-07-19T08:50:59Z</time>
      </trkpt>
      <trkpt lat="45.40281" lon="5.77992">
        <ele>1166.7</ele>
        <time>2026-07-19T08:51:17Z</time>
      </trkpt>
      <trkpt lat="45.40276" lon="5.77974">
        <ele>1167.18</ele>
        <time>2026-07-19T08:51:32Z</time>
      </trkpt>
      <trkpt lat="45.4027" lon="5.7796">
        <ele>1168.14</ele>
        <time>2026-07-19T08:51:46Z</time>
      </trkpt>
      <trkpt lat="45.4026" lon="5.77943">
        <ele>1170.06</ele>
        <time>2026-07-19T08:52:01Z</time>
      </trkpt>
      <trkpt lat="45.40254" lon="5.77933">
        <ele>1171.98</ele>
        <time>2026-07-19T08:52:16Z</time>
      </trkpt>
      <trkpt lat="45.40242" lon="5.77925">
        <ele>1174.87</ele>
        <time>2026-07-19T08:52:33Z</time>
      </trkpt>
      <trkpt lat="45.40229" lon="5.77919">
        <ele>1177.75</ele>
        <time>2026-07-19T08:52:50Z</time>
      </trkpt>
      <trkpt lat="45.40221" lon="5.77914">
        <ele>1180.16</ele>
        <time>2026-07-19T08:53:07Z</time>
      </trkpt>
      <trkpt lat="45.40212" lon="5.77902">
        <ele>1181.12</ele>
        <time>2026-07-19T08:53:24Z</time>
      </trkpt>
      <trkpt lat="45.40197" lon="5.77882">
        <ele>1180.64</ele>
        <time>2026-07-19T08:53:41Z</time>
      </trkpt>
      <trkpt lat="45.40194" lon="5.7787">
        <ele>1185.44</ele>
        <time>2026-07-19T08:53:55Z</time>
      </trkpt>
      <trkpt lat="45.40194" lon="5.7787">
        <ele>1176.79</ele>
        <time>2026-07-19T08:53:56Z</time>
      </trkpt>
      <trkpt lat="45.40194" lon="5.7787">
        <ele>1183.04</ele>
        <time>2026-07-19T08:53:57Z</time>
      </trkpt>
      <trkpt lat="45.40194" lon="5.7787">
        <ele>1179.19</ele>
        <time>2026-07-19T08:54:00Z</time>
      </trkpt>
      <trkpt lat="45.40194" lon="5.7787">
        <ele>1183.04</ele>
        <time>2026-07-19T08:54:01Z</time>
      </trkpt>
      <trkpt lat="45.40194" lon="5.7787">
        <ele>1179.67</ele>
        <time>2026-07-19T08:54:05Z</time>
      </trkpt>
      <trkpt lat="45.40192" lon="5.77867">
        <ele>1178.71</ele>
        <time>2026-07-19T08:54:23Z</time>
      </trkpt>
      <trkpt lat="45.4018" lon="5.77856">
        <ele>1176.79</ele>
        <time>2026-07-19T08:54:38Z</time>
      </trkpt>
      <trkpt lat="45.40166" lon="5.77843">
        <ele>1176.31</ele>
        <time>2026-07-19T08:54:56Z</time>
      </trkpt>
      <trkpt lat="45.40153" lon="5.77841">
        <ele>1179.19</ele>
        <time>2026-07-19T08:55:14Z</time>
      </trkpt>
      <trkpt lat="45.40144" lon="5.77841">
        <ele>1182.08</ele>
        <time>2026-07-19T08:55:32Z</time>
      </trkpt>
      <trkpt lat="45.40137" lon="5.77826">
        <ele>1180.64</ele>
        <time>2026-07-19T08:55:51Z</time>
      </trkpt>
      <trkpt lat="45.40129" lon="5.77816">
        <ele>1180.16</ele>
        <time>2026-07-19T08:56:00Z</time>
      </trkpt>
      <trkpt lat="45.40117" lon="5.77796">
        <ele>1181.12</ele>
        <time>2026-07-19T08:56:17Z</time>
      </trkpt>
      <trkpt lat="45.40117" lon="5.77784">
        <ele>1182.56</ele>
        <time>2026-07-19T08:56:34Z</time>
      </trkpt>
      <trkpt lat="45.40107" lon="5.77761">
        <ele>1183.52</ele>
        <time>2026-07-19T08:56:54Z</time>
      </trkpt>
      <trkpt lat="45.40093" lon="5.77743">
        <ele>1184</ele>
        <time>2026-07-19T08:57:11Z</time>
      </trkpt>
      <trkpt lat="45.4008" lon="5.7773">
        <ele>1184.48</ele>
        <time>2026-07-19T08:57:27Z</time>
      </trkpt>
      <trkpt lat="45.40072" lon="5.77722">
        <ele>1184.48</ele>
        <time>2026-07-19T08:57:34Z</time>
      </trkpt>
      <trkpt lat="45.40062" lon="5.77706">
        <ele>1186.4</ele>
        <time>2026-07-19T08:57:51Z</time>
      </trkpt>
      <trkpt lat="45.40048" lon="5.77696">
        <ele>1188.33</ele>
        <time>2026-07-19T08:58:07Z</time>
      </trkpt>
      <trkpt lat="45.40036" lon="5.77689">
        <ele>1191.21</ele>
        <time>2026-07-19T08:58:26Z</time>
      </trkpt>
      <trkpt lat="45.4002" lon="5.77687">
        <ele>1193.61</ele>
        <time>2026-07-19T08:58:42Z</time>
      </trkpt>
      <trkpt lat="45.40008" lon="5.77682">
        <ele>1196.02</ele>
        <time>2026-07-19T08:58:59Z</time>
      </trkpt>
      <trkpt lat="45.39996" lon="5.77682">
        <ele>1198.42</ele>
        <time>2026-07-19T08:59:18Z</time>
      </trkpt>
      <trkpt lat="45.39981" lon="5.77677">
        <ele>1199.38</ele>
        <time>2026-07-19T08:59:36Z</time>
      </trkpt>
      <trkpt lat="45.39969" lon="5.77678">
        <ele>1201.3</ele>
        <time>2026-07-19T08:59:56Z</time>
      </trkpt>
      <trkpt lat="45.39963" lon="5.77681">
        <ele>1203.23</ele>
        <time>2026-07-19T09:00:10Z</time>
      </trkpt>
      <trkpt lat="45.39945" lon="5.77679">
        <ele>1204.67</ele>
        <time>2026-07-19T09:00:25Z</time>
      </trkpt>
      <trkpt lat="45.39931" lon="5.77671">
        <ele>1205.63</ele>
        <time>2026-07-19T09:00:38Z</time>
      </trkpt>
      <trkpt lat="45.39919" lon="5.77671">
        <ele>1206.11</ele>
        <time>2026-07-19T09:00:55Z</time>
      </trkpt>
      <trkpt lat="45.399" lon="5.7767">
        <ele>1205.63</ele>
        <time>2026-07-19T09:01:11Z</time>
      </trkpt>
      <trkpt lat="45.39885" lon="5.77669">
        <ele>1204.19</ele>
        <time>2026-07-19T09:01:28Z</time>
      </trkpt>
      <trkpt lat="45.39877" lon="5.77666">
        <ele>1203.23</ele>
        <time>2026-07-19T09:01:36Z</time>
      </trkpt>
      <trkpt lat="45.39863" lon="5.77663">
        <ele>1202.75</ele>
        <time>2026-07-19T09:01:51Z</time>
      </trkpt>
      <trkpt lat="45.39849" lon="5.77661">
        <ele>1201.79</ele>
        <time>2026-07-19T09:02:06Z</time>
      </trkpt>
      <trkpt lat="45.39834" lon="5.7766">
        <ele>1201.79</ele>
        <time>2026-07-19T09:02:22Z</time>
      </trkpt>
      <trkpt lat="45.39826" lon="5.77668">
        <ele>1202.27</ele>
        <time>2026-07-19T09:02:34Z</time>
      </trkpt>
      <trkpt lat="45.39815" lon="5.77674">
        <ele>1204.19</ele>
        <time>2026-07-19T09:02:51Z</time>
      </trkpt>
      <trkpt lat="45.39793" lon="5.77678">
        <ele>1205.15</ele>
        <time>2026-07-19T09:03:06Z</time>
      </trkpt>
      <trkpt lat="45.39792" lon="5.77679">
        <ele>1204.67</ele>
        <time>2026-07-19T09:03:08Z</time>
      </trkpt>
      <trkpt lat="45.39774" lon="5.77688">
        <ele>1205.63</ele>
        <time>2026-07-19T09:03:24Z</time>
      </trkpt>
      <trkpt lat="45.39762" lon="5.77689">
        <ele>1208.03</ele>
        <time>2026-07-19T09:03:42Z</time>
      </trkpt>
      <trkpt lat="45.39754" lon="5.77685">
        <ele>1209.96</ele>
        <time>2026-07-19T09:03:56Z</time>
      </trkpt>
      <trkpt lat="45.39744" lon="5.77681">
        <ele>1211.88</ele>
        <time>2026-07-19T09:04:12Z</time>
      </trkpt>
      <trkpt lat="45.39733" lon="5.77679">
        <ele>1213.32</ele>
        <time>2026-07-19T09:04:28Z</time>
      </trkpt>
      <trkpt lat="45.39727" lon="5.7768">
        <ele>1214.76</ele>
        <time>2026-07-19T09:04:44Z</time>
      </trkpt>
      <trkpt lat="45.39714" lon="5.77668">
        <ele>1217.65</ele>
        <time>2026-07-19T09:05:01Z</time>
      </trkpt>
      <trkpt lat="45.39704" lon="5.77658">
        <ele>1219.09</ele>
        <time>2026-07-19T09:05:17Z</time>
      </trkpt>
      <trkpt lat="45.397" lon="5.77655">
        <ele>1219.57</ele>
        <time>2026-07-19T09:05:22Z</time>
      </trkpt>
      <trkpt lat="45.39684" lon="5.77655">
        <ele>1220.05</ele>
        <time>2026-07-19T09:05:36Z</time>
      </trkpt>
      <trkpt lat="45.39674" lon="5.77653">
        <ele>1220.53</ele>
        <time>2026-07-19T09:05:49Z</time>
      </trkpt>
      <trkpt lat="45.39651" lon="5.77648">
        <ele>1220.05</ele>
        <time>2026-07-19T09:06:06Z</time>
      </trkpt>
      <trkpt lat="45.39641" lon="5.77633">
        <ele>1220.53</ele>
        <time>2026-07-19T09:06:22Z</time>
      </trkpt>
      <trkpt lat="45.39619" lon="5.77628">
        <ele>1222.45</ele>
        <time>2026-07-19T09:06:41Z</time>
      </trkpt>
      <trkpt lat="45.39602" lon="5.77627">
        <ele>1224.86</ele>
        <time>2026-07-19T09:06:59Z</time>
      </trkpt>
      <trkpt lat="45.39592" lon="5.77632">
        <ele>1226.3</ele>
        <time>2026-07-19T09:07:14Z</time>
      </trkpt>
      <trkpt lat="45.39579" lon="5.77635">
        <ele>1227.26</ele>
        <time>2026-07-19T09:07:32Z</time>
      </trkpt>
      <trkpt lat="45.39569" lon="5.77644">
        <ele>1229.18</ele>
        <time>2026-07-19T09:07:49Z</time>
      </trkpt>
      <trkpt lat="45.39556" lon="5.77651">
        <ele>1230.62</ele>
        <time>2026-07-19T09:08:05Z</time>
      </trkpt>
      <trkpt lat="45.39547" lon="5.77671">
        <ele>1231.59</ele>
        <time>2026-07-19T09:08:21Z</time>
      </trkpt>
      <trkpt lat="45.39542" lon="5.77699">
        <ele>1231.59</ele>
        <time>2026-07-19T09:08:40Z</time>
      </trkpt>
      <trkpt lat="45.3954" lon="5.77721">
        <ele>1231.59</ele>
        <time>2026-07-19T09:08:57Z</time>
      </trkpt>
      <trkpt lat="45.39541" lon="5.77739">
        <ele>1232.07</ele>
        <time>2026-07-19T09:09:14Z</time>
      </trkpt>
      <trkpt lat="45.39544" lon="5.77743">
        <ele>1231.11</ele>
        <time>2026-07-19T09:09:29Z</time>
      </trkpt>
      <trkpt lat="45.39548" lon="5.77744">
        <ele>1230.62</ele>
        <time>2026-07-19T09:09:58Z</time>
      </trkpt>
      <trkpt lat="45.39549" lon="5.77744">
        <ele>1231.11</ele>
        <time>2026-07-19T09:10:29Z</time>
      </trkpt>
      <trkpt lat="45.39549" lon="5.77745">
        <ele>1231.11</ele>
        <time>2026-07-19T09:10:59Z</time>
      </trkpt>
      <trkpt lat="45.39549" lon="5.77745">
        <ele>1231.59</ele>
        <time>2026-07-19T09:11:25Z</time>
      </trkpt>
      <trkpt lat="45.39549" lon="5.77745">
        <ele>1232.07</ele>
        <time>2026-07-19T09:11:53Z</time>
      </trkpt>
      <trkpt lat="45.39549" lon="5.77745">
        <ele>1232.55</ele>
        <time>2026-07-19T09:12:04Z</time>
      </trkpt>
      <trkpt lat="45.3954" lon="5.7773">
        <ele>1232.55</ele>
        <time>2026-07-19T09:12:19Z</time>
      </trkpt>
      <trkpt lat="45.39529" lon="5.77712">
        <ele>1232.07</ele>
        <time>2026-07-19T09:12:36Z</time>
      </trkpt>
      <trkpt lat="45.39527" lon="5.77695">
        <ele>1233.03</ele>
        <time>2026-07-19T09:12:52Z</time>
      </trkpt>
      <trkpt lat="45.39527" lon="5.77679">
        <ele>1234.95</ele>
        <time>2026-07-19T09:13:07Z</time>
      </trkpt>
      <trkpt lat="45.39526" lon="5.77655">
        <ele>1235.91</ele>
        <time>2026-07-19T09:13:23Z</time>
      </trkpt>
      <trkpt lat="45.3952" lon="5.77639">
        <ele>1238.8</ele>
        <time>2026-07-19T09:13:41Z</time>
      </trkpt>
      <trkpt lat="45.39526" lon="5.77615">
        <ele>1240.24</ele>
        <time>2026-07-19T09:14:00Z</time>
      </trkpt>
      <trkpt lat="45.39522" lon="5.77599">
        <ele>1241.68</ele>
        <time>2026-07-19T09:14:15Z</time>
      </trkpt>
      <trkpt lat="45.3952" lon="5.77583">
        <ele>1242.16</ele>
        <time>2026-07-19T09:14:31Z</time>
      </trkpt>
      <trkpt lat="45.39519" lon="5.7758">
        <ele>1241.68</ele>
        <time>2026-07-19T09:14:34Z</time>
      </trkpt>
      <trkpt lat="45.39513" lon="5.77568">
        <ele>1240.72</ele>
        <time>2026-07-19T09:14:47Z</time>
      </trkpt>
      <trkpt lat="45.39516" lon="5.77563">
        <ele>1238.8</ele>
        <time>2026-07-19T09:15:04Z</time>
      </trkpt>
      <trkpt lat="45.39512" lon="5.77549">
        <ele>1236.87</ele>
        <time>2026-07-19T09:15:19Z</time>
      </trkpt>
      <trkpt lat="45.39512" lon="5.77548">
        <ele>1236.87</ele>
        <time>2026-07-19T09:15:21Z</time>
      </trkpt>
      <trkpt lat="45.39511" lon="5.77548">
        <ele>1236.39</ele>
        <time>2026-07-19T09:15:35Z</time>
      </trkpt>
      <trkpt lat="45.3951" lon="5.77546">
        <ele>1236.39</ele>
        <time>2026-07-19T09:15:57Z</time>
      </trkpt>
      <trkpt lat="45.39508" lon="5.77546">
        <ele>1236.39</ele>
        <time>2026-07-19T09:16:14Z</time>
      </trkpt>
      <trkpt lat="45.39508" lon="5.77547">
        <ele>1236.39</ele>
        <time>2026-07-19T09:16:36Z</time>
      </trkpt>
      <trkpt lat="45.39508" lon="5.7755">
        <ele>1236.39</ele>
        <time>2026-07-19T09:16:53Z</time>
      </trkpt>
      <trkpt lat="45.39505" lon="5.77552">
        <ele>1235.43</ele>
        <time>2026-07-19T09:17:07Z</time>
      </trkpt>
      <trkpt lat="45.39497" lon="5.77557">
        <ele>1234.47</ele>
        <time>2026-07-19T09:17:24Z</time>
      </trkpt>
      <trkpt lat="45.39482" lon="5.77569">
        <ele>1234.47</ele>
        <time>2026-07-19T09:17:38Z</time>
      </trkpt>
      <trkpt lat="45.39481" lon="5.77569">
        <ele>1233.99</ele>
        <time>2026-07-19T09:17:42Z</time>
      </trkpt>
      <trkpt lat="45.39472" lon="5.77572">
        <ele>1232.07</ele>
        <time>2026-07-19T09:17:55Z</time>
      </trkpt>
      <trkpt lat="45.39468" lon="5.77578">
        <ele>1230.14</ele>
        <time>2026-07-19T09:18:12Z</time>
      </trkpt>
      <trkpt lat="45.39466" lon="5.7758">
        <ele>1230.62</ele>
        <time>2026-07-19T09:18:32Z</time>
      </trkpt>
      <trkpt lat="45.39465" lon="5.77582">
        <ele>1232.07</ele>
        <time>2026-07-19T09:18:49Z</time>
      </trkpt>
      <trkpt lat="45.39458" lon="5.77587">
        <ele>1233.03</ele>
        <time>2026-07-19T09:19:05Z</time>
      </trkpt>
      <trkpt lat="45.39451" lon="5.77591">
        <ele>1233.03</ele>
        <time>2026-07-19T09:19:17Z</time>
      </trkpt>
      <trkpt lat="45.39439" lon="5.77594">
        <ele>1234.47</ele>
        <time>2026-07-19T09:19:31Z</time>
      </trkpt>
      <trkpt lat="45.39437" lon="5.77593">
        <ele>1233.99</ele>
        <time>2026-07-19T09:19:45Z</time>
      </trkpt>
      <trkpt lat="45.39437" lon="5.77592">
        <ele>1233.51</ele>
        <time>2026-07-19T09:19:47Z</time>
      </trkpt>
      <trkpt lat="45.39432" lon="5.77585">
        <ele>1233.51</ele>
        <time>2026-07-19T09:20:01Z</time>
      </trkpt>
      <trkpt lat="45.39429" lon="5.77594">
        <ele>1234.95</ele>
        <time>2026-07-19T09:20:18Z</time>
      </trkpt>
      <trkpt lat="45.39416" lon="5.77603">
        <ele>1236.87</ele>
        <time>2026-07-19T09:20:34Z</time>
      </trkpt>
      <trkpt lat="45.39411" lon="5.77612">
        <ele>1236.87</ele>
        <time>2026-07-19T09:20:52Z</time>
      </trkpt>
      <trkpt lat="45.39421" lon="5.77624">
        <ele>1237.83</ele>
        <time>2026-07-19T09:21:06Z</time>
      </trkpt>
      <trkpt lat="45.39436" lon="5.7764">
        <ele>1241.2</ele>
        <time>2026-07-19T09:21:26Z</time>
      </trkpt>
      <trkpt lat="45.39446" lon="5.77649">
        <ele>1243.12</ele>
        <time>2026-07-19T09:21:43Z</time>
      </trkpt>
      <trkpt lat="45.39456" lon="5.77651">
        <ele>1243.6</ele>
        <time>2026-07-19T09:21:58Z</time>
      </trkpt>
      <trkpt lat="45.3945" lon="5.77641">
        <ele>1245.04</ele>
        <time>2026-07-19T09:22:11Z</time>
      </trkpt>
      <trkpt lat="45.39444" lon="5.77648">
        <ele>1247.93</ele>
        <time>2026-07-19T09:22:28Z</time>
      </trkpt>
      <trkpt lat="45.39439" lon="5.77661">
        <ele>1250.33</ele>
        <time>2026-07-19T09:22:44Z</time>
      </trkpt>
      <trkpt lat="45.39433" lon="5.77673">
        <ele>1253.7</ele>
        <time>2026-07-19T09:23:03Z</time>
      </trkpt>
      <trkpt lat="45.39432" lon="5.77678">
        <ele>1256.1</ele>
        <time>2026-07-19T09:23:18Z</time>
      </trkpt>
      <trkpt lat="45.39431" lon="5.77689">
        <ele>1258.98</ele>
        <time>2026-07-19T09:23:37Z</time>
      </trkpt>
      <trkpt lat="45.39424" lon="5.7771">
        <ele>1260.91</ele>
        <time>2026-07-19T09:23:55Z</time>
      </trkpt>
      <trkpt lat="45.39418" lon="5.7772">
        <ele>1262.83</ele>
        <time>2026-07-19T09:24:11Z</time>
      </trkpt>
      <trkpt lat="45.39409" lon="5.77735">
        <ele>1265.23</ele>
        <time>2026-07-19T09:24:27Z</time>
      </trkpt>
      <trkpt lat="45.394" lon="5.77741">
        <ele>1268.12</ele>
        <time>2026-07-19T09:24:45Z</time>
      </trkpt>
      <trkpt lat="45.39393" lon="5.77746">
        <ele>1270.52</ele>
        <time>2026-07-19T09:25:03Z</time>
      </trkpt>
      <trkpt lat="45.39382" lon="5.77747">
        <ele>1272.92</ele>
        <time>2026-07-19T09:25:19Z</time>
      </trkpt>
      <trkpt lat="45.3938" lon="5.77749">
        <ele>1274.85</ele>
        <time>2026-07-19T09:25:38Z</time>
      </trkpt>
      <trkpt lat="45.39364" lon="5.77745">
        <ele>1275.33</ele>
        <time>2026-07-19T09:25:55Z</time>
      </trkpt>
      <trkpt lat="45.39357" lon="5.77747">
        <ele>1274.36</ele>
        <time>2026-07-19T09:26:08Z</time>
      </trkpt>
      <trkpt lat="45.39344" lon="5.77739">
        <ele>1273.88</ele>
        <time>2026-07-19T09:26:25Z</time>
      </trkpt>
      <trkpt lat="45.39331" lon="5.77728">
        <ele>1275.33</ele>
        <time>2026-07-19T09:26:42Z</time>
      </trkpt>
      <trkpt lat="45.39319" lon="5.77724">
        <ele>1276.77</ele>
        <time>2026-07-19T09:26:55Z</time>
      </trkpt>
      <trkpt lat="45.39307" lon="5.77722">
        <ele>1277.25</ele>
        <time>2026-07-19T09:27:10Z</time>
      </trkpt>
      <trkpt lat="45.39294" lon="5.77729">
        <ele>1276.77</ele>
        <time>2026-07-19T09:27:29Z</time>
      </trkpt>
      <trkpt lat="45.3928" lon="5.77736">
        <ele>1277.25</ele>
        <time>2026-07-19T09:27:51Z</time>
      </trkpt>
      <trkpt lat="45.39272" lon="5.77735">
        <ele>1279.65</ele>
        <time>2026-07-19T09:28:10Z</time>
      </trkpt>
      <trkpt lat="45.39261" lon="5.7774">
        <ele>1282.06</ele>
        <time>2026-07-19T09:28:29Z</time>
      </trkpt>
      <trkpt lat="45.39248" lon="5.77752">
        <ele>1282.54</ele>
        <time>2026-07-19T09:28:45Z</time>
      </trkpt>
      <trkpt lat="45.39243" lon="5.77759">
        <ele>1282.54</ele>
        <time>2026-07-19T09:28:59Z</time>
      </trkpt>
      <trkpt lat="45.39242" lon="5.77764">
        <ele>1282.06</ele>
        <time>2026-07-19T09:29:17Z</time>
      </trkpt>
      <trkpt lat="45.39241" lon="5.77768">
        <ele>1281.09</ele>
        <time>2026-07-19T09:29:34Z</time>
      </trkpt>
      <trkpt lat="45.39244" lon="5.77764">
        <ele>1282.54</ele>
        <time>2026-07-19T09:30:00Z</time>
      </trkpt>
      <trkpt lat="45.39245" lon="5.77763">
        <ele>1283.02</ele>
        <time>2026-07-19T09:30:15Z</time>
      </trkpt>
      <trkpt lat="45.39247" lon="5.77761">
        <ele>1283.02</ele>
        <time>2026-07-19T09:30:39Z</time>
      </trkpt>
      <trkpt lat="45.39258" lon="5.77764">
        <ele>1283.02</ele>
        <time>2026-07-19T09:30:54Z</time>
      </trkpt>
      <trkpt lat="45.39268" lon="5.77757">
        <ele>1281.57</ele>
        <time>2026-07-19T09:31:10Z</time>
      </trkpt>
      <trkpt lat="45.39282" lon="5.77752">
        <ele>1279.17</ele>
        <time>2026-07-19T09:31:30Z</time>
      </trkpt>
      <trkpt lat="45.39281" lon="5.77751">
        <ele>1277.73</ele>
        <time>2026-07-19T09:31:44Z</time>
      </trkpt>
      <trkpt lat="45.39278" lon="5.77754">
        <ele>1277.25</ele>
        <time>2026-07-19T09:32:00Z</time>
      </trkpt>
      <trkpt lat="45.39273" lon="5.77769">
        <ele>1275.33</ele>
        <time>2026-07-19T09:32:18Z</time>
      </trkpt>
      <trkpt lat="45.39277" lon="5.77777">
        <ele>1275.33</ele>
        <time>2026-07-19T09:32:35Z</time>
      </trkpt>
      <trkpt lat="45.39278" lon="5.77778">
        <ele>1275.81</ele>
        <time>2026-07-19T09:32:36Z</time>
      </trkpt>
      <trkpt lat="45.39283" lon="5.77799">
        <ele>1275.81</ele>
        <time>2026-07-19T09:32:52Z</time>
      </trkpt>
      <trkpt lat="45.39285" lon="5.7781">
        <ele>1275.81</ele>
        <time>2026-07-19T09:33:09Z</time>
      </trkpt>
      <trkpt lat="45.39304" lon="5.77821">
        <ele>1276.29</ele>
        <time>2026-07-19T09:33:28Z</time>
      </trkpt>
      <trkpt lat="45.39318" lon="5.77826">
        <ele>1276.29</ele>
        <time>2026-07-19T09:33:44Z</time>
      </trkpt>
      <trkpt lat="45.39329" lon="5.77836">
        <ele>1276.29</ele>
        <time>2026-07-19T09:34:02Z</time>
      </trkpt>
      <trkpt lat="45.39336" lon="5.7784">
        <ele>1276.77</ele>
        <time>2026-07-19T09:34:20Z</time>
      </trkpt>
      <trkpt lat="45.39334" lon="5.7784">
        <ele>1276.77</ele>
        <time>2026-07-19T09:34:34Z</time>
      </trkpt>
      <trkpt lat="45.3932" lon="5.77848">
        <ele>1278.69</ele>
        <time>2026-07-19T09:34:51Z</time>
      </trkpt>
      <trkpt lat="45.39314" lon="5.77866">
        <ele>1279.17</ele>
        <time>2026-07-19T09:35:10Z</time>
      </trkpt>
      <trkpt lat="45.39318" lon="5.77883">
        <ele>1280.61</ele>
        <time>2026-07-19T09:35:25Z</time>
      </trkpt>
      <trkpt lat="45.39321" lon="5.77891">
        <ele>1280.13</ele>
        <time>2026-07-19T09:35:41Z</time>
      </trkpt>
      <trkpt lat="45.39319" lon="5.77898">
        <ele>1280.61</ele>
        <time>2026-07-19T09:35:59Z</time>
      </trkpt>
      <trkpt lat="45.39314" lon="5.77906">
        <ele>1282.06</ele>
        <time>2026-07-19T09:36:18Z</time>
      </trkpt>
      <trkpt lat="45.39304" lon="5.77909">
        <ele>1282.54</ele>
        <time>2026-07-19T09:36:34Z</time>
      </trkpt>
      <trkpt lat="45.39297" lon="5.77916">
        <ele>1283.02</ele>
        <time>2026-07-19T09:36:50Z</time>
      </trkpt>
      <trkpt lat="45.39293" lon="5.77912">
        <ele>1283.98</ele>
        <time>2026-07-19T09:37:07Z</time>
      </trkpt>
      <trkpt lat="45.39284" lon="5.77917">
        <ele>1284.94</ele>
        <time>2026-07-19T09:37:22Z</time>
      </trkpt>
      <trkpt lat="45.39274" lon="5.7792">
        <ele>1284.46</ele>
        <time>2026-07-19T09:37:42Z</time>
      </trkpt>
      <trkpt lat="45.39259" lon="5.77935">
        <ele>1284.46</ele>
        <time>2026-07-19T09:37:55Z</time>
      </trkpt>
      <trkpt lat="45.39258" lon="5.77943">
        <ele>1284.94</ele>
        <time>2026-07-19T09:38:10Z</time>
      </trkpt>
      <trkpt lat="45.3925" lon="5.77959">
        <ele>1285.42</ele>
        <time>2026-07-19T09:38:27Z</time>
      </trkpt>
      <trkpt lat="45.3925" lon="5.77972">
        <ele>1285.42</ele>
        <time>2026-07-19T09:38:43Z</time>
      </trkpt>
      <trkpt lat="45.3925" lon="5.77986">
        <ele>1285.9</ele>
        <time>2026-07-19T09:38:58Z</time>
      </trkpt>
      <trkpt lat="45.39247" lon="5.78">
        <ele>1285.9</ele>
        <time>2026-07-19T09:39:13Z</time>
      </trkpt>
      <trkpt lat="45.39246" lon="5.78017">
        <ele>1285.9</ele>
        <time>2026-07-19T09:39:32Z</time>
      </trkpt>
      <trkpt lat="45.39244" lon="5.78025">
        <ele>1284.46</ele>
        <time>2026-07-19T09:39:48Z</time>
      </trkpt>
      <trkpt lat="45.39239" lon="5.78028">
        <ele>1283.5</ele>
        <time>2026-07-19T09:40:03Z</time>
      </trkpt>
      <trkpt lat="45.39237" lon="5.7803">
        <ele>1283.5</ele>
        <time>2026-07-19T09:40:22Z</time>
      </trkpt>
      <trkpt lat="45.39238" lon="5.78031">
        <ele>1283.98</ele>
        <time>2026-07-19T09:40:41Z</time>
      </trkpt>
      <trkpt lat="45.39239" lon="5.7803">
        <ele>1286.38</ele>
        <time>2026-07-19T09:40:58Z</time>
      </trkpt>
      <trkpt lat="45.39224" lon="5.78036">
        <ele>1285.9</ele>
        <time>2026-07-19T09:41:15Z</time>
      </trkpt>
      <trkpt lat="45.39213" lon="5.78041">
        <ele>1285.9</ele>
        <time>2026-07-19T09:41:30Z</time>
      </trkpt>
      <trkpt lat="45.39208" lon="5.78047">
        <ele>1285.42</ele>
        <time>2026-07-19T09:41:47Z</time>
      </trkpt>
      <trkpt lat="45.39202" lon="5.78053">
        <ele>1284.94</ele>
        <time>2026-07-19T09:42:05Z</time>
      </trkpt>
      <trkpt lat="45.39194" lon="5.78066">
        <ele>1283.5</ele>
        <time>2026-07-19T09:42:21Z</time>
      </trkpt>
      <trkpt lat="45.39186" lon="5.78076">
        <ele>1283.02</ele>
        <time>2026-07-19T09:42:36Z</time>
      </trkpt>
      <trkpt lat="45.39188" lon="5.78086">
        <ele>1283.02</ele>
        <time>2026-07-19T09:42:54Z</time>
      </trkpt>
      <trkpt lat="45.39188" lon="5.78088">
        <ele>1282.06</ele>
        <time>2026-07-19T09:43:19Z</time>
      </trkpt>
      <trkpt lat="45.39186" lon="5.781">
        <ele>1279.65</ele>
        <time>2026-07-19T09:43:35Z</time>
      </trkpt>
      <trkpt lat="45.39181" lon="5.78107">
        <ele>1277.73</ele>
        <time>2026-07-19T09:43:49Z</time>
      </trkpt>
      <trkpt lat="45.39177" lon="5.78124">
        <ele>1276.29</ele>
        <time>2026-07-19T09:44:07Z</time>
      </trkpt>
      <trkpt lat="45.3918" lon="5.78132">
        <ele>1275.33</ele>
        <time>2026-07-19T09:44:21Z</time>
      </trkpt>
      <trkpt lat="45.39178" lon="5.78153">
        <ele>1273.4</ele>
        <time>2026-07-19T09:44:39Z</time>
      </trkpt>
      <trkpt lat="45.39177" lon="5.78156">
        <ele>1272.44</ele>
        <time>2026-07-19T09:44:58Z</time>
      </trkpt>
      <trkpt lat="45.39174" lon="5.78163">
        <ele>1271</ele>
        <time>2026-07-19T09:45:12Z</time>
      </trkpt>
      <trkpt lat="45.39169" lon="5.78174">
        <ele>1268.6</ele>
        <time>2026-07-19T09:45:30Z</time>
      </trkpt>
      <trkpt lat="45.39173" lon="5.78185">
        <ele>1268.6</ele>
        <time>2026-07-19T09:45:49Z</time>
      </trkpt>
      <trkpt lat="45.39174" lon="5.78194">
        <ele>1267.16</ele>
        <time>2026-07-19T09:46:02Z</time>
      </trkpt>
      <trkpt lat="45.39174" lon="5.78209">
        <ele>1265.71</ele>
        <time>2026-07-19T09:46:20Z</time>
      </trkpt>
      <trkpt lat="45.39181" lon="5.78227">
        <ele>1264.27</ele>
        <time>2026-07-19T09:46:33Z</time>
      </trkpt>
      <trkpt lat="45.39187" lon="5.78241">
        <ele>1262.35</ele>
        <time>2026-07-19T09:46:50Z</time>
      </trkpt>
      <trkpt lat="45.3919" lon="5.78258">
        <ele>1259.94</ele>
        <time>2026-07-19T09:47:07Z</time>
      </trkpt>
      <trkpt lat="45.39186" lon="5.78266">
        <ele>1258.5</ele>
        <time>2026-07-19T09:47:20Z</time>
      </trkpt>
      <trkpt lat="45.39181" lon="5.78268">
        <ele>1257.06</ele>
        <time>2026-07-19T09:47:33Z</time>
      </trkpt>
      <trkpt lat="45.39175" lon="5.7828">
        <ele>1256.1</ele>
        <time>2026-07-19T09:47:48Z</time>
      </trkpt>
      <trkpt lat="45.3918" lon="5.7829">
        <ele>1256.1</ele>
        <time>2026-07-19T09:47:58Z</time>
      </trkpt>
      <trkpt lat="45.39177" lon="5.78308">
        <ele>1254.66</ele>
        <time>2026-07-19T09:48:11Z</time>
      </trkpt>
      <trkpt lat="45.39181" lon="5.78319">
        <ele>1254.66</ele>
        <time>2026-07-19T09:48:18Z</time>
      </trkpt>
      <trkpt lat="45.39186" lon="5.78332">
        <ele>1254.18</ele>
        <time>2026-07-19T09:48:32Z</time>
      </trkpt>
      <trkpt lat="45.39188" lon="5.78333">
        <ele>1254.18</ele>
        <time>2026-07-19T09:48:35Z</time>
      </trkpt>
      <trkpt lat="45.39201" lon="5.78344">
        <ele>1254.18</ele>
        <time>2026-07-19T09:48:50Z</time>
      </trkpt>
      <trkpt lat="45.39214" lon="5.78349">
        <ele>1253.7</ele>
        <time>2026-07-19T09:49:06Z</time>
      </trkpt>
      <trkpt lat="45.39222" lon="5.78353">
        <ele>1253.7</ele>
        <time>2026-07-19T09:49:22Z</time>
      </trkpt>
      <trkpt lat="45.39235" lon="5.78348">
        <ele>1254.18</ele>
        <time>2026-07-19T09:49:38Z</time>
      </trkpt>
      <trkpt lat="45.39241" lon="5.78349">
        <ele>1254.18</ele>
        <time>2026-07-19T09:49:53Z</time>
      </trkpt>
      <trkpt lat="45.39258" lon="5.78356">
        <ele>1254.18</ele>
        <time>2026-07-19T09:50:09Z</time>
      </trkpt>
      <trkpt lat="45.39269" lon="5.78366">
        <ele>1254.18</ele>
        <time>2026-07-19T09:50:23Z</time>
      </trkpt>
      <trkpt lat="45.39269" lon="5.78381">
        <ele>1255.62</ele>
        <time>2026-07-19T09:50:41Z</time>
      </trkpt>
      <trkpt lat="45.39264" lon="5.78397">
        <ele>1258.02</ele>
        <time>2026-07-19T09:50:58Z</time>
      </trkpt>
      <trkpt lat="45.39265" lon="5.78414">
        <ele>1260.91</ele>
        <time>2026-07-19T09:51:17Z</time>
      </trkpt>
      <trkpt lat="45.39263" lon="5.7842">
        <ele>1262.83</ele>
        <time>2026-07-19T09:51:33Z</time>
      </trkpt>
      <trkpt lat="45.39263" lon="5.7842">
        <ele>1264.75</ele>
        <time>2026-07-19T09:51:48Z</time>
      </trkpt>
      <trkpt lat="45.39262" lon="5.78421">
        <ele>1266.67</ele>
        <time>2026-07-19T09:52:04Z</time>
      </trkpt>
      <trkpt lat="45.39257" lon="5.78448">
        <ele>1268.12</ele>
        <time>2026-07-19T09:52:23Z</time>
      </trkpt>
      <trkpt lat="45.39252" lon="5.78469">
        <ele>1267.64</ele>
        <time>2026-07-19T09:52:37Z</time>
      </trkpt>
      <trkpt lat="45.39249" lon="5.78486">
        <ele>1269.08</ele>
        <time>2026-07-19T09:52:53Z</time>
      </trkpt>
      <trkpt lat="45.39251" lon="5.78512">
        <ele>1268.6</ele>
        <time>2026-07-19T09:53:15Z</time>
      </trkpt>
      <trkpt lat="45.39252" lon="5.78534">
        <ele>1268.12</ele>
        <time>2026-07-19T09:53:33Z</time>
      </trkpt>
      <trkpt lat="45.39252" lon="5.78554">
        <ele>1268.12</ele>
        <time>2026-07-19T09:53:48Z</time>
      </trkpt>
      <trkpt lat="45.39253" lon="5.7856">
        <ele>1268.6</ele>
        <time>2026-07-19T09:54:04Z</time>
      </trkpt>
      <trkpt lat="45.39249" lon="5.78572">
        <ele>1268.12</ele>
        <time>2026-07-19T09:54:19Z</time>
      </trkpt>
      <trkpt lat="45.39255" lon="5.78592">
        <ele>1268.12</ele>
        <time>2026-07-19T09:54:32Z</time>
      </trkpt>
      <trkpt lat="45.39264" lon="5.78611">
        <ele>1268.12</ele>
        <time>2026-07-19T09:54:50Z</time>
      </trkpt>
      <trkpt lat="45.39286" lon="5.78634">
        <ele>1267.64</ele>
        <time>2026-07-19T09:55:04Z</time>
      </trkpt>
      <trkpt lat="45.39304" lon="5.78643">
        <ele>1267.64</ele>
        <time>2026-07-19T09:55:20Z</time>
      </trkpt>
      <trkpt lat="45.39309" lon="5.7864">
        <ele>1268.6</ele>
        <time>2026-07-19T09:55:34Z</time>
      </trkpt>
      <trkpt lat="45.39314" lon="5.7864">
        <ele>1268.6</ele>
        <time>2026-07-19T09:55:49Z</time>
      </trkpt>
      <trkpt lat="45.39333" lon="5.78661">
        <ele>1268.6</ele>
        <time>2026-07-19T09:56:09Z</time>
      </trkpt>
      <trkpt lat="45.39341" lon="5.78686">
        <ele>1268.6</ele>
        <time>2026-07-19T09:56:27Z</time>
      </trkpt>
      <trkpt lat="45.39344" lon="5.78697">
        <ele>1268.6</ele>
        <time>2026-07-19T09:56:43Z</time>
      </trkpt>
      <trkpt lat="45.39348" lon="5.78712">
        <ele>1270.04</ele>
        <time>2026-07-19T09:56:58Z</time>
      </trkpt>
      <trkpt lat="45.39349" lon="5.78714">
        <ele>1269.56</ele>
        <time>2026-07-19T09:56:59Z</time>
      </trkpt>
      <trkpt lat="45.39348" lon="5.78721">
        <ele>1270.04</ele>
        <time>2026-07-19T09:57:05Z</time>
      </trkpt>
      <trkpt lat="45.39342" lon="5.7873">
        <ele>1271</ele>
        <time>2026-07-19T09:57:19Z</time>
      </trkpt>
      <trkpt lat="45.39328" lon="5.7874">
        <ele>1271.48</ele>
        <time>2026-07-19T09:57:36Z</time>
      </trkpt>
      <trkpt lat="45.39324" lon="5.78765">
        <ele>1273.4</ele>
        <time>2026-07-19T09:57:56Z</time>
      </trkpt>
      <trkpt lat="45.39326" lon="5.78777">
        <ele>1275.81</ele>
        <time>2026-07-19T09:58:16Z</time>
      </trkpt>
      <trkpt lat="45.39346" lon="5.78798">
        <ele>1278.21</ele>
        <time>2026-07-19T09:58:35Z</time>
      </trkpt>
      <trkpt lat="45.39363" lon="5.78811">
        <ele>1280.61</ele>
        <time>2026-07-19T09:58:52Z</time>
      </trkpt>
      <trkpt lat="45.39369" lon="5.7881">
        <ele>1282.06</ele>
        <time>2026-07-19T09:59:14Z</time>
      </trkpt>
      <trkpt lat="45.39371" lon="5.78816">
        <ele>1285.42</ele>
        <time>2026-07-19T09:59:34Z</time>
      </trkpt>
      <trkpt lat="45.39371" lon="5.78817">
        <ele>1285.9</ele>
        <time>2026-07-19T09:59:36Z</time>
      </trkpt>
      <trkpt lat="45.39372" lon="5.78819">
        <ele>1285.42</ele>
        <time>2026-07-19T09:59:39Z</time>
      </trkpt>
      <trkpt lat="45.39391" lon="5.78827">
        <ele>1285.9</ele>
        <time>2026-07-19T09:59:59Z</time>
      </trkpt>
      <trkpt lat="45.3941" lon="5.78826">
        <ele>1285.9</ele>
        <time>2026-07-19T10:00:12Z</time>
      </trkpt>
      <trkpt lat="45.39423" lon="5.78836">
        <ele>1286.38</ele>
        <time>2026-07-19T10:00:34Z</time>
      </trkpt>
      <trkpt lat="45.39444" lon="5.78846">
        <ele>1287.82</ele>
        <time>2026-07-19T10:00:53Z</time>
      </trkpt>
      <trkpt lat="45.39448" lon="5.78842">
        <ele>1289.27</ele>
        <time>2026-07-19T10:01:12Z</time>
      </trkpt>
      <trkpt lat="45.39451" lon="5.78839">
        <ele>1289.75</ele>
        <time>2026-07-19T10:01:20Z</time>
      </trkpt>
      <trkpt lat="45.39476" lon="5.78843">
        <ele>1290.71</ele>
        <time>2026-07-19T10:01:39Z</time>
      </trkpt>
      <trkpt lat="45.39485" lon="5.78841">
        <ele>1290.71</ele>
        <time>2026-07-19T10:01:54Z</time>
      </trkpt>
      <trkpt lat="45.39486" lon="5.7884">
        <ele>1291.19</ele>
        <time>2026-07-19T10:02:11Z</time>
      </trkpt>
      <trkpt lat="45.39485" lon="5.78844">
        <ele>1291.67</ele>
        <time>2026-07-19T10:02:22Z</time>
      </trkpt>
      <trkpt lat="45.39481" lon="5.78849">
        <ele>1293.11</ele>
        <time>2026-07-19T10:02:39Z</time>
      </trkpt>
      <trkpt lat="45.39478" lon="5.78842">
        <ele>1296.48</ele>
        <time>2026-07-19T10:02:54Z</time>
      </trkpt>
      <trkpt lat="45.39471" lon="5.78839">
        <ele>1297.92</ele>
        <time>2026-07-19T10:03:16Z</time>
      </trkpt>
      <trkpt lat="45.3946" lon="5.78839">
        <ele>1299.84</ele>
        <time>2026-07-19T10:03:35Z</time>
      </trkpt>
      <trkpt lat="45.39457" lon="5.78841">
        <ele>1301.76</ele>
        <time>2026-07-19T10:03:50Z</time>
      </trkpt>
      <trkpt lat="45.39452" lon="5.78844">
        <ele>1302.72</ele>
        <time>2026-07-19T10:04:13Z</time>
      </trkpt>
      <trkpt lat="45.39444" lon="5.78844">
        <ele>1303.69</ele>
        <time>2026-07-19T10:04:31Z</time>
      </trkpt>
      <trkpt lat="45.39436" lon="5.78837">
        <ele>1304.17</ele>
        <time>2026-07-19T10:04:46Z</time>
      </trkpt>
      <trkpt lat="45.39431" lon="5.78839">
        <ele>1304.65</ele>
        <time>2026-07-19T10:05:02Z</time>
      </trkpt>
      <trkpt lat="45.39424" lon="5.78842">
        <ele>1307.05</ele>
        <time>2026-07-19T10:05:18Z</time>
      </trkpt>
      <trkpt lat="45.39416" lon="5.78845">
        <ele>1308.97</ele>
        <time>2026-07-19T10:05:32Z</time>
      </trkpt>
      <trkpt lat="45.39406" lon="5.78852">
        <ele>1310.41</ele>
        <time>2026-07-19T10:05:47Z</time>
      </trkpt>
      <trkpt lat="45.39402" lon="5.78855">
        <ele>1311.38</ele>
        <time>2026-07-19T10:06:02Z</time>
      </trkpt>
      <trkpt lat="45.39397" lon="5.78857">
        <ele>1310.9</ele>
        <time>2026-07-19T10:06:16Z</time>
      </trkpt>
      <trkpt lat="45.39387" lon="5.78874">
        <ele>1313.78</ele>
        <time>2026-07-19T10:06:38Z</time>
      </trkpt>
      <trkpt lat="45.3938" lon="5.78879">
        <ele>1317.14</ele>
        <time>2026-07-19T10:06:54Z</time>
      </trkpt>
      <trkpt lat="45.39375" lon="5.7889">
        <ele>1319.07</ele>
        <time>2026-07-19T10:07:14Z</time>
      </trkpt>
      <trkpt lat="45.39383" lon="5.78905">
        <ele>1321.47</ele>
        <time>2026-07-19T10:07:33Z</time>
      </trkpt>
      <trkpt lat="45.39394" lon="5.78902">
        <ele>1322.91</ele>
        <time>2026-07-19T10:07:52Z</time>
      </trkpt>
      <trkpt lat="45.3941" lon="5.78905">
        <ele>1325.8</ele>
        <time>2026-07-19T10:08:11Z</time>
      </trkpt>
      <trkpt lat="45.39415" lon="5.78905">
        <ele>1328.68</ele>
        <time>2026-07-19T10:08:31Z</time>
      </trkpt>
      <trkpt lat="45.3943" lon="5.78905">
        <ele>1331.08</ele>
        <time>2026-07-19T10:08:53Z</time>
      </trkpt>
      <trkpt lat="45.39435" lon="5.78907">
        <ele>1333.01</ele>
        <time>2026-07-19T10:09:13Z</time>
      </trkpt>
      <trkpt lat="45.39434" lon="5.78905">
        <ele>1333.49</ele>
        <time>2026-07-19T10:09:37Z</time>
      </trkpt>
      <trkpt lat="45.39438" lon="5.78908">
        <ele>1333.49</ele>
        <time>2026-07-19T10:10:06Z</time>
      </trkpt>
      <trkpt lat="45.39448" lon="5.78914">
        <ele>1335.41</ele>
        <time>2026-07-19T10:10:32Z</time>
      </trkpt>
      <trkpt lat="45.39458" lon="5.78918">
        <ele>1336.37</ele>
        <time>2026-07-19T10:10:49Z</time>
      </trkpt>
      <trkpt lat="45.39481" lon="5.78929">
        <ele>1338.77</ele>
        <time>2026-07-19T10:11:10Z</time>
      </trkpt>
      <trkpt lat="45.39488" lon="5.78928">
        <ele>1340.22</ele>
        <time>2026-07-19T10:11:27Z</time>
      </trkpt>
      <trkpt lat="45.39487" lon="5.78925">
        <ele>1342.62</ele>
        <time>2026-07-19T10:11:46Z</time>
      </trkpt>
      <trkpt lat="45.39476" lon="5.78926">
        <ele>1344.54</ele>
        <time>2026-07-19T10:12:02Z</time>
      </trkpt>
      <trkpt lat="45.39469" lon="5.78929">
        <ele>1346.46</ele>
        <time>2026-07-19T10:12:18Z</time>
      </trkpt>
      <trkpt lat="45.39459" lon="5.78933">
        <ele>1347.91</ele>
        <time>2026-07-19T10:12:33Z</time>
      </trkpt>
      <trkpt lat="45.39447" lon="5.78935">
        <ele>1348.87</ele>
        <time>2026-07-19T10:12:47Z</time>
      </trkpt>
      <trkpt lat="45.39438" lon="5.78937">
        <ele>1351.27</ele>
        <time>2026-07-19T10:13:03Z</time>
      </trkpt>
      <trkpt lat="45.39434" lon="5.78941">
        <ele>1352.23</ele>
        <time>2026-07-19T10:13:17Z</time>
      </trkpt>
      <trkpt lat="45.39429" lon="5.78949">
        <ele>1353.19</ele>
        <time>2026-07-19T10:13:33Z</time>
      </trkpt>
      <trkpt lat="45.39422" lon="5.78952">
        <ele>1354.63</ele>
        <time>2026-07-19T10:13:52Z</time>
      </trkpt>
      <trkpt lat="45.39421" lon="5.78956">
        <ele>1354.15</ele>
        <time>2026-07-19T10:14:05Z</time>
      </trkpt>
      <trkpt lat="45.39418" lon="5.78957">
        <ele>1355.12</ele>
        <time>2026-07-19T10:14:19Z</time>
      </trkpt>
      <trkpt lat="45.39413" lon="5.78961">
        <ele>1356.08</ele>
        <time>2026-07-19T10:14:36Z</time>
      </trkpt>
      <trkpt lat="45.39409" lon="5.78965">
        <ele>1357.04</ele>
        <time>2026-07-19T10:14:50Z</time>
      </trkpt>
      <trkpt lat="45.39404" lon="5.78971">
        <ele>1358.96</ele>
        <time>2026-07-19T10:15:02Z</time>
      </trkpt>
      <trkpt lat="45.394" lon="5.78977">
        <ele>1358.96</ele>
        <time>2026-07-19T10:15:24Z</time>
      </trkpt>
      <trkpt lat="45.39394" lon="5.78983">
        <ele>1359.92</ele>
        <time>2026-07-19T10:15:40Z</time>
      </trkpt>
      <trkpt lat="45.39391" lon="5.78986">
        <ele>1360.88</ele>
        <time>2026-07-19T10:15:54Z</time>
      </trkpt>
      <trkpt lat="45.39389" lon="5.78989">
        <ele>1362.81</ele>
        <time>2026-07-19T10:16:10Z</time>
      </trkpt>
      <trkpt lat="45.39389" lon="5.78995">
        <ele>1364.73</ele>
        <time>2026-07-19T10:16:29Z</time>
      </trkpt>
      <trkpt lat="45.39385" lon="5.78998">
        <ele>1365.21</ele>
        <time>2026-07-19T10:16:46Z</time>
      </trkpt>
      <trkpt lat="45.39382" lon="5.79">
        <ele>1367.13</ele>
        <time>2026-07-19T10:17:04Z</time>
      </trkpt>
      <trkpt lat="45.39376" lon="5.79013">
        <ele>1369.05</ele>
        <time>2026-07-19T10:17:24Z</time>
      </trkpt>
      <trkpt lat="45.39378" lon="5.7902">
        <ele>1371.46</ele>
        <time>2026-07-19T10:17:45Z</time>
      </trkpt>
      <trkpt lat="45.3938" lon="5.79022">
        <ele>1373.38</ele>
        <time>2026-07-19T10:18:02Z</time>
      </trkpt>
      <trkpt lat="45.39386" lon="5.79024">
        <ele>1374.82</ele>
        <time>2026-07-19T10:18:18Z</time>
      </trkpt>
      <trkpt lat="45.39392" lon="5.79023">
        <ele>1377.23</ele>
        <time>2026-07-19T10:18:34Z</time>
      </trkpt>
      <trkpt lat="45.39396" lon="5.79024">
        <ele>1378.67</ele>
        <time>2026-07-19T10:18:51Z</time>
      </trkpt>
      <trkpt lat="45.39399" lon="5.79027">
        <ele>1380.11</ele>
        <time>2026-07-19T10:19:07Z</time>
      </trkpt>
      <trkpt lat="45.394" lon="5.7903">
        <ele>1382.51</ele>
        <time>2026-07-19T10:19:24Z</time>
      </trkpt>
      <trkpt lat="45.394" lon="5.79035">
        <ele>1384.44</ele>
        <time>2026-07-19T10:19:44Z</time>
      </trkpt>
      <trkpt lat="45.39399" lon="5.79042">
        <ele>1386.84</ele>
        <time>2026-07-19T10:20:01Z</time>
      </trkpt>
      <trkpt lat="45.39396" lon="5.79067">
        <ele>1388.76</ele>
        <time>2026-07-19T10:20:17Z</time>
      </trkpt>
      <trkpt lat="45.39389" lon="5.79104">
        <ele>1389.24</ele>
        <time>2026-07-19T10:20:28Z</time>
      </trkpt>
      <trkpt lat="45.39387" lon="5.7912">
        <ele>1389.72</ele>
        <time>2026-07-19T10:20:42Z</time>
      </trkpt>
      <trkpt lat="45.39385" lon="5.79144">
        <ele>1390.68</ele>
        <time>2026-07-19T10:20:57Z</time>
      </trkpt>
      <trkpt lat="45.39381" lon="5.79164">
        <ele>1390.68</ele>
        <time>2026-07-19T10:21:11Z</time>
      </trkpt>
      <trkpt lat="45.39378" lon="5.79183">
        <ele>1391.17</ele>
        <time>2026-07-19T10:21:26Z</time>
      </trkpt>
      <trkpt lat="45.3937" lon="5.79195">
        <ele>1391.65</ele>
        <time>2026-07-19T10:21:40Z</time>
      </trkpt>
      <trkpt lat="45.39362" lon="5.792">
        <ele>1392.61</ele>
        <time>2026-07-19T10:21:54Z</time>
      </trkpt>
      <trkpt lat="45.3935" lon="5.79211">
        <ele>1392.61</ele>
        <time>2026-07-19T10:22:10Z</time>
      </trkpt>
      <trkpt lat="45.39336" lon="5.79225">
        <ele>1392.61</ele>
        <time>2026-07-19T10:22:24Z</time>
      </trkpt>
      <trkpt lat="45.39334" lon="5.79228">
        <ele>1388.28</ele>
        <time>2026-07-19T10:22:28Z</time>
      </trkpt>
      <trkpt lat="45.39333" lon="5.79228">
        <ele>1395.97</ele>
        <time>2026-07-19T10:22:29Z</time>
      </trkpt>
      <trkpt lat="45.39332" lon="5.79229">
        <ele>1385.88</ele>
        <time>2026-07-19T10:22:30Z</time>
      </trkpt>
      <trkpt lat="45.39332" lon="5.79229">
        <ele>1397.41</ele>
        <time>2026-07-19T10:22:31Z</time>
      </trkpt>
      <trkpt lat="45.39331" lon="5.79229">
        <ele>1392.61</ele>
        <time>2026-07-19T10:22:32Z</time>
      </trkpt>
      <trkpt lat="45.39321" lon="5.79232">
        <ele>1395.49</ele>
        <time>2026-07-19T10:22:44Z</time>
      </trkpt>
      <trkpt lat="45.39317" lon="5.79232">
        <ele>1392.13</ele>
        <time>2026-07-19T10:22:47Z</time>
      </trkpt>
      <trkpt lat="45.39307" lon="5.79232">
        <ele>1391.65</ele>
        <time>2026-07-19T10:23:00Z</time>
      </trkpt>
      <trkpt lat="45.39305" lon="5.79232">
        <ele>1391.65</ele>
        <time>2026-07-19T10:23:05Z</time>
      </trkpt>
      <trkpt lat="45.393" lon="5.79237">
        <ele>1392.13</ele>
        <time>2026-07-19T10:23:13Z</time>
      </trkpt>
      <trkpt lat="45.39295" lon="5.79238">
        <ele>1392.61</ele>
        <time>2026-07-19T10:23:18Z</time>
      </trkpt>
      <trkpt lat="45.39292" lon="5.79238">
        <ele>1393.09</ele>
        <time>2026-07-19T10:23:20Z</time>
      </trkpt>
      <trkpt lat="45.39279" lon="5.79239">
        <ele>1394.05</ele>
        <time>2026-07-19T10:23:35Z</time>
      </trkpt>
      <trkpt lat="45.39275" lon="5.79239">
        <ele>1394.53</ele>
        <time>2026-07-19T10:23:42Z</time>
      </trkpt>
      <trkpt lat="45.3926" lon="5.7924">
        <ele>1395.97</ele>
        <time>2026-07-19T10:23:57Z</time>
      </trkpt>
      <trkpt lat="45.39252" lon="5.79242">
        <ele>1396.45</ele>
        <time>2026-07-19T10:24:04Z</time>
      </trkpt>
      <trkpt lat="45.39233" lon="5.79243">
        <ele>1398.37</ele>
        <time>2026-07-19T10:24:21Z</time>
      </trkpt>
      <trkpt lat="45.39222" lon="5.79246">
        <ele>1400.3</ele>
        <time>2026-07-19T10:24:35Z</time>
      </trkpt>
      <trkpt lat="45.39214" lon="5.79249">
        <ele>1401.74</ele>
        <time>2026-07-19T10:24:47Z</time>
      </trkpt>
      <trkpt lat="45.39207" lon="5.79255">
        <ele>1403.18</ele>
        <time>2026-07-19T10:25:00Z</time>
      </trkpt>
      <trkpt lat="45.39197" lon="5.7926">
        <ele>1405.1</ele>
        <time>2026-07-19T10:25:13Z</time>
      </trkpt>
      <trkpt lat="45.39188" lon="5.79264">
        <ele>1405.58</ele>
        <time>2026-07-19T10:25:26Z</time>
      </trkpt>
      <trkpt lat="45.3918" lon="5.79264">
        <ele>1407.03</ele>
        <time>2026-07-19T10:25:39Z</time>
      </trkpt>
      <trkpt lat="45.39174" lon="5.79266">
        <ele>1407.51</ele>
        <time>2026-07-19T10:25:45Z</time>
      </trkpt>
      <trkpt lat="45.39166" lon="5.79266">
        <ele>1408.47</ele>
        <time>2026-07-19T10:25:50Z</time>
      </trkpt>
      <trkpt lat="45.39155" lon="5.79275">
        <ele>1409.43</ele>
        <time>2026-07-19T10:26:04Z</time>
      </trkpt>
      <trkpt lat="45.39144" lon="5.79286">
        <ele>1410.39</ele>
        <time>2026-07-19T10:26:19Z</time>
      </trkpt>
      <trkpt lat="45.3914" lon="5.79287">
        <ele>1410.39</ele>
        <time>2026-07-19T10:26:22Z</time>
      </trkpt>
      <trkpt lat="45.3913" lon="5.79293">
        <ele>1409.43</ele>
        <time>2026-07-19T10:26:32Z</time>
      </trkpt>
      <trkpt lat="45.39127" lon="5.79293">
        <ele>1409.91</ele>
        <time>2026-07-19T10:26:34Z</time>
      </trkpt>
      <trkpt lat="45.39121" lon="5.79301">
        <ele>1406.07</ele>
        <time>2026-07-19T10:26:40Z</time>
      </trkpt>
      <trkpt lat="45.3912" lon="5.79302">
        <ele>1414.24</ele>
        <time>2026-07-19T10:26:41Z</time>
      </trkpt>
      <trkpt lat="45.3912" lon="5.79302">
        <ele>1409.91</ele>
        <time>2026-07-19T10:26:42Z</time>
      </trkpt>
      <trkpt lat="45.39112" lon="5.79292">
        <ele>1410.87</ele>
        <time>2026-07-19T10:26:57Z</time>
      </trkpt>
      <trkpt lat="45.39103" lon="5.79283">
        <ele>1413.28</ele>
        <time>2026-07-19T10:27:12Z</time>
      </trkpt>
      <trkpt lat="45.39093" lon="5.7928">
        <ele>1415.2</ele>
        <time>2026-07-19T10:27:28Z</time>
      </trkpt>
      <trkpt lat="45.39082" lon="5.79265">
        <ele>1416.64</ele>
        <time>2026-07-19T10:27:46Z</time>
      </trkpt>
      <trkpt lat="45.39081" lon="5.79263">
        <ele>1416.64</ele>
        <time>2026-07-19T10:27:48Z</time>
      </trkpt>
      <trkpt lat="45.39069" lon="5.79249">
        <ele>1418.08</ele>
        <time>2026-07-19T10:28:03Z</time>
      </trkpt>
      <trkpt lat="45.39057" lon="5.79256">
        <ele>1420</ele>
        <time>2026-07-19T10:28:20Z</time>
      </trkpt>
      <trkpt lat="45.39045" lon="5.79271">
        <ele>1422.89</ele>
        <time>2026-07-19T10:28:38Z</time>
      </trkpt>
      <trkpt lat="45.39046" lon="5.79293">
        <ele>1424.33</ele>
        <time>2026-07-19T10:28:52Z</time>
      </trkpt>
      <trkpt lat="45.3905" lon="5.79313">
        <ele>1426.25</ele>
        <time>2026-07-19T10:29:11Z</time>
      </trkpt>
      <trkpt lat="45.39051" lon="5.79329">
        <ele>1427.7</ele>
        <time>2026-07-19T10:29:25Z</time>
      </trkpt>
      <trkpt lat="45.39053" lon="5.79337">
        <ele>1429.62</ele>
        <time>2026-07-19T10:29:39Z</time>
      </trkpt>
      <trkpt lat="45.39063" lon="5.79354">
        <ele>1431.06</ele>
        <time>2026-07-19T10:29:53Z</time>
      </trkpt>
      <trkpt lat="45.39073" lon="5.79373">
        <ele>1433.94</ele>
        <time>2026-07-19T10:30:11Z</time>
      </trkpt>
      <trkpt lat="45.39083" lon="5.79386">
        <ele>1436.35</ele>
        <time>2026-07-19T10:30:27Z</time>
      </trkpt>
      <trkpt lat="45.39084" lon="5.794">
        <ele>1439.23</ele>
        <time>2026-07-19T10:30:44Z</time>
      </trkpt>
      <trkpt lat="45.39083" lon="5.79402">
        <ele>1439.71</ele>
        <time>2026-07-19T10:30:47Z</time>
      </trkpt>
      <trkpt lat="45.39083" lon="5.79416">
        <ele>1442.11</ele>
        <time>2026-07-19T10:31:05Z</time>
      </trkpt>
      <trkpt lat="45.39083" lon="5.79422">
        <ele>1442.6</ele>
        <time>2026-07-19T10:31:20Z</time>
      </trkpt>
      <trkpt lat="45.39083" lon="5.79423">
        <ele>1442.11</ele>
        <time>2026-07-19T10:31:45Z</time>
      </trkpt>
      <trkpt lat="45.39079" lon="5.79434">
        <ele>1440.19</ele>
        <time>2026-07-19T10:32:02Z</time>
      </trkpt>
      <trkpt lat="45.39072" lon="5.79443">
        <ele>1437.79</ele>
        <time>2026-07-19T10:32:20Z</time>
      </trkpt>
      <trkpt lat="45.39064" lon="5.7945">
        <ele>1435.87</ele>
        <time>2026-07-19T10:32:36Z</time>
      </trkpt>
      <trkpt lat="45.3905" lon="5.7945">
        <ele>1434.42</ele>
        <time>2026-07-19T10:32:53Z</time>
      </trkpt>
      <trkpt lat="45.39036" lon="5.79451">
        <ele>1432.98</ele>
        <time>2026-07-19T10:33:10Z</time>
      </trkpt>
      <trkpt lat="45.39022" lon="5.79448">
        <ele>1431.06</ele>
        <time>2026-07-19T10:33:28Z</time>
      </trkpt>
      <trkpt lat="45.39006" lon="5.79449">
        <ele>1429.62</ele>
        <time>2026-07-19T10:33:46Z</time>
      </trkpt>
      <trkpt lat="45.38992" lon="5.79448">
        <ele>1428.66</ele>
        <time>2026-07-19T10:34:00Z</time>
      </trkpt>
      <trkpt lat="45.38982" lon="5.79445">
        <ele>1427.21</ele>
        <time>2026-07-19T10:34:13Z</time>
      </trkpt>
      <trkpt lat="45.38974" lon="5.7944">
        <ele>1426.25</ele>
        <time>2026-07-19T10:34:28Z</time>
      </trkpt>
      <trkpt lat="45.3897" lon="5.7944">
        <ele>1425.29</ele>
        <time>2026-07-19T10:34:33Z</time>
      </trkpt>
      <trkpt lat="45.38956" lon="5.79441">
        <ele>1423.85</ele>
        <time>2026-07-19T10:34:48Z</time>
      </trkpt>
      <trkpt lat="45.38947" lon="5.79445">
        <ele>1422.41</ele>
        <time>2026-07-19T10:35:04Z</time>
      </trkpt>
      <trkpt lat="45.3894" lon="5.79442">
        <ele>1420.49</ele>
        <time>2026-07-19T10:35:20Z</time>
      </trkpt>
      <trkpt lat="45.38923" lon="5.7944">
        <ele>1418.56</ele>
        <time>2026-07-19T10:35:39Z</time>
      </trkpt>
      <trkpt lat="45.38922" lon="5.7944">
        <ele>1418.08</ele>
        <time>2026-07-19T10:35:40Z</time>
      </trkpt>
      <trkpt lat="45.38908" lon="5.79436">
        <ele>1416.64</ele>
        <time>2026-07-19T10:35:55Z</time>
      </trkpt>
      <trkpt lat="45.38892" lon="5.79433">
        <ele>1414.72</ele>
        <time>2026-07-19T10:36:12Z</time>
      </trkpt>
      <trkpt lat="45.3888" lon="5.79426">
        <ele>1414.24</ele>
        <time>2026-07-19T10:36:28Z</time>
      </trkpt>
      <trkpt lat="45.38879" lon="5.79426">
        <ele>1413.76</ele>
        <time>2026-07-19T10:36:30Z</time>
      </trkpt>
      <trkpt lat="45.38874" lon="5.79425">
        <ele>1412.79</ele>
        <time>2026-07-19T10:36:34Z</time>
      </trkpt>
      <trkpt lat="45.38865" lon="5.79425">
        <ele>1412.31</ele>
        <time>2026-07-19T10:36:42Z</time>
      </trkpt>
      <trkpt lat="45.38849" lon="5.79421">
        <ele>1411.83</ele>
        <time>2026-07-19T10:36:56Z</time>
      </trkpt>
      <trkpt lat="45.38839" lon="5.79417">
        <ele>1410.87</ele>
        <time>2026-07-19T10:37:06Z</time>
      </trkpt>
      <trkpt lat="45.38823" lon="5.79419">
        <ele>1409.43</ele>
        <time>2026-07-19T10:37:22Z</time>
      </trkpt>
      <trkpt lat="45.38819" lon="5.79424">
        <ele>1408.95</ele>
        <time>2026-07-19T10:37:27Z</time>
      </trkpt>
      <trkpt lat="45.38799" lon="5.79442">
        <ele>1407.51</ele>
        <time>2026-07-19T10:37:45Z</time>
      </trkpt>
      <trkpt lat="45.38783" lon="5.79453">
        <ele>1407.03</ele>
        <time>2026-07-19T10:38:02Z</time>
      </trkpt>
      <trkpt lat="45.38769" lon="5.79461">
        <ele>1406.55</ele>
        <time>2026-07-19T10:38:19Z</time>
      </trkpt>
      <trkpt lat="45.38756" lon="5.7947">
        <ele>1405.1</ele>
        <time>2026-07-19T10:38:31Z</time>
      </trkpt>
      <trkpt lat="45.38744" lon="5.7948">
        <ele>1404.62</ele>
        <time>2026-07-19T10:38:50Z</time>
      </trkpt>
      <trkpt lat="45.38743" lon="5.79481">
        <ele>1404.62</ele>
        <time>2026-07-19T10:39:03Z</time>
      </trkpt>
      <trkpt lat="45.38732" lon="5.79496">
        <ele>1405.1</ele>
        <time>2026-07-19T10:39:18Z</time>
      </trkpt>
      <trkpt lat="45.38728" lon="5.79501">
        <ele>1404.62</ele>
        <time>2026-07-19T10:39:25Z</time>
      </trkpt>
      <trkpt lat="45.38717" lon="5.79511">
        <ele>1404.14</ele>
        <time>2026-07-19T10:39:41Z</time>
      </trkpt>
      <trkpt lat="45.38708" lon="5.79524">
        <ele>1401.74</ele>
        <time>2026-07-19T10:39:56Z</time>
      </trkpt>
      <trkpt lat="45.38703" lon="5.79531">
        <ele>1401.26</ele>
        <time>2026-07-19T10:40:03Z</time>
      </trkpt>
      <trkpt lat="45.38697" lon="5.79538">
        <ele>1401.74</ele>
        <time>2026-07-19T10:40:10Z</time>
      </trkpt>
      <trkpt lat="45.38692" lon="5.79564">
        <ele>1402.22</ele>
        <time>2026-07-19T10:40:27Z</time>
      </trkpt>
      <trkpt lat="45.38691" lon="5.79589">
        <ele>1401.26</ele>
        <time>2026-07-19T10:40:43Z</time>
      </trkpt>
      <trkpt lat="45.3869" lon="5.79601">
        <ele>1402.7</ele>
        <time>2026-07-19T10:40:57Z</time>
      </trkpt>
      <trkpt lat="45.38693" lon="5.7961">
        <ele>1405.1</ele>
        <time>2026-07-19T10:41:10Z</time>
      </trkpt>
      <trkpt lat="45.38691" lon="5.79631">
        <ele>1405.58</ele>
        <time>2026-07-19T10:41:25Z</time>
      </trkpt>
      <trkpt lat="45.38681" lon="5.79642">
        <ele>1406.07</ele>
        <time>2026-07-19T10:41:43Z</time>
      </trkpt>
      <trkpt lat="45.38669" lon="5.79663">
        <ele>1406.55</ele>
        <time>2026-07-19T10:42:00Z</time>
      </trkpt>
      <trkpt lat="45.38667" lon="5.79679">
        <ele>1407.99</ele>
        <time>2026-07-19T10:42:14Z</time>
      </trkpt>
      <trkpt lat="45.38658" lon="5.79691">
        <ele>1410.39</ele>
        <time>2026-07-19T10:42:32Z</time>
      </trkpt>
      <trkpt lat="45.38653" lon="5.79709">
        <ele>1412.31</ele>
        <time>2026-07-19T10:42:47Z</time>
      </trkpt>
      <trkpt lat="45.38646" lon="5.79723">
        <ele>1414.72</ele>
        <time>2026-07-19T10:43:04Z</time>
      </trkpt>
      <trkpt lat="45.3864" lon="5.79739">
        <ele>1417.12</ele>
        <time>2026-07-19T10:43:22Z</time>
      </trkpt>
      <trkpt lat="45.3864" lon="5.79758">
        <ele>1420</ele>
        <time>2026-07-19T10:43:38Z</time>
      </trkpt>
      <trkpt lat="45.38642" lon="5.7977">
        <ele>1422.41</ele>
        <time>2026-07-19T10:43:54Z</time>
      </trkpt>
      <trkpt lat="45.38642" lon="5.79779">
        <ele>1423.85</ele>
        <time>2026-07-19T10:44:08Z</time>
      </trkpt>
      <trkpt lat="45.38646" lon="5.79782">
        <ele>1423.85</ele>
        <time>2026-07-19T10:44:20Z</time>
      </trkpt>
      <trkpt lat="45.38642" lon="5.79784">
        <ele>1424.33</ele>
        <time>2026-07-19T10:44:37Z</time>
      </trkpt>
      <trkpt lat="45.38642" lon="5.79789">
        <ele>1424.81</ele>
        <time>2026-07-19T10:44:51Z</time>
      </trkpt>
      <trkpt lat="45.38642" lon="5.79796">
        <ele>1425.77</ele>
        <time>2026-07-19T10:45:02Z</time>
      </trkpt>
      <trkpt lat="45.3864" lon="5.79806">
        <ele>1426.25</ele>
        <time>2026-07-19T10:45:20Z</time>
      </trkpt>
      <trkpt lat="45.38641" lon="5.79804">
        <ele>1426.25</ele>
        <time>2026-07-19T10:45:33Z</time>
      </trkpt>
      <trkpt lat="45.38631" lon="5.79797">
        <ele>1425.77</ele>
        <time>2026-07-19T10:45:50Z</time>
      </trkpt>
      <trkpt lat="45.3863" lon="5.79798">
        <ele>1425.77</ele>
        <time>2026-07-19T10:45:51Z</time>
      </trkpt>
      <trkpt lat="45.38623" lon="5.79797">
        <ele>1425.77</ele>
        <time>2026-07-19T10:45:58Z</time>
      </trkpt>
      <trkpt lat="45.3861" lon="5.79799">
        <ele>1425.29</ele>
        <time>2026-07-19T10:46:11Z</time>
      </trkpt>
      <trkpt lat="45.38601" lon="5.79807">
        <ele>1424.33</ele>
        <time>2026-07-19T10:46:23Z</time>
      </trkpt>
      <trkpt lat="45.38595" lon="5.7981">
        <ele>1424.33</ele>
        <time>2026-07-19T10:46:31Z</time>
      </trkpt>
      <trkpt lat="45.38586" lon="5.79819">
        <ele>1424.33</ele>
        <time>2026-07-19T10:46:43Z</time>
      </trkpt>
      <trkpt lat="45.38585" lon="5.7982">
        <ele>1423.85</ele>
        <time>2026-07-19T10:46:45Z</time>
      </trkpt>
      <trkpt lat="45.38571" lon="5.79824">
        <ele>1423.37</ele>
        <time>2026-07-19T10:47:00Z</time>
      </trkpt>
      <trkpt lat="45.38561" lon="5.79832">
        <ele>1423.37</ele>
        <time>2026-07-19T10:47:14Z</time>
      </trkpt>
      <trkpt lat="45.38557" lon="5.79831">
        <ele>1422.89</ele>
        <time>2026-07-19T10:47:28Z</time>
      </trkpt>
      <trkpt lat="45.38548" lon="5.79836">
        <ele>1422.41</ele>
        <time>2026-07-19T10:47:41Z</time>
      </trkpt>
      <trkpt lat="45.38543" lon="5.7983">
        <ele>1420.49</ele>
        <time>2026-07-19T10:47:56Z</time>
      </trkpt>
      <trkpt lat="45.38544" lon="5.79829">
        <ele>1420.49</ele>
        <time>2026-07-19T10:48:19Z</time>
      </trkpt>
      <trkpt lat="45.38544" lon="5.79829">
        <ele>1419.52</ele>
        <time>2026-07-19T10:48:32Z</time>
      </trkpt>
      <trkpt lat="45.38544" lon="5.79829">
        <ele>1419.52</ele>
        <time>2026-07-19T10:49:04Z</time>
      </trkpt>
      <trkpt lat="45.38544" lon="5.79829">
        <ele>1419.52</ele>
        <time>2026-07-19T10:49:37Z</time>
      </trkpt>
      <trkpt lat="45.38544" lon="5.79829">
        <ele>1419.52</ele>
        <time>2026-07-19T10:50:15Z</time>
      </trkpt>
      <trkpt lat="45.38544" lon="5.79829">
        <ele>1419.52</ele>
        <time>2026-07-19T10:50:46Z</time>
      </trkpt>
      <trkpt lat="45.38544" lon="5.79829">
        <ele>1419.52</ele>
        <time>2026-07-19T10:51:14Z</time>
      </trkpt>
      <trkpt lat="45.38544" lon="5.79829">
        <ele>1419.52</ele>
        <time>2026-07-19T10:51:43Z</time>
      </trkpt>
      <trkpt lat="45.38544" lon="5.79829">
        <ele>1419.52</ele>
        <time>2026-07-19T10:52:15Z</time>
      </trkpt>
      <trkpt lat="45.38544" lon="5.79829">
        <ele>1419.52</ele>
        <time>2026-07-19T10:52:42Z</time>
      </trkpt>
      <trkpt lat="45.38544" lon="5.79829">
        <ele>1420</ele>
        <time>2026-07-19T10:53:12Z</time>
      </trkpt>
      <trkpt lat="45.38544" lon="5.79829">
        <ele>1419.52</ele>
        <time>2026-07-19T10:53:48Z</time>
      </trkpt>
      <trkpt lat="45.38544" lon="5.79828">
        <ele>1420</ele>
        <time>2026-07-19T10:54:23Z</time>
      </trkpt>
      <trkpt lat="45.38544" lon="5.79829">
        <ele>1419.52</ele>
        <time>2026-07-19T10:54:54Z</time>
      </trkpt>
      <trkpt lat="45.38544" lon="5.79829">
        <ele>1419.52</ele>
        <time>2026-07-19T10:55:28Z</time>
      </trkpt>
      <trkpt lat="45.38544" lon="5.79828">
        <ele>1419.52</ele>
        <time>2026-07-19T10:56:09Z</time>
      </trkpt>
      <trkpt lat="45.38544" lon="5.79829">
        <ele>1419.04</ele>
        <time>2026-07-19T10:56:42Z</time>
      </trkpt>
      <trkpt lat="45.38544" lon="5.79828">
        <ele>1419.04</ele>
        <time>2026-07-19T10:57:16Z</time>
      </trkpt>
      <trkpt lat="45.38544" lon="5.79828">
        <ele>1419.04</ele>
        <time>2026-07-19T10:57:49Z</time>
      </trkpt>
      <trkpt lat="45.38544" lon="5.79829">
        <ele>1419.04</ele>
        <time>2026-07-19T10:58:27Z</time>
      </trkpt>
      <trkpt lat="45.38544" lon="5.79829">
        <ele>1419.52</ele>
        <time>2026-07-19T10:59:09Z</time>
      </trkpt>
      <trkpt lat="45.38544" lon="5.79828">
        <ele>1419.52</ele>
        <time>2026-07-19T10:59:51Z</time>
      </trkpt>
      <trkpt lat="45.38543" lon="5.79828">
        <ele>1420</ele>
        <time>2026-07-19T11:00:30Z</time>
      </trkpt>
      <trkpt lat="45.38544" lon="5.79829">
        <ele>1419.52</ele>
        <time>2026-07-19T11:01:09Z</time>
      </trkpt>
      <trkpt lat="45.38544" lon="5.79829">
        <ele>1420</ele>
        <time>2026-07-19T11:01:55Z</time>
      </trkpt>
      <trkpt lat="45.38544" lon="5.79829">
        <ele>1419.04</ele>
        <time>2026-07-19T11:02:31Z</time>
      </trkpt>
      <trkpt lat="45.38544" lon="5.79829">
        <ele>1419.52</ele>
        <time>2026-07-19T11:03:11Z</time>
      </trkpt>
      <trkpt lat="45.38544" lon="5.79829">
        <ele>1419.52</ele>
        <time>2026-07-19T11:03:42Z</time>
      </trkpt>
      <trkpt lat="45.38544" lon="5.79829">
        <ele>1419.52</ele>
        <time>2026-07-19T11:04:23Z</time>
      </trkpt>
      <trkpt lat="45.38544" lon="5.79829">
        <ele>1420.49</ele>
        <time>2026-07-19T11:05:02Z</time>
      </trkpt>
      <trkpt lat="45.38544" lon="5.79829">
        <ele>1419.52</ele>
        <time>2026-07-19T11:05:42Z</time>
      </trkpt>
      <trkpt lat="45.38544" lon="5.79829">
        <ele>1419.04</ele>
        <time>2026-07-19T11:06:22Z</time>
      </trkpt>
      <trkpt lat="45.38544" lon="5.79829">
        <ele>1420.49</ele>
        <time>2026-07-19T11:07:01Z</time>
      </trkpt>
      <trkpt lat="45.38544" lon="5.79829">
        <ele>1419.04</ele>
        <time>2026-07-19T11:07:40Z</time>
      </trkpt>
      <trkpt lat="45.38544" lon="5.79829">
        <ele>1419.04</ele>
        <time>2026-07-19T11:08:18Z</time>
      </trkpt>
      <trkpt lat="45.38544" lon="5.79828">
        <ele>1418.56</ele>
        <time>2026-07-19T11:08:57Z</time>
      </trkpt>
      <trkpt lat="45.38544" lon="5.79829">
        <ele>1419.04</ele>
        <time>2026-07-19T11:09:37Z</time>
      </trkpt>
      <trkpt lat="45.38544" lon="5.79829">
        <ele>1419.04</ele>
        <time>2026-07-19T11:10:13Z</time>
      </trkpt>
      <trkpt lat="45.38544" lon="5.79828">
        <ele>1418.56</ele>
        <time>2026-07-19T11:10:51Z</time>
      </trkpt>
      <trkpt lat="45.38544" lon="5.79829">
        <ele>1418.56</ele>
        <time>2026-07-19T11:11:26Z</time>
      </trkpt>
      <trkpt lat="45.38544" lon="5.79828">
        <ele>1418.56</ele>
        <time>2026-07-19T11:12:01Z</time>
      </trkpt>
      <trkpt lat="45.38543" lon="5.79828">
        <ele>1418.56</ele>
        <time>2026-07-19T11:12:36Z</time>
      </trkpt>
      <trkpt lat="45.38543" lon="5.79829">
        <ele>1418.56</ele>
        <time>2026-07-19T11:13:15Z</time>
      </trkpt>
      <trkpt lat="45.38544" lon="5.79829">
        <ele>1418.56</ele>
        <time>2026-07-19T11:13:52Z</time>
      </trkpt>
      <trkpt lat="45.38544" lon="5.7983">
        <ele>1418.56</ele>
        <time>2026-07-19T11:14:26Z</time>
      </trkpt>
      <trkpt lat="45.38544" lon="5.79828">
        <ele>1418.56</ele>
        <time>2026-07-19T11:15:05Z</time>
      </trkpt>
      <trkpt lat="45.38544" lon="5.79829">
        <ele>1418.56</ele>
        <time>2026-07-19T11:15:40Z</time>
      </trkpt>
      <trkpt lat="45.38544" lon="5.79829">
        <ele>1418.56</ele>
        <time>2026-07-19T11:16:17Z</time>
      </trkpt>
      <trkpt lat="45.38544" lon="5.79829">
        <ele>1419.04</ele>
        <time>2026-07-19T11:16:53Z</time>
      </trkpt>
      <trkpt lat="45.38544" lon="5.7983">
        <ele>1419.52</ele>
        <time>2026-07-19T11:17:24Z</time>
      </trkpt>
      <trkpt lat="45.38544" lon="5.7983">
        <ele>1418.56</ele>
        <time>2026-07-19T11:17:55Z</time>
      </trkpt>
      <trkpt lat="45.38544" lon="5.7983">
        <ele>1418.08</ele>
        <time>2026-07-19T11:18:27Z</time>
      </trkpt>
      <trkpt lat="45.38544" lon="5.7983">
        <ele>1418.08</ele>
        <time>2026-07-19T11:18:56Z</time>
      </trkpt>
      <trkpt lat="45.38544" lon="5.79829">
        <ele>1418.56</ele>
        <time>2026-07-19T11:19:29Z</time>
      </trkpt>
      <trkpt lat="45.38544" lon="5.79829">
        <ele>1418.56</ele>
        <time>2026-07-19T11:20:01Z</time>
      </trkpt>
      <trkpt lat="45.38544" lon="5.79829">
        <ele>1419.04</ele>
        <time>2026-07-19T11:20:34Z</time>
      </trkpt>
      <trkpt lat="45.38544" lon="5.79829">
        <ele>1419.04</ele>
        <time>2026-07-19T11:21:03Z</time>
      </trkpt>
      <trkpt lat="45.38544" lon="5.79829">
        <ele>1419.04</ele>
        <time>2026-07-19T11:21:30Z</time>
      </trkpt>
      <trkpt lat="45.38544" lon="5.79828">
        <ele>1419.52</ele>
        <time>2026-07-19T11:21:57Z</time>
      </trkpt>
      <trkpt lat="45.38543" lon="5.79831">
        <ele>1419.52</ele>
        <time>2026-07-19T11:22:10Z</time>
      </trkpt>
      <trkpt lat="45.38543" lon="5.7983">
        <ele>1415.68</ele>
        <time>2026-07-19T11:22:13Z</time>
      </trkpt>
      <trkpt lat="45.38543" lon="5.7983">
        <ele>1420</ele>
        <time>2026-07-19T11:22:14Z</time>
      </trkpt>
      <trkpt lat="45.38543" lon="5.79831">
        <ele>1415.68</ele>
        <time>2026-07-19T11:22:19Z</time>
      </trkpt>
      <trkpt lat="45.38543" lon="5.79831">
        <ele>1422.41</ele>
        <time>2026-07-19T11:22:20Z</time>
      </trkpt>
      <trkpt lat="45.38542" lon="5.79831">
        <ele>1417.6</ele>
        <time>2026-07-19T11:22:21Z</time>
      </trkpt>
      <trkpt lat="45.38542" lon="5.79831">
        <ele>1421.93</ele>
        <time>2026-07-19T11:22:22Z</time>
      </trkpt>
      <trkpt lat="45.38543" lon="5.79831">
        <ele>1417.6</ele>
        <time>2026-07-19T11:22:25Z</time>
      </trkpt>
      <trkpt lat="45.38543" lon="5.79831">
        <ele>1420.97</ele>
        <time>2026-07-19T11:22:26Z</time>
      </trkpt>
      <trkpt lat="45.38543" lon="5.79831">
        <ele>1419.52</ele>
        <time>2026-07-19T11:22:29Z</time>
      </trkpt>
      <trkpt lat="45.38543" lon="5.79829">
        <ele>1419.52</ele>
        <time>2026-07-19T11:23:00Z</time>
      </trkpt>
      <trkpt lat="45.38543" lon="5.79831">
        <ele>1420</ele>
        <time>2026-07-19T11:23:14Z</time>
      </trkpt>
      <trkpt lat="45.38546" lon="5.79836">
        <ele>1420.49</ele>
        <time>2026-07-19T11:23:27Z</time>
      </trkpt>
      <trkpt lat="45.38546" lon="5.79836">
        <ele>1420</ele>
        <time>2026-07-19T11:23:28Z</time>
      </trkpt>
      <trkpt lat="45.38557" lon="5.79833">
        <ele>1421.93</ele>
        <time>2026-07-19T11:23:41Z</time>
      </trkpt>
      <trkpt lat="45.38562" lon="5.79833">
        <ele>1421.45</ele>
        <time>2026-07-19T11:23:46Z</time>
      </trkpt>
      <trkpt lat="45.38567" lon="5.79831">
        <ele>1421.45</ele>
        <time>2026-07-19T11:23:51Z</time>
      </trkpt>
      <trkpt lat="45.38574" lon="5.79829">
        <ele>1421.93</ele>
        <time>2026-07-19T11:23:58Z</time>
      </trkpt>
      <trkpt lat="45.38579" lon="5.79829">
        <ele>1421.45</ele>
        <time>2026-07-19T11:24:02Z</time>
      </trkpt>
      <trkpt lat="45.38583" lon="5.79827">
        <ele>1421.93</ele>
        <time>2026-07-19T11:24:06Z</time>
      </trkpt>
      <trkpt lat="45.3859" lon="5.79823">
        <ele>1422.41</ele>
        <time>2026-07-19T11:24:13Z</time>
      </trkpt>
      <trkpt lat="45.38598" lon="5.79817">
        <ele>1422.41</ele>
        <time>2026-07-19T11:24:22Z</time>
      </trkpt>
      <trkpt lat="45.38609" lon="5.79811">
        <ele>1422.89</ele>
        <time>2026-07-19T11:24:36Z</time>
      </trkpt>
      <trkpt lat="45.38613" lon="5.7981">
        <ele>1422.89</ele>
        <time>2026-07-19T11:24:40Z</time>
      </trkpt>
      <trkpt lat="45.38619" lon="5.79807">
        <ele>1423.37</ele>
        <time>2026-07-19T11:24:47Z</time>
      </trkpt>
      <trkpt lat="45.3863" lon="5.79805">
        <ele>1423.85</ele>
        <time>2026-07-19T11:25:00Z</time>
      </trkpt>
      <trkpt lat="45.38637" lon="5.79804">
        <ele>1424.33</ele>
        <time>2026-07-19T11:25:13Z</time>
      </trkpt>
      <trkpt lat="45.38642" lon="5.79788">
        <ele>1422.89</ele>
        <time>2026-07-19T11:25:27Z</time>
      </trkpt>
      <trkpt lat="45.38646" lon="5.79788">
        <ele>1421.45</ele>
        <time>2026-07-19T11:25:41Z</time>
      </trkpt>
      <trkpt lat="45.38642" lon="5.79775">
        <ele>1420.49</ele>
        <time>2026-07-19T11:25:53Z</time>
      </trkpt>
      <trkpt lat="45.38644" lon="5.79769">
        <ele>1419.52</ele>
        <time>2026-07-19T11:26:05Z</time>
      </trkpt>
      <trkpt lat="45.38642" lon="5.79758">
        <ele>1417.6</ele>
        <time>2026-07-19T11:26:17Z</time>
      </trkpt>
      <trkpt lat="45.38646" lon="5.79742">
        <ele>1415.2</ele>
        <time>2026-07-19T11:26:32Z</time>
      </trkpt>
      <trkpt lat="45.38648" lon="5.79726">
        <ele>1412.31</ele>
        <time>2026-07-19T11:26:48Z</time>
      </trkpt>
      <trkpt lat="45.38659" lon="5.79719">
        <ele>1409.43</ele>
        <time>2026-07-19T11:27:05Z</time>
      </trkpt>
      <trkpt lat="45.38665" lon="5.79704">
        <ele>1408.47</ele>
        <time>2026-07-19T11:27:19Z</time>
      </trkpt>
      <trkpt lat="45.38676" lon="5.79696">
        <ele>1405.1</ele>
        <time>2026-07-19T11:27:33Z</time>
      </trkpt>
      <trkpt lat="45.38685" lon="5.79689">
        <ele>1403.66</ele>
        <time>2026-07-19T11:27:49Z</time>
      </trkpt>
      <trkpt lat="45.38684" lon="5.79683">
        <ele>1400.3</ele>
        <time>2026-07-19T11:27:53Z</time>
      </trkpt>
      <trkpt lat="45.38684" lon="5.79682">
        <ele>1404.62</ele>
        <time>2026-07-19T11:27:54Z</time>
      </trkpt>
      <trkpt lat="45.38685" lon="5.79677">
        <ele>1401.26</ele>
        <time>2026-07-19T11:27:57Z</time>
      </trkpt>
      <trkpt lat="45.38685" lon="5.79677">
        <ele>1405.1</ele>
        <time>2026-07-19T11:27:58Z</time>
      </trkpt>
      <trkpt lat="45.38698" lon="5.79665">
        <ele>1403.18</ele>
        <time>2026-07-19T11:28:16Z</time>
      </trkpt>
      <trkpt lat="45.38702" lon="5.79647">
        <ele>1403.18</ele>
        <time>2026-07-19T11:28:29Z</time>
      </trkpt>
      <trkpt lat="45.38707" lon="5.79624">
        <ele>1401.26</ele>
        <time>2026-07-19T11:28:43Z</time>
      </trkpt>
      <trkpt lat="45.38707" lon="5.79616">
        <ele>1398.37</ele>
        <time>2026-07-19T11:28:58Z</time>
      </trkpt>
      <trkpt lat="45.38714" lon="5.79602">
        <ele>1396.45</ele>
        <time>2026-07-19T11:29:15Z</time>
      </trkpt>
      <trkpt lat="45.38716" lon="5.7959">
        <ele>1395.01</ele>
        <time>2026-07-19T11:29:33Z</time>
      </trkpt>
      <trkpt lat="45.38721" lon="5.79582">
        <ele>1392.61</ele>
        <time>2026-07-19T11:29:50Z</time>
      </trkpt>
      <trkpt lat="45.38723" lon="5.79582">
        <ele>1392.61</ele>
        <time>2026-07-19T11:30:09Z</time>
      </trkpt>
      <trkpt lat="45.38724" lon="5.79584">
        <ele>1391.65</ele>
        <time>2026-07-19T11:30:31Z</time>
      </trkpt>
      <trkpt lat="45.38733" lon="5.7958">
        <ele>1389.72</ele>
        <time>2026-07-19T11:30:49Z</time>
      </trkpt>
      <trkpt lat="45.38742" lon="5.79577">
        <ele>1387.8</ele>
        <time>2026-07-19T11:31:06Z</time>
      </trkpt>
      <trkpt lat="45.38757" lon="5.79582">
        <ele>1384.92</ele>
        <time>2026-07-19T11:31:23Z</time>
      </trkpt>
      <trkpt lat="45.38766" lon="5.79584">
        <ele>1381.55</ele>
        <time>2026-07-19T11:31:37Z</time>
      </trkpt>
      <trkpt lat="45.38782" lon="5.79581">
        <ele>1379.15</ele>
        <time>2026-07-19T11:31:53Z</time>
      </trkpt>
      <trkpt lat="45.38791" lon="5.79583">
        <ele>1377.23</ele>
        <time>2026-07-19T11:32:02Z</time>
      </trkpt>
      <trkpt lat="45.38808" lon="5.79584">
        <ele>1374.34</ele>
        <time>2026-07-19T11:32:21Z</time>
      </trkpt>
      <trkpt lat="45.38818" lon="5.79588">
        <ele>1371.46</ele>
        <time>2026-07-19T11:32:37Z</time>
      </trkpt>
      <trkpt lat="45.38828" lon="5.79591">
        <ele>1369.05</ele>
        <time>2026-07-19T11:32:55Z</time>
      </trkpt>
      <trkpt lat="45.38841" lon="5.796">
        <ele>1366.65</ele>
        <time>2026-07-19T11:33:11Z</time>
      </trkpt>
      <trkpt lat="45.38849" lon="5.79607">
        <ele>1364.25</ele>
        <time>2026-07-19T11:33:24Z</time>
      </trkpt>
      <trkpt lat="45.38859" lon="5.79616">
        <ele>1362.81</ele>
        <time>2026-07-19T11:33:39Z</time>
      </trkpt>
      <trkpt lat="45.38864" lon="5.79619">
        <ele>1361.84</ele>
        <time>2026-07-19T11:33:57Z</time>
      </trkpt>
      <trkpt lat="45.38873" lon="5.7963">
        <ele>1361.84</ele>
        <time>2026-07-19T11:34:11Z</time>
      </trkpt>
      <trkpt lat="45.38876" lon="5.79632">
        <ele>1361.84</ele>
        <time>2026-07-19T11:34:14Z</time>
      </trkpt>
      <trkpt lat="45.38893" lon="5.79644">
        <ele>1362.33</ele>
        <time>2026-07-19T11:34:32Z</time>
      </trkpt>
      <trkpt lat="45.38897" lon="5.79645">
        <ele>1361.84</ele>
        <time>2026-07-19T11:34:35Z</time>
      </trkpt>
      <trkpt lat="45.38913" lon="5.79656">
        <ele>1361.36</ele>
        <time>2026-07-19T11:34:52Z</time>
      </trkpt>
      <trkpt lat="45.38931" lon="5.79656">
        <ele>1359.92</ele>
        <time>2026-07-19T11:35:08Z</time>
      </trkpt>
      <trkpt lat="45.38938" lon="5.7966">
        <ele>1358</ele>
        <time>2026-07-19T11:35:22Z</time>
      </trkpt>
      <trkpt lat="45.38947" lon="5.79673">
        <ele>1356.08</ele>
        <time>2026-07-19T11:35:38Z</time>
      </trkpt>
      <trkpt lat="45.3896" lon="5.79673">
        <ele>1354.15</ele>
        <time>2026-07-19T11:35:55Z</time>
      </trkpt>
      <trkpt lat="45.38966" lon="5.7967">
        <ele>1351.27</ele>
        <time>2026-07-19T11:36:15Z</time>
      </trkpt>
      <trkpt lat="45.38977" lon="5.79671">
        <ele>1348.39</ele>
        <time>2026-07-19T11:36:34Z</time>
      </trkpt>
      <trkpt lat="45.38986" lon="5.79676">
        <ele>1346.94</ele>
        <time>2026-07-19T11:36:45Z</time>
      </trkpt>
      <trkpt lat="45.38998" lon="5.79676">
        <ele>1345.5</ele>
        <time>2026-07-19T11:36:58Z</time>
      </trkpt>
      <trkpt lat="45.39008" lon="5.79674">
        <ele>1344.06</ele>
        <time>2026-07-19T11:37:12Z</time>
      </trkpt>
      <trkpt lat="45.39018" lon="5.79685">
        <ele>1341.66</ele>
        <time>2026-07-19T11:37:29Z</time>
      </trkpt>
      <trkpt lat="45.39028" lon="5.79691">
        <ele>1338.77</ele>
        <time>2026-07-19T11:37:47Z</time>
      </trkpt>
      <trkpt lat="45.39034" lon="5.79694">
        <ele>1336.37</ele>
        <time>2026-07-19T11:38:02Z</time>
      </trkpt>
      <trkpt lat="45.39042" lon="5.797">
        <ele>1333.97</ele>
        <time>2026-07-19T11:38:18Z</time>
      </trkpt>
      <trkpt lat="45.39047" lon="5.79706">
        <ele>1332.52</ele>
        <time>2026-07-19T11:38:31Z</time>
      </trkpt>
      <trkpt lat="45.39054" lon="5.79714">
        <ele>1329.64</ele>
        <time>2026-07-19T11:38:47Z</time>
      </trkpt>
      <trkpt lat="45.39062" lon="5.79722">
        <ele>1327.24</ele>
        <time>2026-07-19T11:39:05Z</time>
      </trkpt>
      <trkpt lat="45.39072" lon="5.79732">
        <ele>1324.35</ele>
        <time>2026-07-19T11:39:21Z</time>
      </trkpt>
      <trkpt lat="45.39073" lon="5.79734">
        <ele>1322.43</ele>
        <time>2026-07-19T11:39:37Z</time>
      </trkpt>
      <trkpt lat="45.39081" lon="5.79737">
        <ele>1320.99</ele>
        <time>2026-07-19T11:39:55Z</time>
      </trkpt>
      <trkpt lat="45.39085" lon="5.79742">
        <ele>1319.07</ele>
        <time>2026-07-19T11:40:09Z</time>
      </trkpt>
      <trkpt lat="45.39094" lon="5.7975">
        <ele>1316.66</ele>
        <time>2026-07-19T11:40:24Z</time>
      </trkpt>
      <trkpt lat="45.39113" lon="5.79755">
        <ele>1314.26</ele>
        <time>2026-07-19T11:40:44Z</time>
      </trkpt>
      <trkpt lat="45.39126" lon="5.79756">
        <ele>1311.86</ele>
        <time>2026-07-19T11:40:58Z</time>
      </trkpt>
      <trkpt lat="45.39131" lon="5.79758">
        <ele>1310.9</ele>
        <time>2026-07-19T11:41:06Z</time>
      </trkpt>
      <trkpt lat="45.39143" lon="5.7976">
        <ele>1308.49</ele>
        <time>2026-07-19T11:41:23Z</time>
      </trkpt>
      <trkpt lat="45.39152" lon="5.79765">
        <ele>1307.05</ele>
        <time>2026-07-19T11:41:36Z</time>
      </trkpt>
      <trkpt lat="45.39163" lon="5.79767">
        <ele>1306.09</ele>
        <time>2026-07-19T11:41:48Z</time>
      </trkpt>
      <trkpt lat="45.39166" lon="5.79767">
        <ele>1305.61</ele>
        <time>2026-07-19T11:41:52Z</time>
      </trkpt>
      <trkpt lat="45.3918" lon="5.79767">
        <ele>1304.17</ele>
        <time>2026-07-19T11:42:07Z</time>
      </trkpt>
      <trkpt lat="45.39188" lon="5.79769">
        <ele>1303.2</ele>
        <time>2026-07-19T11:42:19Z</time>
      </trkpt>
      <trkpt lat="45.39205" lon="5.79777">
        <ele>1301.76</ele>
        <time>2026-07-19T11:42:36Z</time>
      </trkpt>
      <trkpt lat="45.39207" lon="5.79779">
        <ele>1301.28</ele>
        <time>2026-07-19T11:42:39Z</time>
      </trkpt>
      <trkpt lat="45.39218" lon="5.79782">
        <ele>1299.84</ele>
        <time>2026-07-19T11:42:54Z</time>
      </trkpt>
      <trkpt lat="45.39231" lon="5.79781">
        <ele>1297.44</ele>
        <time>2026-07-19T11:43:12Z</time>
      </trkpt>
      <trkpt lat="45.39247" lon="5.79785">
        <ele>1294.55</ele>
        <time>2026-07-19T11:43:27Z</time>
      </trkpt>
      <trkpt lat="45.39253" lon="5.79787">
        <ele>1292.63</ele>
        <time>2026-07-19T11:43:37Z</time>
      </trkpt>
      <trkpt lat="45.39262" lon="5.79791">
        <ele>1290.23</ele>
        <time>2026-07-19T11:43:51Z</time>
      </trkpt>
      <trkpt lat="45.39272" lon="5.79795">
        <ele>1287.82</ele>
        <time>2026-07-19T11:44:05Z</time>
      </trkpt>
      <trkpt lat="45.39275" lon="5.79795">
        <ele>1285.42</ele>
        <time>2026-07-19T11:44:20Z</time>
      </trkpt>
      <trkpt lat="45.39284" lon="5.79793">
        <ele>1283.02</ele>
        <time>2026-07-19T11:44:35Z</time>
      </trkpt>
      <trkpt lat="45.39296" lon="5.7978">
        <ele>1281.09</ele>
        <time>2026-07-19T11:44:49Z</time>
      </trkpt>
      <trkpt lat="45.39306" lon="5.79781">
        <ele>1279.17</ele>
        <time>2026-07-19T11:45:04Z</time>
      </trkpt>
      <trkpt lat="45.39313" lon="5.79785">
        <ele>1277.25</ele>
        <time>2026-07-19T11:45:19Z</time>
      </trkpt>
      <trkpt lat="45.39324" lon="5.79785">
        <ele>1274.85</ele>
        <time>2026-07-19T11:45:35Z</time>
      </trkpt>
      <trkpt lat="45.39334" lon="5.79778">
        <ele>1272.92</ele>
        <time>2026-07-19T11:45:49Z</time>
      </trkpt>
      <trkpt lat="45.39343" lon="5.79774">
        <ele>1270.52</ele>
        <time>2026-07-19T11:46:05Z</time>
      </trkpt>
      <trkpt lat="45.39358" lon="5.79772">
        <ele>1268.12</ele>
        <time>2026-07-19T11:46:20Z</time>
      </trkpt>
      <trkpt lat="45.39369" lon="5.79767">
        <ele>1266.19</ele>
        <time>2026-07-19T11:46:34Z</time>
      </trkpt>
      <trkpt lat="45.39378" lon="5.79757">
        <ele>1263.79</ele>
        <time>2026-07-19T11:46:50Z</time>
      </trkpt>
      <trkpt lat="45.39383" lon="5.79754">
        <ele>1260.91</ele>
        <time>2026-07-19T11:47:07Z</time>
      </trkpt>
      <trkpt lat="45.39392" lon="5.79756">
        <ele>1259.46</ele>
        <time>2026-07-19T11:47:22Z</time>
      </trkpt>
      <trkpt lat="45.394" lon="5.79752">
        <ele>1257.54</ele>
        <time>2026-07-19T11:47:34Z</time>
      </trkpt>
      <trkpt lat="45.39408" lon="5.79756">
        <ele>1256.1</ele>
        <time>2026-07-19T11:47:46Z</time>
      </trkpt>
      <trkpt lat="45.39425" lon="5.79745">
        <ele>1253.22</ele>
        <time>2026-07-19T11:48:04Z</time>
      </trkpt>
      <trkpt lat="45.39432" lon="5.79739">
        <ele>1251.29</ele>
        <time>2026-07-19T11:48:16Z</time>
      </trkpt>
      <trkpt lat="45.39434" lon="5.79739">
        <ele>1250.33</ele>
        <time>2026-07-19T11:48:23Z</time>
      </trkpt>
      <trkpt lat="45.39443" lon="5.79736">
        <ele>1247.93</ele>
        <time>2026-07-19T11:48:40Z</time>
      </trkpt>
      <trkpt lat="45.3945" lon="5.79739">
        <ele>1244.56</ele>
        <time>2026-07-19T11:48:56Z</time>
      </trkpt>
      <trkpt lat="45.3947" lon="5.79731">
        <ele>1242.16</ele>
        <time>2026-07-19T11:49:11Z</time>
      </trkpt>
      <trkpt lat="45.39474" lon="5.79734">
        <ele>1239.28</ele>
        <time>2026-07-19T11:49:23Z</time>
      </trkpt>
      <trkpt lat="45.39475" lon="5.7974">
        <ele>1237.35</ele>
        <time>2026-07-19T11:49:39Z</time>
      </trkpt>
      <trkpt lat="45.39479" lon="5.7974">
        <ele>1233.99</ele>
        <time>2026-07-19T11:49:54Z</time>
      </trkpt>
      <trkpt lat="45.39497" lon="5.79729">
        <ele>1232.55</ele>
        <time>2026-07-19T11:50:09Z</time>
      </trkpt>
      <trkpt lat="45.39509" lon="5.79729">
        <ele>1230.14</ele>
        <time>2026-07-19T11:50:24Z</time>
      </trkpt>
      <trkpt lat="45.39527" lon="5.79726">
        <ele>1228.7</ele>
        <time>2026-07-19T11:50:37Z</time>
      </trkpt>
      <trkpt lat="45.3954" lon="5.79729">
        <ele>1225.82</ele>
        <time>2026-07-19T11:50:52Z</time>
      </trkpt>
      <trkpt lat="45.39544" lon="5.79741">
        <ele>1222.93</ele>
        <time>2026-07-19T11:51:07Z</time>
      </trkpt>
      <trkpt lat="45.39549" lon="5.79743">
        <ele>1220.05</ele>
        <time>2026-07-19T11:51:24Z</time>
      </trkpt>
      <trkpt lat="45.39555" lon="5.79742">
        <ele>1217.65</ele>
        <time>2026-07-19T11:51:42Z</time>
      </trkpt>
      <trkpt lat="45.39568" lon="5.79752">
        <ele>1215.24</ele>
        <time>2026-07-19T11:52:00Z</time>
      </trkpt>
      <trkpt lat="45.39586" lon="5.7974">
        <ele>1212.84</ele>
        <time>2026-07-19T11:52:15Z</time>
      </trkpt>
      <trkpt lat="45.39603" lon="5.79739">
        <ele>1210.44</ele>
        <time>2026-07-19T11:52:29Z</time>
      </trkpt>
      <trkpt lat="45.39609" lon="5.79749">
        <ele>1208.51</ele>
        <time>2026-07-19T11:52:46Z</time>
      </trkpt>
      <trkpt lat="45.39625" lon="5.79747">
        <ele>1205.63</ele>
        <time>2026-07-19T11:53:02Z</time>
      </trkpt>
      <trkpt lat="45.39633" lon="5.79753">
        <ele>1202.75</ele>
        <time>2026-07-19T11:53:18Z</time>
      </trkpt>
      <trkpt lat="45.39635" lon="5.79763">
        <ele>1200.34</ele>
        <time>2026-07-19T11:53:30Z</time>
      </trkpt>
      <trkpt lat="45.39634" lon="5.79767">
        <ele>1199.86</ele>
        <time>2026-07-19T11:53:35Z</time>
      </trkpt>
      <trkpt lat="45.39634" lon="5.79771">
        <ele>1199.38</ele>
        <time>2026-07-19T11:53:45Z</time>
      </trkpt>
      <trkpt lat="45.39636" lon="5.79767">
        <ele>1199.38</ele>
        <time>2026-07-19T11:53:59Z</time>
      </trkpt>
      <trkpt lat="45.39637" lon="5.79765">
        <ele>1198.9</ele>
        <time>2026-07-19T11:54:30Z</time>
      </trkpt>
      <trkpt lat="45.39637" lon="5.79766">
        <ele>1198.9</ele>
        <time>2026-07-19T11:54:48Z</time>
      </trkpt>
      <trkpt lat="45.39639" lon="5.7977">
        <ele>1198.9</ele>
        <time>2026-07-19T11:55:05Z</time>
      </trkpt>
      <trkpt lat="45.39646" lon="5.79782">
        <ele>1197.94</ele>
        <time>2026-07-19T11:55:19Z</time>
      </trkpt>
      <trkpt lat="45.39657" lon="5.79791">
        <ele>1197.46</ele>
        <time>2026-07-19T11:55:32Z</time>
      </trkpt>
      <trkpt lat="45.39673" lon="5.79795">
        <ele>1196.02</ele>
        <time>2026-07-19T11:55:48Z</time>
      </trkpt>
      <trkpt lat="45.3969" lon="5.79794">
        <ele>1195.54</ele>
        <time>2026-07-19T11:56:01Z</time>
      </trkpt>
      <trkpt lat="45.39715" lon="5.79786">
        <ele>1193.13</ele>
        <time>2026-07-19T11:56:18Z</time>
      </trkpt>
      <trkpt lat="45.39736" lon="5.79786">
        <ele>1190.25</ele>
        <time>2026-07-19T11:56:37Z</time>
      </trkpt>
      <trkpt lat="45.39753" lon="5.79785">
        <ele>1188.33</ele>
        <time>2026-07-19T11:56:54Z</time>
      </trkpt>
      <trkpt lat="45.39761" lon="5.79799">
        <ele>1185.92</ele>
        <time>2026-07-19T11:57:12Z</time>
      </trkpt>
      <trkpt lat="45.39781" lon="5.79797">
        <ele>1184</ele>
        <time>2026-07-19T11:57:29Z</time>
      </trkpt>
      <trkpt lat="45.39803" lon="5.79797">
        <ele>1182.08</ele>
        <time>2026-07-19T11:57:47Z</time>
      </trkpt>
      <trkpt lat="45.39817" lon="5.79799">
        <ele>1179.67</ele>
        <time>2026-07-19T11:58:02Z</time>
      </trkpt>
      <trkpt lat="45.39832" lon="5.79803">
        <ele>1177.27</ele>
        <time>2026-07-19T11:58:16Z</time>
      </trkpt>
      <trkpt lat="45.39848" lon="5.79802">
        <ele>1175.35</ele>
        <time>2026-07-19T11:58:31Z</time>
      </trkpt>
      <trkpt lat="45.39851" lon="5.79803">
        <ele>1174.87</ele>
        <time>2026-07-19T11:58:36Z</time>
      </trkpt>
      <trkpt lat="45.39863" lon="5.79805">
        <ele>1172.47</ele>
        <time>2026-07-19T11:58:50Z</time>
      </trkpt>
      <trkpt lat="45.3988" lon="5.79801">
        <ele>1171.02</ele>
        <time>2026-07-19T11:59:03Z</time>
      </trkpt>
      <trkpt lat="45.39895" lon="5.79801">
        <ele>1169.1</ele>
        <time>2026-07-19T11:59:18Z</time>
      </trkpt>
      <trkpt lat="45.39901" lon="5.79808">
        <ele>1167.18</ele>
        <time>2026-07-19T11:59:32Z</time>
      </trkpt>
      <trkpt lat="45.39903" lon="5.79809">
        <ele>1165.74</ele>
        <time>2026-07-19T11:59:46Z</time>
      </trkpt>
      <trkpt lat="45.39908" lon="5.7981">
        <ele>1164.77</ele>
        <time>2026-07-19T11:59:54Z</time>
      </trkpt>
      <trkpt lat="45.39925" lon="5.79822">
        <ele>1162.85</ele>
        <time>2026-07-19T12:00:09Z</time>
      </trkpt>
      <trkpt lat="45.39941" lon="5.79829">
        <ele>1160.93</ele>
        <time>2026-07-19T12:00:28Z</time>
      </trkpt>
      <trkpt lat="45.39958" lon="5.79837">
        <ele>1159.49</ele>
        <time>2026-07-19T12:00:43Z</time>
      </trkpt>
      <trkpt lat="45.39981" lon="5.79845">
        <ele>1158.05</ele>
        <time>2026-07-19T12:01:02Z</time>
      </trkpt>
      <trkpt lat="45.39991" lon="5.79846">
        <ele>1157.56</ele>
        <time>2026-07-19T12:01:15Z</time>
      </trkpt>
      <trkpt lat="45.40007" lon="5.79856">
        <ele>1157.08</ele>
        <time>2026-07-19T12:01:30Z</time>
      </trkpt>
      <trkpt lat="45.40022" lon="5.79854">
        <ele>1156.12</ele>
        <time>2026-07-19T12:01:47Z</time>
      </trkpt>
      <trkpt lat="45.40037" lon="5.7986">
        <ele>1156.12</ele>
        <time>2026-07-19T12:02:01Z</time>
      </trkpt>
      <trkpt lat="45.40058" lon="5.79867">
        <ele>1156.6</ele>
        <time>2026-07-19T12:02:17Z</time>
      </trkpt>
      <trkpt lat="45.40075" lon="5.79877">
        <ele>1156.6</ele>
        <time>2026-07-19T12:02:34Z</time>
      </trkpt>
      <trkpt lat="45.40083" lon="5.79883">
        <ele>1156.12</ele>
        <time>2026-07-19T12:02:46Z</time>
      </trkpt>
      <trkpt lat="45.40088" lon="5.79888">
        <ele>1155.64</ele>
        <time>2026-07-19T12:02:52Z</time>
      </trkpt>
      <trkpt lat="45.40097" lon="5.79905">
        <ele>1155.16</ele>
        <time>2026-07-19T12:03:07Z</time>
      </trkpt>
      <trkpt lat="45.4011" lon="5.79916">
        <ele>1153.24</ele>
        <time>2026-07-19T12:03:21Z</time>
      </trkpt>
      <trkpt lat="45.40122" lon="5.79931">
        <ele>1150.84</ele>
        <time>2026-07-19T12:03:38Z</time>
      </trkpt>
      <trkpt lat="45.4013" lon="5.79951">
        <ele>1148.43</ele>
        <time>2026-07-19T12:03:55Z</time>
      </trkpt>
      <trkpt lat="45.40134" lon="5.79963">
        <ele>1145.55</ele>
        <time>2026-07-19T12:04:13Z</time>
      </trkpt>
      <trkpt lat="45.40143" lon="5.79975">
        <ele>1142.66</ele>
        <time>2026-07-19T12:04:31Z</time>
      </trkpt>
      <trkpt lat="45.40143" lon="5.79977">
        <ele>1142.18</ele>
        <time>2026-07-19T12:04:58Z</time>
      </trkpt>
      <trkpt lat="45.40156" lon="5.79982">
        <ele>1139.3</ele>
        <time>2026-07-19T12:05:16Z</time>
      </trkpt>
      <trkpt lat="45.40166" lon="5.79988">
        <ele>1138.82</ele>
        <time>2026-07-19T12:05:22Z</time>
      </trkpt>
      <trkpt lat="45.40171" lon="5.79987">
        <ele>1138.82</ele>
        <time>2026-07-19T12:05:26Z</time>
      </trkpt>
      <trkpt lat="45.40193" lon="5.7997">
        <ele>1139.3</ele>
        <time>2026-07-19T12:05:44Z</time>
      </trkpt>
      <trkpt lat="45.40203" lon="5.79981">
        <ele>1139.78</ele>
        <time>2026-07-19T12:05:57Z</time>
      </trkpt>
      <trkpt lat="45.40215" lon="5.79995">
        <ele>1140.26</ele>
        <time>2026-07-19T12:06:13Z</time>
      </trkpt>
      <trkpt lat="45.4023" lon="5.80007">
        <ele>1140.74</ele>
        <time>2026-07-19T12:06:29Z</time>
      </trkpt>
      <trkpt lat="45.40238" lon="5.80015">
        <ele>1140.26</ele>
        <time>2026-07-19T12:06:38Z</time>
      </trkpt>
      <trkpt lat="45.40257" lon="5.80028">
        <ele>1139.3</ele>
        <time>2026-07-19T12:06:56Z</time>
      </trkpt>
      <trkpt lat="45.4027" lon="5.80036">
        <ele>1137.38</ele>
        <time>2026-07-19T12:07:11Z</time>
      </trkpt>
      <trkpt lat="45.40272" lon="5.80038">
        <ele>1137.38</ele>
        <time>2026-07-19T12:07:13Z</time>
      </trkpt>
      <trkpt lat="45.40289" lon="5.80043">
        <ele>1134.97</ele>
        <time>2026-07-19T12:07:29Z</time>
      </trkpt>
      <trkpt lat="45.40306" lon="5.80051">
        <ele>1133.53</ele>
        <time>2026-07-19T12:07:48Z</time>
      </trkpt>
      <trkpt lat="45.40331" lon="5.80055">
        <ele>1131.61</ele>
        <time>2026-07-19T12:08:04Z</time>
      </trkpt>
      <trkpt lat="45.40352" lon="5.80049">
        <ele>1130.17</ele>
        <time>2026-07-19T12:08:19Z</time>
      </trkpt>
      <trkpt lat="45.40355" lon="5.80048">
        <ele>1129.21</ele>
        <time>2026-07-19T12:08:33Z</time>
      </trkpt>
      <trkpt lat="45.40355" lon="5.80049">
        <ele>1127.76</ele>
        <time>2026-07-19T12:08:49Z</time>
      </trkpt>
      <trkpt lat="45.40361" lon="5.80049">
        <ele>1126.32</ele>
        <time>2026-07-19T12:09:07Z</time>
      </trkpt>
      <trkpt lat="45.40377" lon="5.80044">
        <ele>1124.88</ele>
        <time>2026-07-19T12:09:22Z</time>
      </trkpt>
      <trkpt lat="45.40397" lon="5.80042">
        <ele>1123.92</ele>
        <time>2026-07-19T12:09:37Z</time>
      </trkpt>
      <trkpt lat="45.40404" lon="5.80042">
        <ele>1122.96</ele>
        <time>2026-07-19T12:09:53Z</time>
      </trkpt>
      <trkpt lat="45.4042" lon="5.80047">
        <ele>1122.48</ele>
        <time>2026-07-19T12:10:13Z</time>
      </trkpt>
      <trkpt lat="45.4044" lon="5.80062">
        <ele>1122</ele>
        <time>2026-07-19T12:10:30Z</time>
      </trkpt>
      <trkpt lat="45.4045" lon="5.80073">
        <ele>1121.52</ele>
        <time>2026-07-19T12:10:43Z</time>
      </trkpt>
      <trkpt lat="45.40464" lon="5.80091">
        <ele>1121.03</ele>
        <time>2026-07-19T12:11:00Z</time>
      </trkpt>
      <trkpt lat="45.40471" lon="5.8011">
        <ele>1120.55</ele>
        <time>2026-07-19T12:11:13Z</time>
      </trkpt>
      <trkpt lat="45.40475" lon="5.80114">
        <ele>1120.55</ele>
        <time>2026-07-19T12:11:17Z</time>
      </trkpt>
      <trkpt lat="45.40498" lon="5.80104">
        <ele>1120.55</ele>
        <time>2026-07-19T12:11:33Z</time>
      </trkpt>
      <trkpt lat="45.40504" lon="5.80119">
        <ele>1120.55</ele>
        <time>2026-07-19T12:11:43Z</time>
      </trkpt>
      <trkpt lat="45.40506" lon="5.80124">
        <ele>1120.55</ele>
        <time>2026-07-19T12:11:47Z</time>
      </trkpt>
      <trkpt lat="45.40519" lon="5.80126">
        <ele>1120.07</ele>
        <time>2026-07-19T12:11:59Z</time>
      </trkpt>
      <trkpt lat="45.40543" lon="5.80115">
        <ele>1119.59</ele>
        <time>2026-07-19T12:12:10Z</time>
      </trkpt>
      <trkpt lat="45.40559" lon="5.80118">
        <ele>1119.59</ele>
        <time>2026-07-19T12:12:26Z</time>
      </trkpt>
      <trkpt lat="45.40571" lon="5.80122">
        <ele>1119.59</ele>
        <time>2026-07-19T12:12:37Z</time>
      </trkpt>
      <trkpt lat="45.40584" lon="5.80131">
        <ele>1119.59</ele>
        <time>2026-07-19T12:12:50Z</time>
      </trkpt>
      <trkpt lat="45.40586" lon="5.80132">
        <ele>1119.59</ele>
        <time>2026-07-19T12:12:52Z</time>
      </trkpt>
      <trkpt lat="45.40603" lon="5.80143">
        <ele>1119.11</ele>
        <time>2026-07-19T12:13:11Z</time>
      </trkpt>
      <trkpt lat="45.40617" lon="5.80151">
        <ele>1118.63</ele>
        <time>2026-07-19T12:13:30Z</time>
      </trkpt>
      <trkpt lat="45.40636" lon="5.80165">
        <ele>1117.19</ele>
        <time>2026-07-19T12:13:49Z</time>
      </trkpt>
      <trkpt lat="45.40645" lon="5.80169">
        <ele>1116.71</ele>
        <time>2026-07-19T12:13:57Z</time>
      </trkpt>
      <trkpt lat="45.4066" lon="5.80177">
        <ele>1115.27</ele>
        <time>2026-07-19T12:14:12Z</time>
      </trkpt>
      <trkpt lat="45.40668" lon="5.80174">
        <ele>1108.54</ele>
        <time>2026-07-19T12:14:16Z</time>
      </trkpt>
      <trkpt lat="45.4067" lon="5.80173">
        <ele>1120.07</ele>
        <time>2026-07-19T12:14:17Z</time>
      </trkpt>
      <trkpt lat="45.4067" lon="5.80174">
        <ele>1115.27</ele>
        <time>2026-07-19T12:14:18Z</time>
      </trkpt>
      <trkpt lat="45.40684" lon="5.80179">
        <ele>1114.31</ele>
        <time>2026-07-19T12:14:33Z</time>
      </trkpt>
      <trkpt lat="45.40699" lon="5.80182">
        <ele>1112.86</ele>
        <time>2026-07-19T12:14:48Z</time>
      </trkpt>
      <trkpt lat="45.40716" lon="5.80185">
        <ele>1111.9</ele>
        <time>2026-07-19T12:15:05Z</time>
      </trkpt>
      <trkpt lat="45.40718" lon="5.80186">
        <ele>1110.94</ele>
        <time>2026-07-19T12:15:07Z</time>
      </trkpt>
      <trkpt lat="45.40721" lon="5.80188">
        <ele>1110.46</ele>
        <time>2026-07-19T12:15:10Z</time>
      </trkpt>
      <trkpt lat="45.40725" lon="5.80188">
        <ele>1110.46</ele>
        <time>2026-07-19T12:15:14Z</time>
      </trkpt>
      <trkpt lat="45.40728" lon="5.80192">
        <ele>1109.5</ele>
        <time>2026-07-19T12:15:21Z</time>
      </trkpt>
      <trkpt lat="45.4073" lon="5.80196">
        <ele>1109.5</ele>
        <time>2026-07-19T12:15:24Z</time>
      </trkpt>
      <trkpt lat="45.40734" lon="5.80199">
        <ele>1108.54</ele>
        <time>2026-07-19T12:15:28Z</time>
      </trkpt>
      <trkpt lat="45.40742" lon="5.8021">
        <ele>1107.58</ele>
        <time>2026-07-19T12:15:40Z</time>
      </trkpt>
      <trkpt lat="45.40756" lon="5.80218">
        <ele>1096.04</ele>
        <time>2026-07-19T12:15:54Z</time>
      </trkpt>
      <trkpt lat="45.40757" lon="5.80219">
        <ele>1113.82</ele>
        <time>2026-07-19T12:15:55Z</time>
      </trkpt>
      <trkpt lat="45.40757" lon="5.80219">
        <ele>1106.61</ele>
        <time>2026-07-19T12:15:56Z</time>
      </trkpt>
      <trkpt lat="45.40765" lon="5.80228">
        <ele>1105.65</ele>
        <time>2026-07-19T12:16:10Z</time>
      </trkpt>
      <trkpt lat="45.40765" lon="5.80229">
        <ele>1105.65</ele>
        <time>2026-07-19T12:16:11Z</time>
      </trkpt>
      <trkpt lat="45.4076" lon="5.80245">
        <ele>1104.69</ele>
        <time>2026-07-19T12:16:23Z</time>
      </trkpt>
      <trkpt lat="45.4076" lon="5.80246">
        <ele>1103.25</ele>
        <time>2026-07-19T12:16:35Z</time>
      </trkpt>
      <trkpt lat="45.40764" lon="5.80251">
        <ele>1100.85</ele>
        <time>2026-07-19T12:16:49Z</time>
      </trkpt>
      <trkpt lat="45.40774" lon="5.80266">
        <ele>1098.92</ele>
        <time>2026-07-19T12:17:06Z</time>
      </trkpt>
      <trkpt lat="45.40788" lon="5.8027">
        <ele>1097.96</ele>
        <time>2026-07-19T12:17:19Z</time>
      </trkpt>
      <trkpt lat="45.40803" lon="5.80268">
        <ele>1097</ele>
        <time>2026-07-19T12:17:31Z</time>
      </trkpt>
      <trkpt lat="45.40819" lon="5.80267">
        <ele>1095.08</ele>
        <time>2026-07-19T12:17:46Z</time>
      </trkpt>
      <trkpt lat="45.40823" lon="5.8027">
        <ele>1094.6</ele>
        <time>2026-07-19T12:17:52Z</time>
      </trkpt>
      <trkpt lat="45.40825" lon="5.80272">
        <ele>1094.12</ele>
        <time>2026-07-19T12:17:54Z</time>
      </trkpt>
      <trkpt lat="45.40835" lon="5.80267">
        <ele>1093.64</ele>
        <time>2026-07-19T12:18:09Z</time>
      </trkpt>
      <trkpt lat="45.40839" lon="5.80277">
        <ele>1092.68</ele>
        <time>2026-07-19T12:18:23Z</time>
      </trkpt>
      <trkpt lat="45.40849" lon="5.80285">
        <ele>1090.75</ele>
        <time>2026-07-19T12:18:39Z</time>
      </trkpt>
      <trkpt lat="45.40859" lon="5.80293">
        <ele>1088.35</ele>
        <time>2026-07-19T12:18:54Z</time>
      </trkpt>
      <trkpt lat="45.40869" lon="5.80297">
        <ele>1086.43</ele>
        <time>2026-07-19T12:19:07Z</time>
      </trkpt>
      <trkpt lat="45.40871" lon="5.80298">
        <ele>1085.95</ele>
        <time>2026-07-19T12:19:25Z</time>
      </trkpt>
      <trkpt lat="45.40876" lon="5.80302">
        <ele>1085.47</ele>
        <time>2026-07-19T12:19:31Z</time>
      </trkpt>
      <trkpt lat="45.40881" lon="5.80305">
        <ele>1084.5</ele>
        <time>2026-07-19T12:19:46Z</time>
      </trkpt>
      <trkpt lat="45.40886" lon="5.80307">
        <ele>1083.54</ele>
        <time>2026-07-19T12:19:52Z</time>
      </trkpt>
      <trkpt lat="45.40902" lon="5.80315">
        <ele>1081.14</ele>
        <time>2026-07-19T12:20:08Z</time>
      </trkpt>
      <trkpt lat="45.4091" lon="5.8032">
        <ele>1078.74</ele>
        <time>2026-07-19T12:20:23Z</time>
      </trkpt>
      <trkpt lat="45.40915" lon="5.80326">
        <ele>1076.33</ele>
        <time>2026-07-19T12:20:37Z</time>
      </trkpt>
      <trkpt lat="45.40922" lon="5.80324">
        <ele>1073.93</ele>
        <time>2026-07-19T12:20:52Z</time>
      </trkpt>
      <trkpt lat="45.40929" lon="5.80321">
        <ele>1071.05</ele>
        <time>2026-07-19T12:21:08Z</time>
      </trkpt>
      <trkpt lat="45.40934" lon="5.80316">
        <ele>1068.16</ele>
        <time>2026-07-19T12:21:24Z</time>
      </trkpt>
      <trkpt lat="45.40937" lon="5.80325">
        <ele>1065.28</ele>
        <time>2026-07-19T12:21:39Z</time>
      </trkpt>
      <trkpt lat="45.40938" lon="5.80329">
        <ele>1063.84</ele>
        <time>2026-07-19T12:21:45Z</time>
      </trkpt>
      <trkpt lat="45.40943" lon="5.80341">
        <ele>1060.95</ele>
        <time>2026-07-19T12:22:02Z</time>
      </trkpt>
      <trkpt lat="45.40943" lon="5.80357">
        <ele>1058.07</ele>
        <time>2026-07-19T12:22:17Z</time>
      </trkpt>
      <trkpt lat="45.4094" lon="5.80363">
        <ele>1057.11</ele>
        <time>2026-07-19T12:22:23Z</time>
      </trkpt>
      <trkpt lat="45.40936" lon="5.80371">
        <ele>1054.22</ele>
        <time>2026-07-19T12:22:40Z</time>
      </trkpt>
      <trkpt lat="45.4094" lon="5.80383">
        <ele>1052.78</ele>
        <time>2026-07-19T12:22:55Z</time>
      </trkpt>
      <trkpt lat="45.40941" lon="5.80388">
        <ele>1051.82</ele>
        <time>2026-07-19T12:23:09Z</time>
      </trkpt>
      <trkpt lat="45.40945" lon="5.80382">
        <ele>1052.3</ele>
        <time>2026-07-19T12:23:20Z</time>
      </trkpt>
      <trkpt lat="45.40947" lon="5.80379">
        <ele>1052.3</ele>
        <time>2026-07-19T12:23:34Z</time>
      </trkpt>
      <trkpt lat="45.4096" lon="5.80371">
        <ele>1051.82</ele>
        <time>2026-07-19T12:23:47Z</time>
      </trkpt>
      <trkpt lat="45.40973" lon="5.8036">
        <ele>1051.34</ele>
        <time>2026-07-19T12:24:01Z</time>
      </trkpt>
      <trkpt lat="45.40977" lon="5.80359">
        <ele>1051.34</ele>
        <time>2026-07-19T12:24:09Z</time>
      </trkpt>
      <trkpt lat="45.40978" lon="5.8036">
        <ele>1051.34</ele>
        <time>2026-07-19T12:24:11Z</time>
      </trkpt>
      <trkpt lat="45.40989" lon="5.80361">
        <ele>1051.34</ele>
        <time>2026-07-19T12:24:22Z</time>
      </trkpt>
      <trkpt lat="45.41002" lon="5.80359">
        <ele>1050.38</ele>
        <time>2026-07-19T12:24:36Z</time>
      </trkpt>
      <trkpt lat="45.41017" lon="5.80356">
        <ele>1048.94</ele>
        <time>2026-07-19T12:24:49Z</time>
      </trkpt>
      <trkpt lat="45.41032" lon="5.80354">
        <ele>1047.01</ele>
        <time>2026-07-19T12:25:04Z</time>
      </trkpt>
      <trkpt lat="45.41035" lon="5.80353">
        <ele>1046.53</ele>
        <time>2026-07-19T12:25:07Z</time>
      </trkpt>
      <trkpt lat="45.4105" lon="5.80353">
        <ele>1044.61</ele>
        <time>2026-07-19T12:25:24Z</time>
      </trkpt>
      <trkpt lat="45.41067" lon="5.80354">
        <ele>1043.17</ele>
        <time>2026-07-19T12:25:40Z</time>
      </trkpt>
      <trkpt lat="45.41088" lon="5.80358">
        <ele>1041.25</ele>
        <time>2026-07-19T12:25:58Z</time>
      </trkpt>
      <trkpt lat="45.41106" lon="5.80358">
        <ele>1038.84</ele>
        <time>2026-07-19T12:26:13Z</time>
      </trkpt>
      <trkpt lat="45.41115" lon="5.80356">
        <ele>1036.92</ele>
        <time>2026-07-19T12:26:29Z</time>
      </trkpt>
      <trkpt lat="45.41126" lon="5.80354">
        <ele>1036.44</ele>
        <time>2026-07-19T12:26:34Z</time>
      </trkpt>
      <trkpt lat="45.41132" lon="5.80353">
        <ele>1035.96</ele>
        <time>2026-07-19T12:26:38Z</time>
      </trkpt>
      <trkpt lat="45.41148" lon="5.80353">
        <ele>1034.52</ele>
        <time>2026-07-19T12:26:50Z</time>
      </trkpt>
      <trkpt lat="45.41152" lon="5.80354">
        <ele>1034.52</ele>
        <time>2026-07-19T12:26:54Z</time>
      </trkpt>
      <trkpt lat="45.41155" lon="5.80351">
        <ele>1034.04</ele>
        <time>2026-07-19T12:26:58Z</time>
      </trkpt>
      <trkpt lat="45.4116" lon="5.8035">
        <ele>1033.55</ele>
        <time>2026-07-19T12:27:03Z</time>
      </trkpt>
      <trkpt lat="45.41163" lon="5.80349">
        <ele>1033.07</ele>
        <time>2026-07-19T12:27:06Z</time>
      </trkpt>
      <trkpt lat="45.41167" lon="5.8035">
        <ele>1032.59</ele>
        <time>2026-07-19T12:27:10Z</time>
      </trkpt>
      <trkpt lat="45.41173" lon="5.80349">
        <ele>1031.63</ele>
        <time>2026-07-19T12:27:17Z</time>
      </trkpt>
      <trkpt lat="45.41185" lon="5.80347">
        <ele>1030.19</ele>
        <time>2026-07-19T12:27:31Z</time>
      </trkpt>
      <trkpt lat="45.41186" lon="5.80335">
        <ele>1029.71</ele>
        <time>2026-07-19T12:27:52Z</time>
      </trkpt>
      <trkpt lat="45.41178" lon="5.80332">
        <ele>1030.19</ele>
        <time>2026-07-19T12:28:18Z</time>
      </trkpt>
      <trkpt lat="45.41176" lon="5.80331">
        <ele>1030.19</ele>
        <time>2026-07-19T12:28:53Z</time>
      </trkpt>
      <trkpt lat="45.41183" lon="5.80334">
        <ele>1029.23</ele>
        <time>2026-07-19T12:29:01Z</time>
      </trkpt>
      <trkpt lat="45.41186" lon="5.80336">
        <ele>1029.23</ele>
        <time>2026-07-19T12:29:04Z</time>
      </trkpt>
      <trkpt lat="45.41202" lon="5.8035">
        <ele>1026.83</ele>
        <time>2026-07-19T12:29:21Z</time>
      </trkpt>
      <trkpt lat="45.41216" lon="5.80355">
        <ele>1024.9</ele>
        <time>2026-07-19T12:29:36Z</time>
      </trkpt>
      <trkpt lat="45.41225" lon="5.80359">
        <ele>1023.46</ele>
        <time>2026-07-19T12:29:50Z</time>
      </trkpt>
      <trkpt lat="45.41229" lon="5.80362">
        <ele>1022.98</ele>
        <time>2026-07-19T12:29:55Z</time>
      </trkpt>
      <trkpt lat="45.41232" lon="5.80366">
        <ele>1022.5</ele>
        <time>2026-07-19T12:29:58Z</time>
      </trkpt>
      <trkpt lat="45.41243" lon="5.80372">
        <ele>1021.06</ele>
        <time>2026-07-19T12:30:11Z</time>
      </trkpt>
      <trkpt lat="45.41255" lon="5.80382">
        <ele>1020.1</ele>
        <time>2026-07-19T12:30:25Z</time>
      </trkpt>
      <trkpt lat="45.41273" lon="5.80394">
        <ele>1018.17</ele>
        <time>2026-07-19T12:30:43Z</time>
      </trkpt>
      <trkpt lat="45.41287" lon="5.80405">
        <ele>1016.25</ele>
        <time>2026-07-19T12:30:59Z</time>
      </trkpt>
      <trkpt lat="45.41301" lon="5.80419">
        <ele>1014.81</ele>
        <time>2026-07-19T12:31:16Z</time>
      </trkpt>
      <trkpt lat="45.41307" lon="5.80429">
        <ele>1013.85</ele>
        <time>2026-07-19T12:31:26Z</time>
      </trkpt>
      <trkpt lat="45.41323" lon="5.80445">
        <ele>1012.89</ele>
        <time>2026-07-19T12:31:44Z</time>
      </trkpt>
      <trkpt lat="45.41325" lon="5.80447">
        <ele>1011.93</ele>
        <time>2026-07-19T12:31:47Z</time>
      </trkpt>
      <trkpt lat="45.41338" lon="5.80453">
        <ele>1010.48</ele>
        <time>2026-07-19T12:32:02Z</time>
      </trkpt>
      <trkpt lat="45.41351" lon="5.80462">
        <ele>1009.04</ele>
        <time>2026-07-19T12:32:17Z</time>
      </trkpt>
      <trkpt lat="45.41356" lon="5.80463">
        <ele>1008.56</ele>
        <time>2026-07-19T12:32:22Z</time>
      </trkpt>
      <trkpt lat="45.4137" lon="5.80475">
        <ele>1006.64</ele>
        <time>2026-07-19T12:32:39Z</time>
      </trkpt>
      <trkpt lat="45.41372" lon="5.8048">
        <ele>1005.68</ele>
        <time>2026-07-19T12:32:47Z</time>
      </trkpt>
      <trkpt lat="45.41382" lon="5.80485">
        <ele>1004.72</ele>
        <time>2026-07-19T12:32:57Z</time>
      </trkpt>
      <trkpt lat="45.41392" lon="5.80491">
        <ele>1004.23</ele>
        <time>2026-07-19T12:33:06Z</time>
      </trkpt>
      <trkpt lat="45.41396" lon="5.80496">
        <ele>1003.75</ele>
        <time>2026-07-19T12:33:13Z</time>
      </trkpt>
      <trkpt lat="45.41402" lon="5.80506">
        <ele>1002.31</ele>
        <time>2026-07-19T12:33:26Z</time>
      </trkpt>
      <trkpt lat="45.41405" lon="5.80509">
        <ele>1001.83</ele>
        <time>2026-07-19T12:33:31Z</time>
      </trkpt>
      <trkpt lat="45.41415" lon="5.80515">
        <ele>999.43</ele>
        <time>2026-07-19T12:33:47Z</time>
      </trkpt>
      <trkpt lat="45.41426" lon="5.80529">
        <ele>996.54</ele>
        <time>2026-07-19T12:34:06Z</time>
      </trkpt>
      <trkpt lat="45.4143" lon="5.80533">
        <ele>995.1</ele>
        <time>2026-07-19T12:34:23Z</time>
      </trkpt>
      <trkpt lat="45.41432" lon="5.80541">
        <ele>994.14</ele>
        <time>2026-07-19T12:34:47Z</time>
      </trkpt>
      <trkpt lat="45.41436" lon="5.80556">
        <ele>991.26</ele>
        <time>2026-07-19T12:35:03Z</time>
      </trkpt>
      <trkpt lat="45.41442" lon="5.80568">
        <ele>988.85</ele>
        <time>2026-07-19T12:35:19Z</time>
      </trkpt>
      <trkpt lat="45.41449" lon="5.8058">
        <ele>985.97</ele>
        <time>2026-07-19T12:35:35Z</time>
      </trkpt>
      <trkpt lat="45.41461" lon="5.80593">
        <ele>983.57</ele>
        <time>2026-07-19T12:35:51Z</time>
      </trkpt>
      <trkpt lat="45.41472" lon="5.80602">
        <ele>982.6</ele>
        <time>2026-07-19T12:36:05Z</time>
      </trkpt>
      <trkpt lat="45.41486" lon="5.8061">
        <ele>981.16</ele>
        <time>2026-07-19T12:36:20Z</time>
      </trkpt>
      <trkpt lat="45.41502" lon="5.80615">
        <ele>978.76</ele>
        <time>2026-07-19T12:36:35Z</time>
      </trkpt>
      <trkpt lat="45.41508" lon="5.80614">
        <ele>976.36</ele>
        <time>2026-07-19T12:36:50Z</time>
      </trkpt>
      <trkpt lat="45.41521" lon="5.80616">
        <ele>973.95</ele>
        <time>2026-07-19T12:37:07Z</time>
      </trkpt>
      <trkpt lat="45.41529" lon="5.80623">
        <ele>971.07</ele>
        <time>2026-07-19T12:37:27Z</time>
      </trkpt>
      <trkpt lat="45.41547" lon="5.80628">
        <ele>967.7</ele>
        <time>2026-07-19T12:37:41Z</time>
      </trkpt>
      <trkpt lat="45.41549" lon="5.80638">
        <ele>964.82</ele>
        <time>2026-07-19T12:37:58Z</time>
      </trkpt>
      <trkpt lat="45.41552" lon="5.80652">
        <ele>961.94</ele>
        <time>2026-07-19T12:38:12Z</time>
      </trkpt>
      <trkpt lat="45.41558" lon="5.80669">
        <ele>960.01</ele>
        <time>2026-07-19T12:38:26Z</time>
      </trkpt>
      <trkpt lat="45.41562" lon="5.80684">
        <ele>957.61</ele>
        <time>2026-07-19T12:38:41Z</time>
      </trkpt>
      <trkpt lat="45.41571" lon="5.80699">
        <ele>955.21</ele>
        <time>2026-07-19T12:38:56Z</time>
      </trkpt>
      <trkpt lat="45.41578" lon="5.80711">
        <ele>954.25</ele>
        <time>2026-07-19T12:39:07Z</time>
      </trkpt>
      <trkpt lat="45.4159" lon="5.8072">
        <ele>952.8</ele>
        <time>2026-07-19T12:39:22Z</time>
      </trkpt>
      <trkpt lat="45.41601" lon="5.80729">
        <ele>949.44</ele>
        <time>2026-07-19T12:39:40Z</time>
      </trkpt>
      <trkpt lat="45.41608" lon="5.80735">
        <ele>947.04</ele>
        <time>2026-07-19T12:39:56Z</time>
      </trkpt>
      <trkpt lat="45.41616" lon="5.80743">
        <ele>946.07</ele>
        <time>2026-07-19T12:40:12Z</time>
      </trkpt>
      <trkpt lat="45.41617" lon="5.8075">
        <ele>946.07</ele>
        <time>2026-07-19T12:40:41Z</time>
      </trkpt>
      <trkpt lat="45.41619" lon="5.80752">
        <ele>945.11</ele>
        <time>2026-07-19T12:40:57Z</time>
      </trkpt>
      <trkpt lat="45.41621" lon="5.80759">
        <ele>943.67</ele>
        <time>2026-07-19T12:41:10Z</time>
      </trkpt>
      <trkpt lat="45.41627" lon="5.8077">
        <ele>940.31</ele>
        <time>2026-07-19T12:41:26Z</time>
      </trkpt>
      <trkpt lat="45.41629" lon="5.80781">
        <ele>937.42</ele>
        <time>2026-07-19T12:41:42Z</time>
      </trkpt>
      <trkpt lat="45.41629" lon="5.80796">
        <ele>935.02</ele>
        <time>2026-07-19T12:41:57Z</time>
      </trkpt>
      <trkpt lat="45.4163" lon="5.80809">
        <ele>932.62</ele>
        <time>2026-07-19T12:42:12Z</time>
      </trkpt>
      <trkpt lat="45.41628" lon="5.8081">
        <ele>931.65</ele>
        <time>2026-07-19T12:42:15Z</time>
      </trkpt>
      <trkpt lat="45.41618" lon="5.80802">
        <ele>930.69</ele>
        <time>2026-07-19T12:42:29Z</time>
      </trkpt>
      <trkpt lat="45.41617" lon="5.80803">
        <ele>930.69</ele>
        <time>2026-07-19T12:42:32Z</time>
      </trkpt>
      <trkpt lat="45.41617" lon="5.80813">
        <ele>929.25</ele>
        <time>2026-07-19T12:42:47Z</time>
      </trkpt>
      <trkpt lat="45.41613" lon="5.80815">
        <ele>926.85</ele>
        <time>2026-07-19T12:43:00Z</time>
      </trkpt>
      <trkpt lat="45.41621" lon="5.80824">
        <ele>926.37</ele>
        <time>2026-07-19T12:43:13Z</time>
      </trkpt>
      <trkpt lat="45.41629" lon="5.80824">
        <ele>925.89</ele>
        <time>2026-07-19T12:43:25Z</time>
      </trkpt>
      <trkpt lat="45.4163" lon="5.80825">
        <ele>925.89</ele>
        <time>2026-07-19T12:43:52Z</time>
      </trkpt>
      <trkpt lat="45.41627" lon="5.80826">
        <ele>925.89</ele>
        <time>2026-07-19T12:44:14Z</time>
      </trkpt>
      <trkpt lat="45.41626" lon="5.80826">
        <ele>926.37</ele>
        <time>2026-07-19T12:44:19Z</time>
      </trkpt>
    </trkseg>
  </trk>
</gpx>